<?xml version="1.0" encoding="UTF-8" standalone="no" ?>
<gpx xmlns="http://www.topografix.com/GPX/1/1" xmlns:xsi="http://www.w3.org/2001/XMLSchema-instance" xsi:schemaLocation="http://www.topografix.com/GPX/1/1 http://www.topografix.com/GPX/1/1/gpx.xsd" version="1.1" creator="VisuGPX - https://www.visugpx.com">
  <metadata>
    <name>Partenay valognes découpé</name>
  </metadata>
  <trk>
    <name><![CDATA[Partenay valognes découpé_1]]></name>
    <extensions>
      <line xmlns="http://www.topografix.com/GPX/gpx_style/0/2">
        <color>0000FF</color>
        <width>4</width>
      </line>
    </extensions>
    <trkseg>
      <trkpt lat="46.57149" lon="-0.3065">
        <ele>205.23</ele>
        <time>2016-06-04T19:04:40Z</time>
      </trkpt>
      <trkpt lat="46.57149" lon="-0.3065">
        <ele>205.23</ele>
        <time>2016-06-04T19:04:40Z</time>
      </trkpt>
      <trkpt lat="46.57149" lon="-0.3065">
        <ele>205.23</ele>
        <time>2016-06-04T19:04:40Z</time>
      </trkpt>
      <trkpt lat="46.57233" lon="-0.30641">
        <ele>208.021</ele>
        <time>2016-06-04T19:04:20Z</time>
      </trkpt>
      <trkpt lat="46.57285" lon="-0.30663">
        <ele>209.355</ele>
        <time>2016-06-04T19:04:00Z</time>
      </trkpt>
      <trkpt lat="46.5733" lon="-0.30609">
        <ele>212.913</ele>
        <time>2016-06-04T19:03:40Z</time>
      </trkpt>
      <trkpt lat="46.57404" lon="-0.30553">
        <ele>215.587</ele>
        <time>2016-06-04T19:03:20Z</time>
      </trkpt>
      <trkpt lat="46.57538" lon="-0.30474">
        <ele>212.294</ele>
        <time>2016-06-04T19:03:00Z</time>
      </trkpt>
      <trkpt lat="46.57581" lon="-0.30422">
        <ele>210.169</ele>
        <time>2016-06-04T19:02:40Z</time>
      </trkpt>
      <trkpt lat="46.57634" lon="-0.30407">
        <ele>206.063</ele>
        <time>2016-06-04T19:02:20Z</time>
      </trkpt>
      <trkpt lat="46.57681" lon="-0.30388">
        <ele>207.008</ele>
        <time>2016-06-04T19:02:00Z</time>
      </trkpt>
      <trkpt lat="46.57789" lon="-0.30461">
        <ele>197.82</ele>
        <time>2016-06-04T19:01:40Z</time>
      </trkpt>
      <trkpt lat="46.57938" lon="-0.30472">
        <ele>193.228</ele>
        <time>2016-06-04T19:01:20Z</time>
      </trkpt>
      <trkpt lat="46.58053" lon="-0.3045">
        <ele>188.075</ele>
        <time>2016-06-04T19:01:00Z</time>
      </trkpt>
      <trkpt lat="46.58198" lon="-0.30532">
        <ele>190.01</ele>
        <time>2016-06-04T19:00:40Z</time>
      </trkpt>
      <trkpt lat="46.58289" lon="-0.30549">
        <ele>190.531</ele>
        <time>2016-06-04T19:00:20Z</time>
      </trkpt>
      <trkpt lat="46.58441" lon="-0.30502">
        <ele>186.055</ele>
        <time>2016-06-04T19:00:00Z</time>
      </trkpt>
      <trkpt lat="46.5847" lon="-0.30345">
        <ele>182.023</ele>
        <time>2016-06-04T18:59:40Z</time>
      </trkpt>
      <trkpt lat="46.58525" lon="-0.30294">
        <ele>181.587</ele>
        <time>2016-06-04T18:59:20Z</time>
      </trkpt>
      <trkpt lat="46.58562" lon="-0.30281">
        <ele>182.394</ele>
        <time>2016-06-04T18:59:00Z</time>
      </trkpt>
      <trkpt lat="46.58616" lon="-0.30227">
        <ele>182.199</ele>
        <time>2016-06-04T18:58:40Z</time>
      </trkpt>
      <trkpt lat="46.58698" lon="-0.30186">
        <ele>181.293</ele>
        <time>2016-06-04T18:58:20Z</time>
      </trkpt>
      <trkpt lat="46.58805" lon="-0.30071">
        <ele>187.008</ele>
        <time>2016-06-04T18:58:00Z</time>
      </trkpt>
      <trkpt lat="46.58823" lon="-0.29961">
        <ele>184.626</ele>
        <time>2016-06-04T18:57:40Z</time>
      </trkpt>
      <trkpt lat="46.5891" lon="-0.2977">
        <ele>185.033</ele>
        <time>2016-06-04T18:57:20Z</time>
      </trkpt>
      <trkpt lat="46.58917" lon="-0.29704">
        <ele>184.778</ele>
        <time>2016-06-04T18:57:00Z</time>
      </trkpt>
      <trkpt lat="46.5901" lon="-0.29757">
        <ele>188.926</ele>
        <time>2016-06-04T18:56:40Z</time>
      </trkpt>
      <trkpt lat="46.59106" lon="-0.29826">
        <ele>193.717</ele>
        <time>2016-06-04T18:56:20Z</time>
      </trkpt>
      <trkpt lat="46.5922" lon="-0.29877">
        <ele>195.621</ele>
        <time>2016-06-04T18:56:00Z</time>
      </trkpt>
      <trkpt lat="46.59339" lon="-0.29903">
        <ele>196.739</ele>
        <time>2016-06-04T18:55:40Z</time>
      </trkpt>
      <trkpt lat="46.59414" lon="-0.29901">
        <ele>197.453</ele>
        <time>2016-06-04T18:55:20Z</time>
      </trkpt>
      <trkpt lat="46.59529" lon="-0.3">
        <ele>202.17</ele>
        <time>2016-06-04T18:55:00Z</time>
      </trkpt>
      <trkpt lat="46.59557" lon="-0.29968">
        <ele>201.825</ele>
        <time>2016-06-04T18:54:40Z</time>
      </trkpt>
      <trkpt lat="46.59634" lon="-0.30071">
        <ele>206.179</ele>
        <time>2016-06-04T18:54:20Z</time>
      </trkpt>
      <trkpt lat="46.59902" lon="-0.29826">
        <ele>207.008</ele>
        <time>2016-06-04T18:54:00Z</time>
      </trkpt>
      <trkpt lat="46.60016" lon="-0.29787">
        <ele>202.118</ele>
        <time>2016-06-04T18:53:40Z</time>
      </trkpt>
      <trkpt lat="46.60109" lon="-0.29734">
        <ele>199.017</ele>
        <time>2016-06-04T18:53:20Z</time>
      </trkpt>
      <trkpt lat="46.60128" lon="-0.29701">
        <ele>198.436</ele>
        <time>2016-06-04T18:53:00Z</time>
      </trkpt>
      <trkpt lat="46.60089" lon="-0.29545">
        <ele>196.147</ele>
        <time>2016-06-04T18:52:40Z</time>
      </trkpt>
      <trkpt lat="46.6011" lon="-0.29457">
        <ele>200.068</ele>
        <time>2016-06-04T18:52:20Z</time>
      </trkpt>
      <trkpt lat="46.60101" lon="-0.29232">
        <ele>195.932</ele>
        <time>2016-06-04T18:52:00Z</time>
      </trkpt>
      <trkpt lat="46.60061" lon="-0.29199">
        <ele>197.89</ele>
        <time>2016-06-04T18:51:40Z</time>
      </trkpt>
      <trkpt lat="46.60007" lon="-0.28998">
        <ele>200.044</ele>
        <time>2016-06-04T18:51:20Z</time>
      </trkpt>
      <trkpt lat="46.59972" lon="-0.28897">
        <ele>200.321</ele>
        <time>2016-06-04T18:51:00Z</time>
      </trkpt>
      <trkpt lat="46.59929" lon="-0.28901">
        <ele>198.926</ele>
        <time>2016-06-04T18:50:40Z</time>
      </trkpt>
      <trkpt lat="46.5992" lon="-0.2882">
        <ele>196.47</ele>
        <time>2016-06-04T18:50:20Z</time>
      </trkpt>
      <trkpt lat="46.59973" lon="-0.28811">
        <ele>196.208</ele>
        <time>2016-06-04T18:50:00Z</time>
      </trkpt>
      <trkpt lat="46.60216" lon="-0.28719">
        <ele>190.81</ele>
        <time>2016-06-04T18:49:40Z</time>
      </trkpt>
      <trkpt lat="46.60328" lon="-0.28667">
        <ele>192.064</ele>
        <time>2016-06-04T18:49:20Z</time>
      </trkpt>
      <trkpt lat="46.60327" lon="-0.28558">
        <ele>192.543</ele>
        <time>2016-06-04T18:49:00Z</time>
      </trkpt>
      <trkpt lat="46.60258" lon="-0.28496">
        <ele>189.36</ele>
        <time>2016-06-04T18:48:40Z</time>
      </trkpt>
      <trkpt lat="46.60258" lon="-0.28448">
        <ele>189.321</ele>
        <time>2016-06-04T18:48:20Z</time>
      </trkpt>
      <trkpt lat="46.60278" lon="-0.28408">
        <ele>190.095</ele>
        <time>2016-06-04T18:48:00Z</time>
      </trkpt>
      <trkpt lat="46.6044" lon="-0.28193">
        <ele>184.193</ele>
        <time>2016-06-04T18:47:40Z</time>
      </trkpt>
      <trkpt lat="46.60517" lon="-0.28077">
        <ele>177.287</ele>
        <time>2016-06-04T18:47:20Z</time>
      </trkpt>
      <trkpt lat="46.60573" lon="-0.28024">
        <ele>172.724</ele>
        <time>2016-06-04T18:47:00Z</time>
      </trkpt>
      <trkpt lat="46.60631" lon="-0.27918">
        <ele>169.769</ele>
        <time>2016-06-04T18:46:40Z</time>
      </trkpt>
      <trkpt lat="46.6069" lon="-0.27723">
        <ele>168.053</ele>
        <time>2016-06-04T18:46:20Z</time>
      </trkpt>
      <trkpt lat="46.60726" lon="-0.27539">
        <ele>166.708</ele>
        <time>2016-06-04T18:46:00Z</time>
      </trkpt>
      <trkpt lat="46.60881" lon="-0.27339">
        <ele>161.825</ele>
        <time>2016-06-04T18:45:40Z</time>
      </trkpt>
      <trkpt lat="46.60912" lon="-0.27255">
        <ele>159.205</ele>
        <time>2016-06-04T18:45:20Z</time>
      </trkpt>
      <trkpt lat="46.60974" lon="-0.27174">
        <ele>160.179</ele>
        <time>2016-06-04T18:45:00Z</time>
      </trkpt>
      <trkpt lat="46.61124" lon="-0.27047">
        <ele>169.076</ele>
        <time>2016-06-04T18:44:40Z</time>
      </trkpt>
      <trkpt lat="46.61211" lon="-0.27004">
        <ele>165.817</ele>
        <time>2016-06-04T18:44:20Z</time>
      </trkpt>
      <trkpt lat="46.61341" lon="-0.26869">
        <ele>160.781</ele>
        <time>2016-06-04T18:44:00Z</time>
      </trkpt>
      <trkpt lat="46.61428" lon="-0.26813">
        <ele>160.199</ele>
        <time>2016-06-04T18:43:40Z</time>
      </trkpt>
      <trkpt lat="46.61475" lon="-0.26807">
        <ele>161.043</ele>
        <time>2016-06-04T18:43:20Z</time>
      </trkpt>
      <trkpt lat="46.61577" lon="-0.26706">
        <ele>159.02</ele>
        <time>2016-06-04T18:43:00Z</time>
      </trkpt>
      <trkpt lat="46.61652" lon="-0.26659">
        <ele>161.685</ele>
        <time>2016-06-04T18:42:40Z</time>
      </trkpt>
      <trkpt lat="46.61764" lon="-0.26644">
        <ele>163.719</ele>
        <time>2016-06-04T18:42:20Z</time>
      </trkpt>
      <trkpt lat="46.61836" lon="-0.26612">
        <ele>159.908</ele>
        <time>2016-06-04T18:42:00Z</time>
      </trkpt>
      <trkpt lat="46.61959" lon="-0.26526">
        <ele>156.013</ele>
        <time>2016-06-04T18:41:40Z</time>
      </trkpt>
      <trkpt lat="46.62007" lon="-0.26607">
        <ele>153.649</ele>
        <time>2016-06-04T18:41:20Z</time>
      </trkpt>
      <trkpt lat="46.62035" lon="-0.26725">
        <ele>150.937</ele>
        <time>2016-06-04T18:41:00Z</time>
      </trkpt>
      <trkpt lat="46.62102" lon="-0.26839">
        <ele>153.725</ele>
        <time>2016-06-04T18:40:40Z</time>
      </trkpt>
      <trkpt lat="46.621" lon="-0.26963">
        <ele>155.766</ele>
        <time>2016-06-04T18:40:20Z</time>
      </trkpt>
      <trkpt lat="46.62116" lon="-0.27011">
        <ele>158.22</ele>
        <time>2016-06-04T18:40:00Z</time>
      </trkpt>
      <trkpt lat="46.62225" lon="-0.27045">
        <ele>158.248</ele>
        <time>2016-06-04T18:39:40Z</time>
      </trkpt>
      <trkpt lat="46.62296" lon="-0.27041">
        <ele>158.482</ele>
        <time>2016-06-04T18:39:20Z</time>
      </trkpt>
      <trkpt lat="46.62523" lon="-0.26923">
        <ele>149.079</ele>
        <time>2016-06-04T18:39:00Z</time>
      </trkpt>
      <trkpt lat="46.62595" lon="-0.26951">
        <ele>149.294</ele>
        <time>2016-06-04T18:38:40Z</time>
      </trkpt>
      <trkpt lat="46.6267" lon="-0.26882">
        <ele>150.058</ele>
        <time>2016-06-04T18:38:20Z</time>
      </trkpt>
      <trkpt lat="46.62729" lon="-0.26843">
        <ele>146.508</ele>
        <time>2016-06-04T18:38:00Z</time>
      </trkpt>
      <trkpt lat="46.62925" lon="-0.26803">
        <ele>143.317</ele>
        <time>2016-06-04T18:37:40Z</time>
      </trkpt>
      <trkpt lat="46.62968" lon="-0.26777">
        <ele>142.289</ele>
        <time>2016-06-04T18:37:20Z</time>
      </trkpt>
      <trkpt lat="46.63033" lon="-0.26753">
        <ele>142.228</ele>
        <time>2016-06-04T18:37:00Z</time>
      </trkpt>
      <trkpt lat="46.63145" lon="-0.26738">
        <ele>137.848</ele>
        <time>2016-06-04T18:36:40Z</time>
      </trkpt>
      <trkpt lat="46.63202" lon="-0.26691">
        <ele>137.279</ele>
        <time>2016-06-04T18:36:20Z</time>
      </trkpt>
      <trkpt lat="46.63291" lon="-0.26717">
        <ele>138.223</ele>
        <time>2016-06-04T18:36:00Z</time>
      </trkpt>
      <trkpt lat="46.63333" lon="-0.26753">
        <ele>136.881</ele>
        <time>2016-06-04T18:35:40Z</time>
      </trkpt>
      <trkpt lat="46.63379" lon="-0.26773">
        <ele>137.645</ele>
        <time>2016-06-04T18:35:20Z</time>
      </trkpt>
      <trkpt lat="46.63441" lon="-0.26652">
        <ele>143.152</ele>
        <time>2016-06-04T18:35:00Z</time>
      </trkpt>
      <trkpt lat="46.63494" lon="-0.26622">
        <ele>148.267</ele>
        <time>2016-06-04T18:34:40Z</time>
      </trkpt>
      <trkpt lat="46.63544" lon="-0.26612">
        <ele>152.251</ele>
        <time>2016-06-04T18:34:20Z</time>
      </trkpt>
      <trkpt lat="46.63554" lon="-0.26642">
        <ele>150.708</ele>
        <time>2016-06-04T18:34:00Z</time>
      </trkpt>
      <trkpt lat="46.63584" lon="-0.26644">
        <ele>150.42</ele>
        <time>2016-06-04T18:33:40Z</time>
      </trkpt>
      <trkpt lat="46.63682" lon="-0.26597">
        <ele>142.2</ele>
        <time>2020-12-25T00:07:55Z</time>
      </trkpt>
      <trkpt lat="46.63712" lon="-0.26651">
        <ele>140.157</ele>
        <time>2020-12-25T00:07:35Z</time>
      </trkpt>
      <trkpt lat="46.63852" lon="-0.26464">
        <ele>134.447</ele>
        <time>2016-06-04T18:33:00Z</time>
      </trkpt>
      <trkpt lat="46.63913" lon="-0.26334">
        <ele>136.298</ele>
        <time>2020-12-25T00:06:55Z</time>
      </trkpt>
      <trkpt lat="46.63957" lon="-0.26273">
        <ele>138.6</ele>
      </trkpt>
      <trkpt lat="46.6402" lon="-0.26374">
        <ele>133.4</ele>
      </trkpt>
      <trkpt lat="46.63992" lon="-0.26472">
        <ele>131.356</ele>
        <time>2016-06-04T18:31:20Z</time>
      </trkpt>
      <trkpt lat="46.64051" lon="-0.26498">
        <ele>130.95</ele>
        <time>2016-06-04T18:31:00Z</time>
      </trkpt>
      <trkpt lat="46.64128" lon="-0.26442">
        <ele>131.208</ele>
        <time>2016-06-04T18:30:40Z</time>
      </trkpt>
      <trkpt lat="46.64194" lon="-0.26369">
        <ele>131.011</ele>
        <time>2016-06-04T18:30:20Z</time>
      </trkpt>
      <trkpt lat="46.64194" lon="-0.26369">
        <ele>131.011</ele>
        <time>2016-06-04T18:30:20Z</time>
      </trkpt>
      <trkpt lat="46.64194" lon="-0.26369">
        <ele>131.011</ele>
        <time>2016-06-04T18:30:20Z</time>
      </trkpt>
      <trkpt lat="46.64194" lon="-0.26369">
        <ele>131.011</ele>
        <time>2016-06-04T18:30:20Z</time>
      </trkpt>
      <trkpt lat="46.64237" lon="-0.26363">
        <ele>132.447</ele>
        <time>2016-06-04T18:30:00Z</time>
      </trkpt>
      <trkpt lat="46.6431" lon="-0.26371">
        <ele>132.745</ele>
        <time>2016-06-04T18:29:40Z</time>
      </trkpt>
      <trkpt lat="46.64354" lon="-0.26358">
        <ele>133.921</ele>
        <time>2016-06-04T18:29:20Z</time>
      </trkpt>
      <trkpt lat="46.64372" lon="-0.26365">
        <ele>133.992</ele>
        <time>2016-06-04T18:29:00Z</time>
      </trkpt>
      <trkpt lat="46.64465" lon="-0.26393">
        <ele>135.556</ele>
        <time>2016-06-04T18:28:40Z</time>
      </trkpt>
      <trkpt lat="46.64515" lon="-0.26361">
        <ele>135.534</ele>
        <time>2016-06-04T18:28:20Z</time>
      </trkpt>
      <trkpt lat="46.64536" lon="-0.26264">
        <ele>138.228</ele>
        <time>2016-06-04T18:28:00Z</time>
      </trkpt>
      <trkpt lat="46.64537" lon="-0.26157">
        <ele>142.075</ele>
        <time>2016-06-04T18:27:40Z</time>
      </trkpt>
      <trkpt lat="46.64567" lon="-0.26017">
        <ele>143.44</ele>
        <time>2016-06-04T18:27:20Z</time>
      </trkpt>
      <trkpt lat="46.64556" lon="-0.25912">
        <ele>144.174</ele>
        <time>2016-06-04T18:27:00Z</time>
      </trkpt>
      <trkpt lat="46.64599" lon="-0.25661">
        <ele>140.608</ele>
        <time>2016-06-04T18:26:40Z</time>
      </trkpt>
      <trkpt lat="46.64624" lon="-0.25562">
        <ele>143.817</ele>
        <time>2016-06-04T18:26:20Z</time>
      </trkpt>
      <trkpt lat="46.64712" lon="-0.25376">
        <ele>141.589</ele>
        <time>2016-06-04T18:26:00Z</time>
      </trkpt>
      <trkpt lat="46.6476" lon="-0.25365">
        <ele>135.585</ele>
        <time>2016-06-04T18:25:40Z</time>
      </trkpt>
      <trkpt lat="46.64792" lon="-0.25304">
        <ele>146.452</ele>
        <time>2020-12-24T23:59:15Z</time>
      </trkpt>
      <trkpt lat="46.64829" lon="-0.2529">
        <ele>148.073</ele>
        <time>2020-12-24T23:58:55Z</time>
      </trkpt>
      <trkpt lat="46.64834" lon="-0.2527">
        <ele>152.327</ele>
        <time>2020-12-24T23:58:35Z</time>
      </trkpt>
      <trkpt lat="46.64832" lon="-0.25246">
        <ele>157.665</ele>
        <time>2020-12-24T23:58:15Z</time>
      </trkpt>
      <trkpt lat="46.64845" lon="-0.25244">
        <ele>156.719</ele>
        <time>2020-12-24T23:57:55Z</time>
      </trkpt>
      <trkpt lat="46.64848" lon="-0.25212">
        <ele>160.476</ele>
        <time>2020-12-24T23:57:35Z</time>
      </trkpt>
      <trkpt lat="46.64858" lon="-0.25193">
        <ele>162.171</ele>
        <time>2020-12-24T23:57:15Z</time>
      </trkpt>
      <trkpt lat="46.64875" lon="-0.25198">
        <ele>160.275</ele>
        <time>2020-12-24T23:56:55Z</time>
      </trkpt>
      <trkpt lat="46.64919" lon="-0.25195">
        <ele>160.708</ele>
        <time>2016-06-04T18:24:20Z</time>
      </trkpt>
      <trkpt lat="46.65011" lon="-0.25159">
        <ele>160.319</ele>
        <time>2016-06-04T18:24:00Z</time>
      </trkpt>
      <trkpt lat="46.65138" lon="-0.25152">
        <ele>151.181</ele>
        <time>2016-06-04T18:23:40Z</time>
      </trkpt>
      <trkpt lat="46.6515" lon="-0.25145">
        <ele>147.291</ele>
        <time>2020-12-24T23:55:35Z</time>
      </trkpt>
      <trkpt lat="46.65178" lon="-0.25115">
        <ele>141.589</ele>
        <time>2020-12-24T23:55:15Z</time>
      </trkpt>
      <trkpt lat="46.65183" lon="-0.25092">
        <ele>139.36</ele>
        <time>2020-12-24T23:54:55Z</time>
      </trkpt>
      <trkpt lat="46.65169" lon="-0.25062">
        <ele>138.574</ele>
        <time>2020-12-24T23:54:35Z</time>
      </trkpt>
      <trkpt lat="46.6514" lon="-0.25051">
        <ele>141.882</ele>
        <time>2020-12-24T23:54:15Z</time>
      </trkpt>
      <trkpt lat="46.65114" lon="-0.25023">
        <ele>143.276</ele>
        <time>2020-12-24T23:53:55Z</time>
      </trkpt>
      <trkpt lat="46.65077" lon="-0.24996">
        <ele>145.633</ele>
        <time>2020-12-24T23:53:35Z</time>
      </trkpt>
      <trkpt lat="46.65123" lon="-0.24963">
        <ele>141.828</ele>
        <time>2020-12-24T23:53:15Z</time>
      </trkpt>
      <trkpt lat="46.65171" lon="-0.2496">
        <ele>135.762</ele>
        <time>2020-12-24T23:52:55Z</time>
      </trkpt>
      <trkpt lat="46.65261" lon="-0.24924">
        <ele>132.108</ele>
        <time>2020-12-24T23:52:35Z</time>
      </trkpt>
      <trkpt lat="46.65313" lon="-0.2489">
        <ele>136.813</ele>
        <time>2020-12-24T23:52:15Z</time>
      </trkpt>
      <trkpt lat="46.65316" lon="-0.24913">
        <ele>137.321</ele>
        <time>2020-12-24T23:51:55Z</time>
      </trkpt>
      <trkpt lat="46.65365" lon="-0.24972">
        <ele>141.761</ele>
        <time>2020-12-24T23:51:35Z</time>
      </trkpt>
      <trkpt lat="46.65384" lon="-0.24945">
        <ele>142.425</ele>
        <time>2020-12-24T23:51:15Z</time>
      </trkpt>
      <trkpt lat="46.65396" lon="-0.24903">
        <ele>141.656</ele>
        <time>2020-12-24T23:50:55Z</time>
      </trkpt>
      <trkpt lat="46.65451" lon="-0.24835">
        <ele>140.98</ele>
        <time>2020-12-24T23:50:35Z</time>
      </trkpt>
      <trkpt lat="46.65468" lon="-0.24779">
        <ele>138.648</ele>
        <time>2020-12-24T23:50:15Z</time>
      </trkpt>
      <trkpt lat="46.655" lon="-0.24679">
        <ele>134.692</ele>
        <time>2020-12-24T23:49:55Z</time>
      </trkpt>
      <trkpt lat="46.65552" lon="-0.24639">
        <ele>138.839</ele>
        <time>2020-12-24T23:49:35Z</time>
      </trkpt>
      <trkpt lat="46.65661" lon="-0.24412">
        <ele>131.694</ele>
        <time>2020-12-24T23:49:15Z</time>
      </trkpt>
      <trkpt lat="46.65679" lon="-0.24425">
        <ele>133.388</ele>
        <time>2020-12-24T23:48:55Z</time>
      </trkpt>
      <trkpt lat="46.65732" lon="-0.24323">
        <ele>136.708</ele>
        <time>2020-12-24T23:48:35Z</time>
      </trkpt>
      <trkpt lat="46.65759" lon="-0.2421">
        <ele>136.508</ele>
        <time>2020-12-24T23:48:15Z</time>
      </trkpt>
      <trkpt lat="46.65737" lon="-0.24197">
        <ele>134.326</ele>
        <time>2020-12-24T23:47:55Z</time>
      </trkpt>
      <trkpt lat="46.65746" lon="-0.24147">
        <ele>133.625</ele>
        <time>2020-12-24T23:47:35Z</time>
      </trkpt>
      <trkpt lat="46.65741" lon="-0.24119">
        <ele>133.09</ele>
        <time>2020-12-24T23:47:15Z</time>
      </trkpt>
      <trkpt lat="46.65749" lon="-0.24061">
        <ele>132.481</ele>
        <time>2020-12-24T23:46:55Z</time>
      </trkpt>
      <trkpt lat="46.65751" lon="-0.24021">
        <ele>131.645</ele>
        <time>2020-12-24T23:46:35Z</time>
      </trkpt>
      <trkpt lat="46.65779" lon="-0.23983">
        <ele>134.183</ele>
        <time>2020-12-24T23:46:15Z</time>
      </trkpt>
      <trkpt lat="46.65785" lon="-0.23897">
        <ele>132.977</ele>
        <time>2020-12-24T23:45:55Z</time>
      </trkpt>
      <trkpt lat="46.65812" lon="-0.23797">
        <ele>135.134</ele>
        <time>2020-12-24T23:45:35Z</time>
      </trkpt>
      <trkpt lat="46.65861" lon="-0.23737">
        <ele>140.489</ele>
        <time>2020-12-24T23:45:15Z</time>
      </trkpt>
      <trkpt lat="46.6587" lon="-0.23674">
        <ele>141.563</ele>
        <time>2020-12-24T23:44:55Z</time>
      </trkpt>
      <trkpt lat="46.65886" lon="-0.2365">
        <ele>147.208</ele>
        <time>2016-06-04T18:14:40Z</time>
      </trkpt>
      <trkpt lat="46.65908" lon="-0.23663">
        <ele>152.127</ele>
        <time>2016-06-04T18:14:20Z</time>
      </trkpt>
      <trkpt lat="46.65935" lon="-0.23738">
        <ele>152.661</ele>
        <time>2016-06-04T18:14:00Z</time>
      </trkpt>
      <trkpt lat="46.65932" lon="-0.23767">
        <ele>148.577</ele>
        <time>2020-12-24T23:43:35Z</time>
      </trkpt>
      <trkpt lat="46.65922" lon="-0.23769">
        <ele>147.969</ele>
        <time>2020-12-24T23:43:15Z</time>
      </trkpt>
      <trkpt lat="46.65906" lon="-0.23812">
        <ele>141.69</ele>
        <time>2020-12-24T23:42:55Z</time>
      </trkpt>
      <trkpt lat="46.65954" lon="-0.23838">
        <ele>141.424</ele>
        <time>2020-12-24T23:42:35Z</time>
      </trkpt>
      <trkpt lat="46.65967" lon="-0.23834">
        <ele>141.812</ele>
        <time>2020-12-24T23:42:15Z</time>
      </trkpt>
      <trkpt lat="46.66" lon="-0.23813">
        <ele>145.526</ele>
        <time>2020-12-24T23:41:55Z</time>
      </trkpt>
      <trkpt lat="46.66057" lon="-0.23812">
        <ele>144.413</ele>
        <time>2020-12-24T23:41:35Z</time>
      </trkpt>
      <trkpt lat="46.66029" lon="-0.23848">
        <ele>139.568</ele>
        <time>2016-06-04T18:11:20Z</time>
      </trkpt>
      <trkpt lat="46.6605" lon="-0.23878">
        <ele>140.512</ele>
        <time>2016-06-04T18:11:00Z</time>
      </trkpt>
      <trkpt lat="46.66067" lon="-0.23887">
        <ele>143.408</ele>
        <time>2020-12-24T23:40:35Z</time>
      </trkpt>
      <trkpt lat="46.66095" lon="-0.23882">
        <ele>142.318</ele>
        <time>2016-06-04T18:10:40Z</time>
      </trkpt>
      <trkpt lat="46.66156" lon="-0.23861">
        <ele>145.044</ele>
        <time>2020-12-24T23:39:55Z</time>
      </trkpt>
      <trkpt lat="46.66185" lon="-0.23858">
        <ele>145.863</ele>
        <time>2020-12-24T23:39:35Z</time>
      </trkpt>
      <trkpt lat="46.66186" lon="-0.23846">
        <ele>145.734</ele>
        <time>2020-12-24T23:39:15Z</time>
      </trkpt>
      <trkpt lat="46.66151" lon="-0.23801">
        <ele>146.225</ele>
        <time>2016-06-04T18:10:00Z</time>
      </trkpt>
      <trkpt lat="46.66087" lon="-0.23776">
        <ele>146.889</ele>
        <time>2020-12-24T23:38:35Z</time>
      </trkpt>
      <trkpt lat="46.66107" lon="-0.23751">
        <ele>148.977</ele>
        <time>2020-12-24T23:38:15Z</time>
      </trkpt>
      <trkpt lat="46.66115" lon="-0.2371">
        <ele>150.961</ele>
        <time>2020-12-24T23:37:55Z</time>
      </trkpt>
      <trkpt lat="46.66113" lon="-0.23689">
        <ele>151.398</ele>
        <time>2016-06-04T18:09:00Z</time>
      </trkpt>
      <trkpt lat="46.6619" lon="-0.23552">
        <ele>156.063</ele>
        <time>2016-06-04T18:08:40Z</time>
      </trkpt>
      <trkpt lat="46.66252" lon="-0.23466">
        <ele>157.257</ele>
        <time>2016-06-04T18:08:20Z</time>
      </trkpt>
      <trkpt lat="46.66306" lon="-0.23466">
        <ele>157.208</ele>
        <time>2016-06-04T18:08:00Z</time>
      </trkpt>
      <trkpt lat="46.66399" lon="-0.2352">
        <ele>154.715</ele>
        <time>2016-06-04T18:07:40Z</time>
      </trkpt>
      <trkpt lat="46.66556" lon="-0.22936">
        <ele>169.087</ele>
        <time>2016-06-04T18:07:20Z</time>
      </trkpt>
      <trkpt lat="46.6662" lon="-0.22867">
        <ele>166.817</ele>
        <time>2016-06-04T18:07:00Z</time>
      </trkpt>
      <trkpt lat="46.66699" lon="-0.22717">
        <ele>164.742</ele>
        <time>2016-06-04T18:06:40Z</time>
      </trkpt>
      <trkpt lat="46.66739" lon="-0.22666">
        <ele>161.483</ele>
        <time>2016-06-04T18:06:20Z</time>
      </trkpt>
      <trkpt lat="46.66789" lon="-0.22569">
        <ele>161.597</ele>
        <time>2016-06-04T18:06:00Z</time>
      </trkpt>
      <trkpt lat="46.6682" lon="-0.22466">
        <ele>161.845</ele>
        <time>2016-06-04T18:05:40Z</time>
      </trkpt>
      <trkpt lat="46.6692" lon="-0.2235">
        <ele>165.059</ele>
        <time>2016-06-04T18:05:20Z</time>
      </trkpt>
      <trkpt lat="46.6692" lon="-0.2235">
        <ele>165.036</ele>
        <time>2016-06-04T18:05:00Z</time>
      </trkpt>
      <trkpt lat="46.67003" lon="-0.22058">
        <ele>160.971</ele>
        <time>2016-06-04T18:04:40Z</time>
      </trkpt>
      <trkpt lat="46.67005" lon="-0.21972">
        <ele>161.225</ele>
        <time>2016-06-04T18:04:20Z</time>
      </trkpt>
      <trkpt lat="46.67035" lon="-0.21769">
        <ele>157.908</ele>
        <time>2016-06-04T18:04:00Z</time>
      </trkpt>
      <trkpt lat="46.67129" lon="-0.21548">
        <ele>149.22</ele>
        <time>2016-06-04T18:03:40Z</time>
      </trkpt>
      <trkpt lat="46.67138" lon="-0.21509">
        <ele>149.073</ele>
        <time>2016-06-04T18:03:20Z</time>
      </trkpt>
      <trkpt lat="46.67163" lon="-0.21468">
        <ele>149.192</ele>
        <time>2016-06-04T18:03:00Z</time>
      </trkpt>
      <trkpt lat="46.67245" lon="-0.21404">
        <ele>148.93</ele>
        <time>2016-06-04T18:02:40Z</time>
      </trkpt>
      <trkpt lat="46.67297" lon="-0.21275">
        <ele>147.011</ele>
        <time>2016-06-04T18:02:20Z</time>
      </trkpt>
      <trkpt lat="46.67344" lon="-0.21181">
        <ele>146.995</ele>
        <time>2016-06-04T18:02:00Z</time>
      </trkpt>
      <trkpt lat="46.6745" lon="-0.21009">
        <ele>143.613</ele>
        <time>2016-06-04T18:01:40Z</time>
      </trkpt>
      <trkpt lat="46.67513" lon="-0.20857">
        <ele>143.437</ele>
        <time>2016-06-04T18:01:20Z</time>
      </trkpt>
      <trkpt lat="46.67544" lon="-0.20816">
        <ele>144.044</ele>
        <time>2016-06-04T18:01:00Z</time>
      </trkpt>
      <trkpt lat="46.6758" lon="-0.20932">
        <ele>146.799</ele>
        <time>2016-06-04T18:00:40Z</time>
      </trkpt>
      <trkpt lat="46.6772" lon="-0.2106">
        <ele>146.383</ele>
        <time>2016-06-04T18:00:20Z</time>
      </trkpt>
      <trkpt lat="46.67742" lon="-0.21174">
        <ele>147.508</ele>
        <time>2016-06-04T18:00:00Z</time>
      </trkpt>
      <trkpt lat="46.67773" lon="-0.21198">
        <ele>146.527</ele>
        <time>2016-06-04T17:59:40Z</time>
      </trkpt>
      <trkpt lat="46.67949" lon="-0.20938">
        <ele>145.161</ele>
        <time>2016-06-04T17:59:20Z</time>
      </trkpt>
      <trkpt lat="46.6828" lon="-0.20327">
        <ele>164.977</ele>
        <time>2016-06-04T17:59:00Z</time>
      </trkpt>
      <trkpt lat="46.68389" lon="-0.20078">
        <ele>166.054</ele>
        <time>2016-06-04T17:58:40Z</time>
      </trkpt>
      <trkpt lat="46.68466" lon="-0.19897">
        <ele>163.885</ele>
        <time>2016-06-04T17:58:20Z</time>
      </trkpt>
      <trkpt lat="46.68691" lon="-0.1943">
        <ele>160.929</ele>
        <time>2016-06-04T17:58:00Z</time>
      </trkpt>
      <trkpt lat="46.68865" lon="-0.18943">
        <ele>155.027</ele>
        <time>2016-06-04T17:57:40Z</time>
      </trkpt>
      <trkpt lat="46.69015" lon="-0.187">
        <ele>157.561</ele>
        <time>2016-06-04T17:57:20Z</time>
      </trkpt>
      <trkpt lat="46.691" lon="-0.18516">
        <ele>156.038</ele>
        <time>2016-06-04T17:57:00Z</time>
      </trkpt>
      <trkpt lat="46.69156" lon="-0.18413">
        <ele>154.053</ele>
        <time>2016-06-04T17:56:40Z</time>
      </trkpt>
      <trkpt lat="46.69193" lon="-0.18273">
        <ele>155.167</ele>
        <time>2016-06-04T17:56:20Z</time>
      </trkpt>
      <trkpt lat="46.6922" lon="-0.18196">
        <ele>155.008</ele>
        <time>2016-06-04T17:56:00Z</time>
      </trkpt>
      <trkpt lat="46.6923" lon="-0.18095">
        <ele>153.319</ele>
        <time>2016-06-04T17:55:40Z</time>
      </trkpt>
      <trkpt lat="46.6928" lon="-0.17992">
        <ele>153.209</ele>
        <time>2016-06-04T17:55:20Z</time>
      </trkpt>
      <trkpt lat="46.69398" lon="-0.17825">
        <ele>150.619</ele>
        <time>2016-06-04T17:55:00Z</time>
      </trkpt>
      <trkpt lat="46.69474" lon="-0.1779">
        <ele>148.595</ele>
        <time>2016-06-04T17:54:40Z</time>
      </trkpt>
      <trkpt lat="46.69598" lon="-0.17784">
        <ele>146.976</ele>
        <time>2016-06-04T17:54:20Z</time>
      </trkpt>
      <trkpt lat="46.69919" lon="-0.17578">
        <ele>144.96</ele>
        <time>2016-06-04T17:54:00Z</time>
      </trkpt>
      <trkpt lat="46.69989" lon="-0.17584">
        <ele>143.688</ele>
        <time>2016-06-04T17:53:40Z</time>
      </trkpt>
      <trkpt lat="46.70058" lon="-0.1755">
        <ele>144.232</ele>
        <time>2016-06-04T17:53:20Z</time>
      </trkpt>
      <trkpt lat="46.70175" lon="-0.17507">
        <ele>142.579</ele>
        <time>2016-06-04T17:53:00Z</time>
      </trkpt>
      <trkpt lat="46.70247" lon="-0.17514">
        <ele>140.534</ele>
        <time>2016-06-04T17:52:40Z</time>
      </trkpt>
      <trkpt lat="46.70345" lon="-0.17464">
        <ele>140.048</ele>
        <time>2016-06-04T17:52:20Z</time>
      </trkpt>
      <trkpt lat="46.70465" lon="-0.17381">
        <ele>137.908</ele>
        <time>2016-06-04T17:52:00Z</time>
      </trkpt>
      <trkpt lat="46.70541" lon="-0.17348">
        <ele>135.511</ele>
        <time>2016-06-04T17:51:40Z</time>
      </trkpt>
      <trkpt lat="46.70674" lon="-0.17348">
        <ele>135.983</ele>
        <time>2016-06-04T17:51:20Z</time>
      </trkpt>
      <trkpt lat="46.70734" lon="-0.17368">
        <ele>135.923</ele>
        <time>2016-06-04T17:51:00Z</time>
      </trkpt>
      <trkpt lat="46.70832" lon="-0.1737">
        <ele>134.781</ele>
        <time>2016-06-04T17:50:40Z</time>
      </trkpt>
      <trkpt lat="46.70941" lon="-0.1731">
        <ele>134.132</ele>
        <time>2016-06-04T17:50:20Z</time>
      </trkpt>
      <trkpt lat="46.70996" lon="-0.17209">
        <ele>134.596</ele>
        <time>2016-06-04T17:50:00Z</time>
      </trkpt>
      <trkpt lat="46.7108" lon="-0.17202">
        <ele>133.094</ele>
        <time>2016-06-04T17:49:40Z</time>
      </trkpt>
      <trkpt lat="46.71234" lon="-0.1722">
        <ele>132.968</ele>
        <time>2016-06-04T17:49:20Z</time>
      </trkpt>
      <trkpt lat="46.71446" lon="-0.17209">
        <ele>135.135</ele>
        <time>2016-06-04T17:49:00Z</time>
      </trkpt>
      <trkpt lat="46.71589" lon="-0.17123">
        <ele>134.99</ele>
        <time>2016-06-04T17:48:40Z</time>
      </trkpt>
      <trkpt lat="46.71736" lon="-0.17005">
        <ele>126.184</ele>
        <time>2016-06-04T17:48:20Z</time>
      </trkpt>
      <trkpt lat="46.71968" lon="-0.16988">
        <ele>123.108</ele>
        <time>2016-06-04T17:48:00Z</time>
      </trkpt>
      <trkpt lat="46.72031" lon="-0.17059">
        <ele>123.226</ele>
        <time>2016-06-04T17:47:40Z</time>
      </trkpt>
      <trkpt lat="46.72137" lon="-0.16984">
        <ele>125.66</ele>
        <time>2016-06-04T17:47:20Z</time>
      </trkpt>
      <trkpt lat="46.72301" lon="-0.16829">
        <ele>116.086</ele>
        <time>2016-06-04T17:47:00Z</time>
      </trkpt>
      <trkpt lat="46.72455" lon="-0.1667">
        <ele>114.428</ele>
        <time>2016-06-04T17:46:40Z</time>
      </trkpt>
      <trkpt lat="46.72467" lon="-0.16642">
        <ele>114.689</ele>
        <time>2016-06-04T17:46:20Z</time>
      </trkpt>
      <trkpt lat="46.72508" lon="-0.16666">
        <ele>116.333</ele>
        <time>2016-06-04T17:46:00Z</time>
      </trkpt>
      <trkpt lat="46.72565" lon="-0.16683">
        <ele>117.751</ele>
        <time>2016-06-04T17:45:40Z</time>
      </trkpt>
      <trkpt lat="46.7263" lon="-0.1672">
        <ele>121.475</ele>
        <time>2016-06-04T17:45:20Z</time>
      </trkpt>
      <trkpt lat="46.72667" lon="-0.1672">
        <ele>123.072</ele>
        <time>2016-06-04T17:45:00Z</time>
      </trkpt>
      <trkpt lat="46.72733" lon="-0.16756">
        <ele>129.787</ele>
        <time>2016-06-04T17:44:40Z</time>
      </trkpt>
      <trkpt lat="46.72733" lon="-0.16756">
        <ele>129.751</ele>
        <time>2016-06-04T17:44:40Z</time>
      </trkpt>
      <trkpt lat="46.72764" lon="-0.16711">
        <ele>132.408</ele>
        <time>2020-03-27T01:40:21Z</time>
      </trkpt>
      <trkpt lat="46.72816" lon="-0.16689">
        <ele>132.811</ele>
        <time>2019-10-27T18:08:41Z</time>
      </trkpt>
      <trkpt lat="46.72816" lon="-0.16774">
        <ele>133.856</ele>
        <time>2020-12-24T23:11:55Z</time>
      </trkpt>
      <trkpt lat="46.72887" lon="-0.16845">
        <ele>129.654</ele>
        <time>2020-12-24T23:11:35Z</time>
      </trkpt>
      <trkpt lat="46.73007" lon="-0.16575">
        <ele>123.727</ele>
        <time>2020-12-24T23:11:15Z</time>
      </trkpt>
      <trkpt lat="46.73106" lon="-0.16807">
        <ele>124.828</ele>
        <time>2019-10-27T18:06:41Z</time>
      </trkpt>
      <trkpt lat="46.73137" lon="-0.16933">
        <ele>123.612</ele>
        <time>2019-10-27T18:06:21Z</time>
      </trkpt>
      <trkpt lat="46.73165" lon="-0.17047">
        <ele>123.48</ele>
        <time>2019-10-27T18:06:01Z</time>
      </trkpt>
      <trkpt lat="46.73244" lon="-0.1703">
        <ele>126.084</ele>
        <time>2019-10-27T18:05:41Z</time>
      </trkpt>
      <trkpt lat="46.73337" lon="-0.17038">
        <ele>123.941</ele>
        <time>2019-10-27T18:05:21Z</time>
      </trkpt>
      <trkpt lat="46.73443" lon="-0.17105">
        <ele>122.116</ele>
        <time>2019-10-27T18:05:01Z</time>
      </trkpt>
      <trkpt lat="46.73649" lon="-0.17171">
        <ele>124.52</ele>
        <time>2019-10-27T18:04:41Z</time>
      </trkpt>
      <trkpt lat="46.73872" lon="-0.17262">
        <ele>125.608</ele>
        <time>2019-10-27T18:04:21Z</time>
      </trkpt>
      <trkpt lat="46.74043" lon="-0.17392">
        <ele>127.915</ele>
        <time>2019-10-27T18:04:01Z</time>
      </trkpt>
      <trkpt lat="46.74107" lon="-0.17433">
        <ele>125.305</ele>
        <time>2019-10-27T18:03:41Z</time>
      </trkpt>
      <trkpt lat="46.74269" lon="-0.17418">
        <ele>117.644</ele>
        <time>2019-10-27T18:03:21Z</time>
      </trkpt>
      <trkpt lat="46.74324" lon="-0.17395">
        <ele>116.019</ele>
        <time>2019-10-27T18:03:01Z</time>
      </trkpt>
      <trkpt lat="46.74366" lon="-0.17401">
        <ele>114.04</ele>
        <time>2019-10-27T18:02:41Z</time>
      </trkpt>
      <trkpt lat="46.74447" lon="-0.1753">
        <ele>103.644</ele>
        <time>2019-10-27T18:02:21Z</time>
      </trkpt>
      <trkpt lat="46.74497" lon="-0.17515">
        <ele>99.772</ele>
        <time>2019-10-27T18:02:01Z</time>
      </trkpt>
      <trkpt lat="46.74515" lon="-0.17517">
        <ele>98.326</ele>
        <time>2019-10-27T18:01:41Z</time>
      </trkpt>
      <trkpt lat="46.74534" lon="-0.17545">
        <ele>97.013</ele>
        <time>2019-10-27T18:01:21Z</time>
      </trkpt>
      <trkpt lat="46.74566" lon="-0.17571">
        <ele>98.188</ele>
        <time>2019-10-27T18:01:01Z</time>
      </trkpt>
      <trkpt lat="46.74622" lon="-0.17611">
        <ele>100.222</ele>
        <time>2019-10-27T18:00:41Z</time>
      </trkpt>
      <trkpt lat="46.7465" lon="-0.17678">
        <ele>103.008</ele>
        <time>2019-10-27T18:00:21Z</time>
      </trkpt>
      <trkpt lat="46.74712" lon="-0.17665">
        <ele>102.521</ele>
        <time>2019-10-27T18:00:01Z</time>
      </trkpt>
      <trkpt lat="46.74766" lon="-0.17663">
        <ele>101.429</ele>
        <time>2019-10-27T17:59:41Z</time>
      </trkpt>
      <trkpt lat="46.74797" lon="-0.17699">
        <ele>102.966</ele>
        <time>2019-10-27T17:59:21Z</time>
      </trkpt>
      <trkpt lat="46.74874" lon="-0.17747">
        <ele>100.081</ele>
        <time>2019-10-27T17:59:01Z</time>
      </trkpt>
      <trkpt lat="46.74869" lon="-0.17708">
        <ele>99.752</ele>
        <time>2019-10-27T17:58:41Z</time>
      </trkpt>
      <trkpt lat="46.74846" lon="-0.17686">
        <ele>100.146</ele>
        <time>2019-10-27T17:58:21Z</time>
      </trkpt>
      <trkpt lat="46.74785" lon="-0.17609">
        <ele>95.964</ele>
        <time>2019-10-27T17:58:01Z</time>
      </trkpt>
      <trkpt lat="46.74778" lon="-0.17504">
        <ele>92.998</ele>
        <time>2019-10-27T17:57:41Z</time>
      </trkpt>
      <trkpt lat="46.74906" lon="-0.17189">
        <ele>105.245</ele>
        <time>2019-10-27T17:57:21Z</time>
      </trkpt>
      <trkpt lat="46.74913" lon="-0.17077">
        <ele>112.14</ele>
        <time>2019-10-27T17:57:01Z</time>
      </trkpt>
      <trkpt lat="46.74946" lon="-0.16976">
        <ele>114.934</ele>
        <time>2019-10-27T17:56:41Z</time>
      </trkpt>
      <trkpt lat="46.74946" lon="-0.16893">
        <ele>120.708</ele>
        <time>2019-10-27T17:56:21Z</time>
      </trkpt>
      <trkpt lat="46.74956" lon="-0.16764">
        <ele>126.926</ele>
        <time>2019-10-27T17:56:01Z</time>
      </trkpt>
      <trkpt lat="46.74929" lon="-0.16721">
        <ele>128.06</ele>
        <time>2019-10-27T17:55:41Z</time>
      </trkpt>
      <trkpt lat="46.74931" lon="-0.16635">
        <ele>131.686</ele>
        <time>2019-10-27T17:55:21Z</time>
      </trkpt>
      <trkpt lat="46.74935" lon="-0.16558">
        <ele>135.812</ele>
        <time>2019-10-27T17:55:01Z</time>
      </trkpt>
      <trkpt lat="46.7496" lon="-0.16453">
        <ele>141.283</ele>
        <time>2019-10-27T17:54:41Z</time>
      </trkpt>
      <trkpt lat="46.74978" lon="-0.16356">
        <ele>149.457</ele>
        <time>2019-10-27T17:54:21Z</time>
      </trkpt>
      <trkpt lat="46.75015" lon="-0.16251">
        <ele>154.455</ele>
        <time>2019-10-27T17:54:01Z</time>
      </trkpt>
      <trkpt lat="46.7501" lon="-0.16227">
        <ele>155.889</ele>
        <time>2019-10-27T17:53:41Z</time>
      </trkpt>
      <trkpt lat="46.75043" lon="-0.16212">
        <ele>156.066</ele>
        <time>2019-10-27T17:53:21Z</time>
      </trkpt>
      <trkpt lat="46.75082" lon="-0.16225">
        <ele>155.781</ele>
        <time>2019-10-27T17:53:01Z</time>
      </trkpt>
      <trkpt lat="46.75141" lon="-0.16307">
        <ele>154.115</ele>
        <time>2019-10-27T17:52:41Z</time>
      </trkpt>
      <trkpt lat="46.752" lon="-0.16322">
        <ele>153.308</ele>
        <time>2019-10-27T17:52:21Z</time>
      </trkpt>
      <trkpt lat="46.75262" lon="-0.16339">
        <ele>151.821</ele>
        <time>2019-10-27T17:52:01Z</time>
      </trkpt>
      <trkpt lat="46.75409" lon="-0.1645">
        <ele>146.165</ele>
        <time>2019-10-27T17:51:41Z</time>
      </trkpt>
      <trkpt lat="46.75441" lon="-0.16457">
        <ele>146.493</ele>
        <time>2019-10-27T17:51:21Z</time>
      </trkpt>
      <trkpt lat="46.75504" lon="-0.16472">
        <ele>143.848</ele>
        <time>2016-06-04T13:39:38Z</time>
      </trkpt>
      <trkpt lat="46.75448" lon="-0.16605">
        <ele>138.379</ele>
        <time>2016-06-04T13:39:18Z</time>
      </trkpt>
      <trkpt lat="46.75465" lon="-0.16654">
        <ele>135.723</ele>
        <time>2016-06-04T13:38:58Z</time>
      </trkpt>
      <trkpt lat="46.75459" lon="-0.16815">
        <ele>129.381</ele>
        <time>2016-06-04T13:38:38Z</time>
      </trkpt>
      <trkpt lat="46.75445" lon="-0.17013">
        <ele>124.555</ele>
        <time>2016-06-04T13:38:18Z</time>
      </trkpt>
      <trkpt lat="46.75442" lon="-0.17139">
        <ele>117.042</ele>
        <time>2016-06-04T13:37:58Z</time>
      </trkpt>
      <trkpt lat="46.75487" lon="-0.17206">
        <ele>110.497</ele>
        <time>2016-06-04T13:37:38Z</time>
      </trkpt>
      <trkpt lat="46.75523" lon="-0.17322">
        <ele>105.821</ele>
        <time>2016-06-04T13:37:18Z</time>
      </trkpt>
      <trkpt lat="46.75506" lon="-0.17429">
        <ele>102.708</ele>
        <time>2016-06-04T13:36:58Z</time>
      </trkpt>
      <trkpt lat="46.75548" lon="-0.17478">
        <ele>98.308</ele>
        <time>2016-06-04T13:36:38Z</time>
      </trkpt>
      <trkpt lat="46.75565" lon="-0.17523">
        <ele>96.753</ele>
        <time>2016-06-04T13:36:18Z</time>
      </trkpt>
      <trkpt lat="46.75551" lon="-0.17699">
        <ele>92.752</ele>
        <time>2016-06-04T13:35:58Z</time>
      </trkpt>
      <trkpt lat="46.75559" lon="-0.17824">
        <ele>96.267</ele>
        <time>2016-06-04T13:35:38Z</time>
      </trkpt>
      <trkpt lat="46.7567" lon="-0.17841">
        <ele>106.098</ele>
        <time>2016-06-04T13:35:18Z</time>
      </trkpt>
      <trkpt lat="46.75698" lon="-0.17871">
        <ele>107.282</ele>
        <time>2016-06-04T13:34:58Z</time>
      </trkpt>
      <trkpt lat="46.75731" lon="-0.17824">
        <ele>107.62</ele>
        <time>2016-06-04T13:34:38Z</time>
      </trkpt>
      <trkpt lat="46.75756" lon="-0.17764">
        <ele>109.064</ele>
        <time>2016-06-04T13:34:18Z</time>
      </trkpt>
      <trkpt lat="46.75881" lon="-0.17738">
        <ele>118.871</ele>
        <time>2016-06-04T13:33:58Z</time>
      </trkpt>
      <trkpt lat="46.7608" lon="-0.17751">
        <ele>116.956</ele>
        <time>2016-06-04T13:33:38Z</time>
      </trkpt>
      <trkpt lat="46.76111" lon="-0.17766">
        <ele>116.63</ele>
        <time>2016-06-04T13:33:18Z</time>
      </trkpt>
      <trkpt lat="46.76233" lon="-0.17762">
        <ele>119.208</ele>
        <time>2016-06-04T13:32:58Z</time>
      </trkpt>
      <trkpt lat="46.76336" lon="-0.17682">
        <ele>118.415</ele>
        <time>2016-06-04T13:32:38Z</time>
      </trkpt>
      <trkpt lat="46.76348" lon="-0.17708">
        <ele>118.505</ele>
        <time>2016-06-04T13:32:18Z</time>
      </trkpt>
      <trkpt lat="46.76483" lon="-0.17577">
        <ele>109.344</ele>
        <time>2016-06-04T13:31:58Z</time>
      </trkpt>
      <trkpt lat="46.76611" lon="-0.17377">
        <ele>106.08</ele>
        <time>2016-06-04T13:31:38Z</time>
      </trkpt>
      <trkpt lat="46.76482" lon="-0.17289">
        <ele>95.151</ele>
        <time>2016-06-04T13:31:18Z</time>
      </trkpt>
      <trkpt lat="46.76455" lon="-0.17191">
        <ele>90.865</ele>
        <time>2016-06-04T13:30:58Z</time>
      </trkpt>
      <trkpt lat="46.76499" lon="-0.1698">
        <ele>94.853</ele>
        <time>2016-06-04T13:30:38Z</time>
      </trkpt>
      <trkpt lat="46.76539" lon="-0.16933">
        <ele>93.417</ele>
        <time>2016-06-04T13:30:18Z</time>
      </trkpt>
      <trkpt lat="46.76573" lon="-0.16918">
        <ele>94.464</ele>
        <time>2016-06-04T13:29:58Z</time>
      </trkpt>
      <trkpt lat="46.76582" lon="-0.1686">
        <ele>87.089</ele>
        <time>2016-06-04T13:29:38Z</time>
      </trkpt>
      <trkpt lat="46.76607" lon="-0.16822">
        <ele>85.193</ele>
        <time>2016-06-04T13:29:18Z</time>
      </trkpt>
      <trkpt lat="46.76608" lon="-0.16762">
        <ele>90.608</ele>
        <time>2016-06-04T13:28:58Z</time>
      </trkpt>
      <trkpt lat="46.76611" lon="-0.16719">
        <ele>95.113</ele>
        <time>2016-06-04T13:28:38Z</time>
      </trkpt>
      <trkpt lat="46.76696" lon="-0.16506">
        <ele>101.785</ele>
        <time>2016-06-04T13:28:18Z</time>
      </trkpt>
      <trkpt lat="46.76758" lon="-0.16478">
        <ele>99.573</ele>
        <time>2016-06-04T13:27:58Z</time>
      </trkpt>
      <trkpt lat="46.7674" lon="-0.1642">
        <ele>107.885</ele>
        <time>2016-06-04T13:27:38Z</time>
      </trkpt>
      <trkpt lat="46.76782" lon="-0.16384">
        <ele>113.096</ele>
        <time>2016-06-04T13:27:18Z</time>
      </trkpt>
      <trkpt lat="46.76829" lon="-0.16384">
        <ele>113.55</ele>
        <time>2016-06-04T13:26:58Z</time>
      </trkpt>
      <trkpt lat="46.76871" lon="-0.16255">
        <ele>126.278</ele>
        <time>2016-06-04T13:26:38Z</time>
      </trkpt>
      <trkpt lat="46.76901" lon="-0.16268">
        <ele>125.172</ele>
        <time>2016-06-04T13:26:18Z</time>
      </trkpt>
      <trkpt lat="46.76951" lon="-0.16285">
        <ele>124.919</ele>
        <time>2016-06-04T13:25:58Z</time>
      </trkpt>
      <trkpt lat="46.77036" lon="-0.1633">
        <ele>121.594</ele>
        <time>2016-06-04T13:25:38Z</time>
      </trkpt>
      <trkpt lat="46.77106" lon="-0.16328">
        <ele>117.568</ele>
        <time>2016-06-04T13:25:18Z</time>
      </trkpt>
      <trkpt lat="46.77236" lon="-0.16369">
        <ele>111.908</ele>
        <time>2016-06-04T13:24:58Z</time>
      </trkpt>
      <trkpt lat="46.77277" lon="-0.16373">
        <ele>110.114</ele>
        <time>2016-06-04T13:24:38Z</time>
      </trkpt>
      <trkpt lat="46.77346" lon="-0.16403">
        <ele>109.304</ele>
        <time>2016-06-04T13:24:18Z</time>
      </trkpt>
      <trkpt lat="46.7738" lon="-0.16446">
        <ele>108.324</ele>
        <time>2016-06-04T13:23:58Z</time>
      </trkpt>
      <trkpt lat="46.77394" lon="-0.16489">
        <ele>107.638</ele>
        <time>2016-06-04T13:23:38Z</time>
      </trkpt>
      <trkpt lat="46.77553" lon="-0.16545">
        <ele>102.129</ele>
        <time>2016-06-04T13:23:18Z</time>
      </trkpt>
      <trkpt lat="46.7758" lon="-0.16584">
        <ele>99.583</ele>
        <time>2016-06-04T13:22:58Z</time>
      </trkpt>
      <trkpt lat="46.7766" lon="-0.16605">
        <ele>97.491</ele>
        <time>2016-06-04T13:22:38Z</time>
      </trkpt>
      <trkpt lat="46.77682" lon="-0.16659">
        <ele>94.935</ele>
        <time>2016-06-04T13:22:18Z</time>
      </trkpt>
      <trkpt lat="46.77731" lon="-0.16725">
        <ele>90.312</ele>
        <time>2016-06-04T13:21:58Z</time>
      </trkpt>
      <trkpt lat="46.77728" lon="-0.16779">
        <ele>84.547</ele>
        <time>2016-06-04T13:21:38Z</time>
      </trkpt>
      <trkpt lat="46.77829" lon="-0.16781">
        <ele>83.931</ele>
        <time>2016-06-04T13:21:18Z</time>
      </trkpt>
      <trkpt lat="46.77919" lon="-0.16792">
        <ele>83.408</ele>
        <time>2016-06-04T13:20:58Z</time>
      </trkpt>
      <trkpt lat="46.77975" lon="-0.16777">
        <ele>81.023</ele>
        <time>2016-06-04T13:20:38Z</time>
      </trkpt>
      <trkpt lat="46.78016" lon="-0.16764">
        <ele>81.503</ele>
        <time>2016-06-04T13:20:18Z</time>
      </trkpt>
      <trkpt lat="46.78067" lon="-0.16725">
        <ele>81.259</ele>
        <time>2016-06-04T13:19:58Z</time>
      </trkpt>
      <trkpt lat="46.78095" lon="-0.16719">
        <ele>80.661</ele>
        <time>2016-06-04T13:19:38Z</time>
      </trkpt>
      <trkpt lat="46.78131" lon="-0.1668">
        <ele>82.052</ele>
        <time>2016-06-04T13:19:18Z</time>
      </trkpt>
      <trkpt lat="46.782" lon="-0.16644">
        <ele>81.876</ele>
        <time>2016-06-04T13:18:58Z</time>
      </trkpt>
      <trkpt lat="46.78273" lon="-0.16588">
        <ele>80.394</ele>
        <time>2016-06-04T13:18:38Z</time>
      </trkpt>
      <trkpt lat="46.78319" lon="-0.16532">
        <ele>81.888</ele>
        <time>2016-06-04T13:18:18Z</time>
      </trkpt>
      <trkpt lat="46.78403" lon="-0.16491">
        <ele>79.535</ele>
        <time>2016-06-04T13:17:58Z</time>
      </trkpt>
      <trkpt lat="46.78497" lon="-0.16498">
        <ele>78.16</ele>
        <time>2016-06-04T13:17:38Z</time>
      </trkpt>
      <trkpt lat="46.78571" lon="-0.16485">
        <ele>80.064</ele>
        <time>2016-06-04T13:17:18Z</time>
      </trkpt>
      <trkpt lat="46.78592" lon="-0.16496">
        <ele>80.108</ele>
        <time>2016-06-04T13:16:58Z</time>
      </trkpt>
      <trkpt lat="46.7862" lon="-0.16506">
        <ele>80.317</ele>
        <time>2016-06-04T13:16:38Z</time>
      </trkpt>
      <trkpt lat="46.78674" lon="-0.16652">
        <ele>82.007</ele>
        <time>2016-06-04T13:16:18Z</time>
      </trkpt>
      <trkpt lat="46.78723" lon="-0.16678">
        <ele>82.084</ele>
        <time>2016-06-04T13:15:58Z</time>
      </trkpt>
      <trkpt lat="46.78808" lon="-0.16695">
        <ele>84.975</ele>
        <time>2016-06-04T13:15:38Z</time>
      </trkpt>
      <trkpt lat="46.78808" lon="-0.16695">
        <ele>84.966</ele>
        <time>2016-06-04T13:15:18Z</time>
      </trkpt>
      <trkpt lat="46.78906" lon="-0.16732">
        <ele>82.84</ele>
        <time>2016-06-04T13:14:58Z</time>
      </trkpt>
      <trkpt lat="46.78981" lon="-0.16626">
        <ele>81.448</ele>
        <time>2016-06-04T13:14:38Z</time>
      </trkpt>
      <trkpt lat="46.78996" lon="-0.16594">
        <ele>82.032</ele>
        <time>2016-06-04T13:14:18Z</time>
      </trkpt>
      <trkpt lat="46.78987" lon="-0.16536">
        <ele>83.389</ele>
        <time>2016-06-04T13:13:58Z</time>
      </trkpt>
      <trkpt lat="46.78977" lon="-0.16335">
        <ele>87.034</ele>
        <time>2016-06-04T13:13:38Z</time>
      </trkpt>
      <trkpt lat="46.78992" lon="-0.16322">
        <ele>87.898</ele>
        <time>2016-06-04T13:13:18Z</time>
      </trkpt>
      <trkpt lat="46.79033" lon="-0.16167">
        <ele>98.508</ele>
        <time>2016-06-04T13:12:58Z</time>
      </trkpt>
      <trkpt lat="46.79067" lon="-0.16045">
        <ele>108.017</ele>
        <time>2016-06-04T13:12:38Z</time>
      </trkpt>
      <trkpt lat="46.79122" lon="-0.16056">
        <ele>112.089</ele>
        <time>2016-06-04T13:12:18Z</time>
      </trkpt>
      <trkpt lat="46.79142" lon="-0.16084">
        <ele>113.128</ele>
        <time>2016-06-04T13:11:58Z</time>
      </trkpt>
      <trkpt lat="46.79234" lon="-0.16114">
        <ele>111.63</ele>
        <time>2016-06-04T13:11:38Z</time>
      </trkpt>
      <trkpt lat="46.79319" lon="-0.16101">
        <ele>109.311</ele>
        <time>2016-06-04T13:11:18Z</time>
      </trkpt>
      <trkpt lat="46.79366" lon="-0.16077">
        <ele>108.115</ele>
        <time>2016-06-04T13:10:58Z</time>
      </trkpt>
      <trkpt lat="46.79366" lon="-0.16077">
        <ele>108.123</ele>
        <time>2016-06-04T13:10:38Z</time>
      </trkpt>
      <trkpt lat="46.79474" lon="-0.16">
        <ele>104.077</ele>
        <time>2016-06-04T13:10:18Z</time>
      </trkpt>
      <trkpt lat="46.79509" lon="-0.15953">
        <ele>103.264</ele>
        <time>2016-06-04T13:09:58Z</time>
      </trkpt>
      <trkpt lat="46.79557" lon="-0.15867">
        <ele>100.939</ele>
        <time>2016-06-04T13:09:38Z</time>
      </trkpt>
      <trkpt lat="46.79637" lon="-0.15822">
        <ele>97.763</ele>
        <time>2016-06-04T13:09:18Z</time>
      </trkpt>
      <trkpt lat="46.79759" lon="-0.15777">
        <ele>91.408</ele>
        <time>2016-06-04T13:08:58Z</time>
      </trkpt>
      <trkpt lat="46.79764" lon="-0.15745">
        <ele>90.813</ele>
        <time>2016-06-04T13:08:38Z</time>
      </trkpt>
      <trkpt lat="46.79748" lon="-0.15539">
        <ele>91.085</ele>
        <time>2016-06-04T13:08:18Z</time>
      </trkpt>
      <trkpt lat="46.7977" lon="-0.15536">
        <ele>91.773</ele>
        <time>2016-06-04T13:07:58Z</time>
      </trkpt>
      <trkpt lat="46.79816" lon="-0.15536">
        <ele>90.328</ele>
        <time>2016-06-04T13:07:38Z</time>
      </trkpt>
      <trkpt lat="46.7985" lon="-0.15337">
        <ele>87.979</ele>
        <time>2016-06-04T13:07:18Z</time>
      </trkpt>
      <trkpt lat="46.7991" lon="-0.15223">
        <ele>87.033</ele>
        <time>2016-06-04T13:06:58Z</time>
      </trkpt>
      <trkpt lat="46.79939" lon="-0.15163">
        <ele>87.211</ele>
        <time>2016-06-04T13:06:38Z</time>
      </trkpt>
      <trkpt lat="46.80039" lon="-0.14976">
        <ele>81.275</ele>
        <time>2016-06-04T13:06:18Z</time>
      </trkpt>
      <trkpt lat="46.80042" lon="-0.14929">
        <ele>81.242</ele>
        <time>2016-06-04T13:05:58Z</time>
      </trkpt>
      <trkpt lat="46.80058" lon="-0.14888">
        <ele>79.827</ele>
        <time>2016-06-04T13:05:38Z</time>
      </trkpt>
      <trkpt lat="46.8013" lon="-0.14826">
        <ele>81.971</ele>
        <time>2016-06-04T13:05:18Z</time>
      </trkpt>
      <trkpt lat="46.80158" lon="-0.14936">
        <ele>77.708</ele>
        <time>2016-06-04T13:04:58Z</time>
      </trkpt>
      <trkpt lat="46.80135" lon="-0.15045">
        <ele>79.317</ele>
        <time>2016-06-04T13:04:38Z</time>
      </trkpt>
      <trkpt lat="46.80118" lon="-0.15309">
        <ele>81.907</ele>
        <time>2016-06-04T13:04:18Z</time>
      </trkpt>
      <trkpt lat="46.80148" lon="-0.15513">
        <ele>83.955</ele>
        <time>2016-06-04T13:03:58Z</time>
      </trkpt>
      <trkpt lat="46.80154" lon="-0.15691">
        <ele>81.712</ele>
        <time>2016-06-04T13:03:38Z</time>
      </trkpt>
      <trkpt lat="46.80048" lon="-0.15704">
        <ele>77.233</ele>
        <time>2016-06-04T13:03:18Z</time>
      </trkpt>
      <trkpt lat="46.80042" lon="-0.15717">
        <ele>77.417</ele>
        <time>2016-06-04T13:02:58Z</time>
      </trkpt>
      <trkpt lat="46.8008" lon="-0.15807">
        <ele>79.775</ele>
        <time>2016-06-04T13:02:38Z</time>
      </trkpt>
      <trkpt lat="46.80101" lon="-0.15822">
        <ele>79.239</ele>
        <time>2016-06-04T13:02:18Z</time>
      </trkpt>
      <trkpt lat="46.80115" lon="-0.15914">
        <ele>80.716</ele>
        <time>2016-06-04T13:01:58Z</time>
      </trkpt>
      <trkpt lat="46.80126" lon="-0.15918">
        <ele>82.781</ele>
        <time>2016-06-04T13:01:38Z</time>
      </trkpt>
      <trkpt lat="46.80092" lon="-0.16013">
        <ele>83.745</ele>
        <time>2016-06-04T13:01:18Z</time>
      </trkpt>
      <trkpt lat="46.80098" lon="-0.16101">
        <ele>87.508</ele>
        <time>2016-06-04T13:00:58Z</time>
      </trkpt>
      <trkpt lat="46.80146" lon="-0.16073">
        <ele>92.021</ele>
        <time>2016-06-04T13:00:38Z</time>
      </trkpt>
      <trkpt lat="46.80164" lon="-0.15985">
        <ele>91.365</ele>
        <time>2016-06-04T13:00:18Z</time>
      </trkpt>
      <trkpt lat="46.80198" lon="-0.15951">
        <ele>92.793</ele>
        <time>2016-06-04T12:59:58Z</time>
      </trkpt>
      <trkpt lat="46.80273" lon="-0.15908">
        <ele>103.276</ele>
        <time>2016-06-04T12:59:38Z</time>
      </trkpt>
      <trkpt lat="46.80306" lon="-0.15832">
        <ele>107.127</ele>
        <time>2016-06-04T12:59:18Z</time>
      </trkpt>
      <trkpt lat="46.80314" lon="-0.15766">
        <ele>109.631</ele>
        <time>2016-06-04T12:58:58Z</time>
      </trkpt>
      <trkpt lat="46.80356" lon="-0.15687">
        <ele>112.359</ele>
        <time>2016-06-04T12:58:38Z</time>
      </trkpt>
      <trkpt lat="46.80402" lon="-0.15611">
        <ele>109.053</ele>
        <time>2016-06-04T12:58:18Z</time>
      </trkpt>
      <trkpt lat="46.80447" lon="-0.15584">
        <ele>108.16</ele>
        <time>2016-06-04T12:57:58Z</time>
      </trkpt>
      <trkpt lat="46.8065" lon="-0.15506">
        <ele>104.745</ele>
        <time>2016-06-04T12:57:38Z</time>
      </trkpt>
      <trkpt lat="46.80699" lon="-0.15474">
        <ele>103.169</ele>
        <time>2016-06-04T12:57:18Z</time>
      </trkpt>
      <trkpt lat="46.80701" lon="-0.15446">
        <ele>101.808</ele>
        <time>2016-06-04T12:56:58Z</time>
      </trkpt>
      <trkpt lat="46.80826" lon="-0.15292">
        <ele>88.418</ele>
        <time>2016-06-04T12:56:38Z</time>
      </trkpt>
      <trkpt lat="46.80938" lon="-0.15193">
        <ele>79.617</ele>
        <time>2016-06-04T12:56:18Z</time>
      </trkpt>
      <trkpt lat="46.81013" lon="-0.1518">
        <ele>80.636</ele>
        <time>2016-06-04T12:55:58Z</time>
      </trkpt>
      <trkpt lat="46.81089" lon="-0.15127">
        <ele>77.477</ele>
        <time>2016-06-04T12:55:38Z</time>
      </trkpt>
      <trkpt lat="46.81111" lon="-0.15088">
        <ele>75.398</ele>
        <time>2016-06-04T12:55:18Z</time>
      </trkpt>
      <trkpt lat="46.81195" lon="-0.14996">
        <ele>77.832</ele>
        <time>2016-06-04T12:54:58Z</time>
      </trkpt>
      <trkpt lat="46.81239" lon="-0.14938">
        <ele>74.88</ele>
        <time>2016-06-04T12:54:38Z</time>
      </trkpt>
      <trkpt lat="46.81298" lon="-0.14888">
        <ele>74.314</ele>
        <time>2016-06-04T12:54:18Z</time>
      </trkpt>
      <trkpt lat="46.81434" lon="-0.14783">
        <ele>75.541</ele>
        <time>2016-06-04T12:53:58Z</time>
      </trkpt>
      <trkpt lat="46.81543" lon="-0.14749">
        <ele>76.086</ele>
        <time>2016-06-04T12:53:38Z</time>
      </trkpt>
      <trkpt lat="46.81667" lon="-0.1472">
        <ele>79.86</ele>
        <time>2016-06-04T12:53:18Z</time>
      </trkpt>
      <trkpt lat="46.81778" lon="-0.14654">
        <ele>78.108</ele>
        <time>2016-06-04T12:52:58Z</time>
      </trkpt>
      <trkpt lat="46.81843" lon="-0.14639">
        <ele>76.709</ele>
        <time>2016-06-04T12:52:38Z</time>
      </trkpt>
      <trkpt lat="46.8192" lon="-0.14657">
        <ele>79.181</ele>
        <time>2016-06-04T12:52:18Z</time>
      </trkpt>
      <trkpt lat="46.81941" lon="-0.14487">
        <ele>82.241</ele>
        <time>2016-06-04T12:51:58Z</time>
      </trkpt>
      <trkpt lat="46.81938" lon="-0.14427">
        <ele>84.057</ele>
        <time>2016-06-04T12:51:38Z</time>
      </trkpt>
      <trkpt lat="46.81919" lon="-0.14382">
        <ele>83.238</ele>
        <time>2016-06-04T12:51:18Z</time>
      </trkpt>
      <trkpt lat="46.81947" lon="-0.14324">
        <ele>85.772</ele>
        <time>2016-06-04T12:50:58Z</time>
      </trkpt>
      <trkpt lat="46.81954" lon="-0.14275">
        <ele>88.21</ele>
        <time>2016-06-04T12:50:38Z</time>
      </trkpt>
      <trkpt lat="46.82004" lon="-0.14195">
        <ele>98.544</ele>
        <time>2016-06-04T12:50:18Z</time>
      </trkpt>
      <trkpt lat="46.82025" lon="-0.14127">
        <ele>102.981</ele>
        <time>2016-06-04T12:49:58Z</time>
      </trkpt>
      <trkpt lat="46.82139" lon="-0.13938">
        <ele>115.276</ele>
        <time>2016-06-04T12:49:38Z</time>
      </trkpt>
      <trkpt lat="46.8233" lon="-0.13843">
        <ele>118.46</ele>
        <time>2016-06-04T12:49:18Z</time>
      </trkpt>
      <trkpt lat="46.82337" lon="-0.13788">
        <ele>120.508</ele>
        <time>2016-06-04T12:48:58Z</time>
      </trkpt>
      <trkpt lat="46.82423" lon="-0.1362">
        <ele>119.014</ele>
        <time>2016-06-04T12:48:38Z</time>
      </trkpt>
      <trkpt lat="46.82465" lon="-0.13616">
        <ele>117.822</ele>
        <time>2020-12-24T22:03:55Z</time>
      </trkpt>
      <trkpt lat="46.82511" lon="-0.13691">
        <ele>117.042</ele>
        <time>2020-12-24T22:03:35Z</time>
      </trkpt>
      <trkpt lat="46.82534" lon="-0.13711">
        <ele>115.448</ele>
        <time>2020-12-24T22:03:15Z</time>
      </trkpt>
      <trkpt lat="46.82496" lon="-0.13876">
        <ele>116.189</ele>
        <time>2020-12-24T22:02:55Z</time>
      </trkpt>
      <trkpt lat="46.8255" lon="-0.13903">
        <ele>108.553</ele>
        <time>2020-12-24T22:02:35Z</time>
      </trkpt>
      <trkpt lat="46.82631" lon="-0.13805">
        <ele>105.271</ele>
        <time>2020-12-24T22:02:15Z</time>
      </trkpt>
      <trkpt lat="46.82648" lon="-0.13814">
        <ele>103.385</ele>
        <time>2020-12-24T22:01:55Z</time>
      </trkpt>
      <trkpt lat="46.82649" lon="-0.13762">
        <ele>105.292</ele>
        <time>2020-12-24T22:01:35Z</time>
      </trkpt>
      <trkpt lat="46.82671" lon="-0.13706">
        <ele>105.397</ele>
        <time>2020-12-24T22:01:15Z</time>
      </trkpt>
      <trkpt lat="46.8268" lon="-0.13618">
        <ele>106.561</ele>
        <time>2020-12-24T22:00:55Z</time>
      </trkpt>
      <trkpt lat="46.82689" lon="-0.13704">
        <ele>106.208</ele>
        <time>2020-12-24T22:00:35Z</time>
      </trkpt>
      <trkpt lat="46.82699" lon="-0.13742">
        <ele>106.417</ele>
        <time>2020-12-24T22:00:15Z</time>
      </trkpt>
      <trkpt lat="46.82696" lon="-0.13823">
        <ele>104.452</ele>
        <time>2020-12-24T21:59:55Z</time>
      </trkpt>
      <trkpt lat="46.82659" lon="-0.13841">
        <ele>101.458</ele>
        <time>2020-12-24T21:59:35Z</time>
      </trkpt>
      <trkpt lat="46.82634" lon="-0.13914">
        <ele>100.114</ele>
        <time>2020-12-24T21:59:15Z</time>
      </trkpt>
      <trkpt lat="46.8268" lon="-0.13985">
        <ele>100.125</ele>
        <time>2020-12-24T21:58:55Z</time>
      </trkpt>
      <trkpt lat="46.82714" lon="-0.13978">
        <ele>105.329</ele>
        <time>2020-12-24T21:58:35Z</time>
      </trkpt>
      <trkpt lat="46.82714" lon="-0.14014">
        <ele>105.597</ele>
        <time>2020-12-24T21:58:15Z</time>
      </trkpt>
      <trkpt lat="46.82759" lon="-0.14032">
        <ele>111.111</ele>
        <time>2020-12-24T21:57:55Z</time>
      </trkpt>
      <trkpt lat="46.82757" lon="-0.14053">
        <ele>111.148</ele>
        <time>2020-12-24T21:57:35Z</time>
      </trkpt>
      <trkpt lat="46.82714" lon="-0.14049">
        <ele>105.873</ele>
        <time>2020-12-24T21:57:15Z</time>
      </trkpt>
      <trkpt lat="46.8271" lon="-0.14088">
        <ele>105.857</ele>
        <time>2020-12-24T21:56:55Z</time>
      </trkpt>
      <trkpt lat="46.82687" lon="-0.14157">
        <ele>104.808</ele>
        <time>2020-12-24T21:56:35Z</time>
      </trkpt>
      <trkpt lat="46.82629" lon="-0.14261">
        <ele>102.303</ele>
        <time>2020-12-24T21:56:15Z</time>
      </trkpt>
      <trkpt lat="46.82644" lon="-0.14286">
        <ele>104.821</ele>
        <time>2020-12-24T21:55:55Z</time>
      </trkpt>
      <trkpt lat="46.82706" lon="-0.14287">
        <ele>109.111</ele>
        <time>2020-12-24T21:55:35Z</time>
      </trkpt>
      <trkpt lat="46.82718" lon="-0.14402">
        <ele>108.07</ele>
        <time>2016-06-04T12:40:58Z</time>
      </trkpt>
      <trkpt lat="46.82993" lon="-0.14375">
        <ele>109.141</ele>
        <time>2016-06-04T12:40:38Z</time>
      </trkpt>
      <trkpt lat="46.83122" lon="-0.1461">
        <ele>102.645</ele>
        <time>2016-06-04T12:40:18Z</time>
      </trkpt>
      <trkpt lat="46.83201" lon="-0.14692">
        <ele>97.283</ele>
        <time>2016-06-04T12:39:58Z</time>
      </trkpt>
      <trkpt lat="46.83325" lon="-0.1481">
        <ele>97.517</ele>
        <time>2016-06-04T12:39:38Z</time>
      </trkpt>
      <trkpt lat="46.83341" lon="-0.14879">
        <ele>93.784</ele>
        <time>2016-06-04T12:39:18Z</time>
      </trkpt>
      <trkpt lat="46.83428" lon="-0.15027">
        <ele>88.979</ele>
        <time>2016-06-04T12:38:58Z</time>
      </trkpt>
      <trkpt lat="46.83448" lon="-0.1504">
        <ele>88.673</ele>
        <time>2016-06-04T12:38:18Z</time>
      </trkpt>
      <trkpt lat="46.83507" lon="-0.1513">
        <ele>76.808</ele>
        <time>2016-06-04T12:37:58Z</time>
      </trkpt>
      <trkpt lat="46.8352" lon="-0.15209">
        <ele>80.019</ele>
        <time>2016-06-04T12:37:38Z</time>
      </trkpt>
      <trkpt lat="46.83514" lon="-0.15246">
        <ele>81.19</ele>
        <time>2016-06-04T12:37:18Z</time>
      </trkpt>
      <trkpt lat="46.83538" lon="-0.15293">
        <ele>75.276</ele>
        <time>2016-06-04T12:36:58Z</time>
      </trkpt>
      <trkpt lat="46.83552" lon="-0.15325">
        <ele>73.332</ele>
        <time>2016-06-04T12:36:18Z</time>
      </trkpt>
      <trkpt lat="46.8358" lon="-0.15331">
        <ele>72.193</ele>
        <time>2016-06-04T12:35:58Z</time>
      </trkpt>
      <trkpt lat="46.83617" lon="-0.15312">
        <ele>72.897</ele>
        <time>2016-06-04T12:35:38Z</time>
      </trkpt>
      <trkpt lat="46.83627" lon="-0.15274">
        <ele>75.825</ele>
        <time>2016-06-04T12:34:58Z</time>
      </trkpt>
      <trkpt lat="46.8372" lon="-0.15306">
        <ele>85.929</ele>
        <time>2016-06-04T12:34:38Z</time>
      </trkpt>
      <trkpt lat="46.83692" lon="-0.15377">
        <ele>83.656</ele>
        <time>2016-06-04T12:34:18Z</time>
      </trkpt>
      <trkpt lat="46.8373" lon="-0.1546">
        <ele>91.171</ele>
        <time>2016-06-04T12:33:58Z</time>
      </trkpt>
      <trkpt lat="46.83783" lon="-0.15501">
        <ele>90.555</ele>
        <time>2016-06-04T12:33:38Z</time>
      </trkpt>
      <trkpt lat="46.83892" lon="-0.1585">
        <ele>88.008</ele>
        <time>2016-06-04T12:33:18Z</time>
      </trkpt>
      <trkpt lat="46.84005" lon="-0.15862">
        <ele>89.022</ele>
        <time>2016-06-04T12:32:58Z</time>
      </trkpt>
      <trkpt lat="46.8406" lon="-0.15885">
        <ele>87.457</ele>
        <time>2016-06-04T12:32:38Z</time>
      </trkpt>
      <trkpt lat="46.84117" lon="-0.15898">
        <ele>82.594</ele>
        <time>2016-06-04T12:32:18Z</time>
      </trkpt>
      <trkpt lat="46.84155" lon="-0.15932">
        <ele>81.798</ele>
        <time>2016-06-04T12:31:58Z</time>
      </trkpt>
      <trkpt lat="46.84236" lon="-0.15962">
        <ele>78.869</ele>
        <time>2016-06-04T12:31:38Z</time>
      </trkpt>
      <trkpt lat="46.84351" lon="-0.16029">
        <ele>73.443</ele>
        <time>2016-06-04T12:31:18Z</time>
      </trkpt>
      <trkpt lat="46.84442" lon="-0.16164">
        <ele>80.881</ele>
        <time>2016-06-04T12:30:58Z</time>
      </trkpt>
      <trkpt lat="46.84486" lon="-0.16192">
        <ele>83.685</ele>
        <time>2016-06-04T12:30:38Z</time>
      </trkpt>
      <trkpt lat="46.84561" lon="-0.16168">
        <ele>75.912</ele>
        <time>2016-06-04T12:30:18Z</time>
      </trkpt>
      <trkpt lat="46.84594" lon="-0.1613">
        <ele>73.957</ele>
        <time>2016-06-04T12:29:58Z</time>
      </trkpt>
      <trkpt lat="46.84697" lon="-0.16046">
        <ele>79.741</ele>
        <time>2016-06-04T12:29:38Z</time>
      </trkpt>
      <trkpt lat="46.84869" lon="-0.15902">
        <ele>84.408</ele>
        <time>2016-06-04T12:29:18Z</time>
      </trkpt>
      <trkpt lat="46.84958" lon="-0.1581">
        <ele>84.517</ele>
        <time>2016-06-04T12:24:18Z</time>
      </trkpt>
      <trkpt lat="46.84986" lon="-0.15797">
        <ele>86.707</ele>
        <time>2016-06-04T12:23:58Z</time>
      </trkpt>
      <trkpt lat="46.85093" lon="-0.15776">
        <ele>92.755</ele>
        <time>2016-06-04T12:23:38Z</time>
      </trkpt>
      <trkpt lat="46.85134" lon="-0.15735">
        <ele>97.812</ele>
        <time>2016-06-04T12:23:18Z</time>
      </trkpt>
      <trkpt lat="46.8518" lon="-0.15711">
        <ele>99.353</ele>
        <time>2016-06-04T12:22:58Z</time>
      </trkpt>
      <trkpt lat="46.85217" lon="-0.1572">
        <ele>101.617</ele>
        <time>2016-06-04T12:22:38Z</time>
      </trkpt>
      <trkpt lat="46.85293" lon="-0.15932">
        <ele>107.815</ele>
        <time>2016-06-04T12:22:18Z</time>
      </trkpt>
      <trkpt lat="46.8535" lon="-0.16016">
        <ele>109.099</ele>
        <time>2016-06-04T12:21:38Z</time>
      </trkpt>
      <trkpt lat="46.85421" lon="-0.16108">
        <ele>110.276</ele>
        <time>2016-06-04T12:21:18Z</time>
      </trkpt>
      <trkpt lat="46.85444" lon="-0.162">
        <ele>110.081</ele>
        <time>2016-06-04T12:20:58Z</time>
      </trkpt>
      <trkpt lat="46.85542" lon="-0.16288">
        <ele>104.365</ele>
        <time>2016-06-04T12:20:38Z</time>
      </trkpt>
      <trkpt lat="46.85576" lon="-0.16188">
        <ele>105.508</ele>
        <time>2016-06-04T12:19:58Z</time>
      </trkpt>
      <trkpt lat="46.85626" lon="-0.16085">
        <ele>100.426</ele>
        <time>2016-06-04T12:19:38Z</time>
      </trkpt>
      <trkpt lat="46.8567" lon="-0.16089">
        <ele>94.115</ele>
        <time>2016-06-04T12:19:18Z</time>
      </trkpt>
      <trkpt lat="46.85773" lon="-0.15679">
        <ele>85.398</ele>
        <time>2016-06-04T12:18:58Z</time>
      </trkpt>
      <trkpt lat="46.85886" lon="-0.15683">
        <ele>79.841</ele>
        <time>2016-06-04T12:18:38Z</time>
      </trkpt>
      <trkpt lat="46.85944" lon="-0.15632">
        <ele>89.272</ele>
        <time>2016-06-04T12:18:18Z</time>
      </trkpt>
      <trkpt lat="46.85993" lon="-0.15486">
        <ele>87.446</ele>
        <time>2016-06-04T12:17:58Z</time>
      </trkpt>
      <trkpt lat="46.85999" lon="-0.15557">
        <ele>94.754</ele>
        <time>2016-06-04T12:17:38Z</time>
      </trkpt>
      <trkpt lat="46.86009" lon="-0.1555">
        <ele>96.218</ele>
        <time>2016-06-04T12:17:18Z</time>
      </trkpt>
      <trkpt lat="46.86046" lon="-0.15533">
        <ele>100.355</ele>
        <time>2016-06-04T12:16:58Z</time>
      </trkpt>
      <trkpt lat="46.86073" lon="-0.15449">
        <ele>99.37</ele>
        <time>2016-06-04T12:16:38Z</time>
      </trkpt>
      <trkpt lat="46.86093" lon="-0.15419">
        <ele>100.094</ele>
        <time>2016-06-04T12:16:18Z</time>
      </trkpt>
      <trkpt lat="46.86122" lon="-0.15309">
        <ele>99.608</ele>
        <time>2016-06-04T12:15:58Z</time>
      </trkpt>
      <trkpt lat="46.86166" lon="-0.1531">
        <ele>100.026</ele>
        <time>2016-06-04T12:15:18Z</time>
      </trkpt>
      <trkpt lat="46.86247" lon="-0.15295">
        <ele>99.624</ele>
        <time>2016-06-04T12:14:58Z</time>
      </trkpt>
      <trkpt lat="46.86346" lon="-0.15325">
        <ele>99.388</ele>
        <time>2016-06-04T12:14:38Z</time>
      </trkpt>
      <trkpt lat="46.86401" lon="-0.15327">
        <ele>99.961</ele>
        <time>2016-06-04T12:14:18Z</time>
      </trkpt>
      <trkpt lat="46.86483" lon="-0.15368">
        <ele>103.092</ele>
        <time>2016-06-04T12:13:58Z</time>
      </trkpt>
      <trkpt lat="46.86593" lon="-0.15364">
        <ele>103.426</ele>
        <time>2016-06-04T12:13:38Z</time>
      </trkpt>
      <trkpt lat="46.86701" lon="-0.15452">
        <ele>105.624</ele>
        <time>2016-06-04T12:13:18Z</time>
      </trkpt>
      <trkpt lat="46.86781" lon="-0.15559">
        <ele>104.848</ele>
        <time>2016-06-04T12:12:58Z</time>
      </trkpt>
      <trkpt lat="46.86942" lon="-0.15645">
        <ele>100.025</ele>
        <time>2016-06-04T12:12:38Z</time>
      </trkpt>
      <trkpt lat="46.8721" lon="-0.15514">
        <ele>99.23</ele>
        <time>2016-06-04T12:12:18Z</time>
      </trkpt>
      <trkpt lat="46.87362" lon="-0.15655">
        <ele>98.014</ele>
        <time>2016-06-04T12:11:58Z</time>
      </trkpt>
      <trkpt lat="46.87502" lon="-0.15769">
        <ele>84.308</ele>
        <time>2016-06-04T12:11:38Z</time>
      </trkpt>
      <trkpt lat="46.87611" lon="-0.15812">
        <ele>72.026</ele>
        <time>2016-06-04T12:11:18Z</time>
      </trkpt>
      <trkpt lat="46.87609" lon="-0.159">
        <ele>71.124</ele>
        <time>2016-06-04T12:10:58Z</time>
      </trkpt>
      <trkpt lat="46.87655" lon="-0.15939">
        <ele>67.888</ele>
        <time>2016-06-04T12:10:38Z</time>
      </trkpt>
      <trkpt lat="46.87689" lon="-0.15889">
        <ele>66.295</ele>
        <time>2016-06-04T12:10:18Z</time>
      </trkpt>
      <trkpt lat="46.87709" lon="-0.15896">
        <ele>65.926</ele>
        <time>2016-06-04T12:09:58Z</time>
      </trkpt>
      <trkpt lat="46.8774" lon="-0.15889">
        <ele>65.44</ele>
        <time>2016-06-04T12:09:38Z</time>
      </trkpt>
      <trkpt lat="46.87802" lon="-0.159">
        <ele>64.088</ele>
        <time>2016-06-04T12:09:18Z</time>
      </trkpt>
      <trkpt lat="46.8785" lon="-0.15889">
        <ele>64.112</ele>
        <time>2016-06-04T12:08:58Z</time>
      </trkpt>
      <trkpt lat="46.87904" lon="-0.159">
        <ele>68.179</ele>
        <time>2016-06-04T12:08:38Z</time>
      </trkpt>
      <trkpt lat="46.87931" lon="-0.15876">
        <ele>64.754</ele>
        <time>2016-06-04T12:08:18Z</time>
      </trkpt>
      <trkpt lat="46.87947" lon="-0.15816">
        <ele>62.238</ele>
        <time>2016-06-04T12:07:58Z</time>
      </trkpt>
      <trkpt lat="46.87929" lon="-0.15705">
        <ele>60.808</ele>
        <time>2016-06-04T12:07:38Z</time>
      </trkpt>
      <trkpt lat="46.87942" lon="-0.15658">
        <ele>62.617</ele>
        <time>2016-06-04T12:07:18Z</time>
      </trkpt>
      <trkpt lat="46.87982" lon="-0.15591">
        <ele>63.889</ele>
        <time>2016-06-04T12:06:58Z</time>
      </trkpt>
      <trkpt lat="46.87989" lon="-0.15591">
        <ele>63.528</ele>
        <time>2016-06-04T12:06:38Z</time>
      </trkpt>
      <trkpt lat="46.8814" lon="-0.15486">
        <ele>63.055</ele>
        <time>2016-06-04T12:06:18Z</time>
      </trkpt>
      <trkpt lat="46.88192" lon="-0.15387">
        <ele>65.096</ele>
        <time>2016-06-04T12:05:58Z</time>
      </trkpt>
      <trkpt lat="46.88234" lon="-0.15216">
        <ele>64.01</ele>
        <time>2016-06-04T12:05:38Z</time>
      </trkpt>
      <trkpt lat="46.88218" lon="-0.14904">
        <ele>61.178</ele>
        <time>2016-06-04T12:05:18Z</time>
      </trkpt>
      <trkpt lat="46.88243" lon="-0.14874">
        <ele>63.282</ele>
        <time>2016-06-04T12:04:58Z</time>
      </trkpt>
      <trkpt lat="46.88215" lon="-0.14675">
        <ele>64.819</ele>
        <time>2016-06-04T12:04:38Z</time>
      </trkpt>
      <trkpt lat="46.88208" lon="-0.14542">
        <ele>63.934</ele>
        <time>2016-06-04T12:03:18Z</time>
      </trkpt>
      <trkpt lat="46.88221" lon="-0.1437">
        <ele>61.478</ele>
        <time>2016-06-04T12:02:58Z</time>
      </trkpt>
      <trkpt lat="46.88245" lon="-0.14239">
        <ele>62.708</ele>
        <time>2016-06-04T12:02:38Z</time>
      </trkpt>
      <trkpt lat="46.88287" lon="-0.14151">
        <ele>63.208</ele>
        <time>2016-06-04T12:02:18Z</time>
      </trkpt>
      <trkpt lat="46.88324" lon="-0.14074">
        <ele>63.862</ele>
        <time>2016-06-04T12:01:58Z</time>
      </trkpt>
      <trkpt lat="46.88396" lon="-0.1401">
        <ele>62.622</ele>
        <time>2016-06-04T12:01:38Z</time>
      </trkpt>
      <trkpt lat="46.88421" lon="-0.14111">
        <ele>67.159</ele>
        <time>2016-06-04T12:01:18Z</time>
      </trkpt>
      <trkpt lat="46.88467" lon="-0.14063">
        <ele>68.92</ele>
        <time>2016-06-04T12:00:58Z</time>
      </trkpt>
      <trkpt lat="46.88484" lon="-0.14072">
        <ele>69.814</ele>
        <time>2016-06-04T12:00:38Z</time>
      </trkpt>
      <trkpt lat="46.88538" lon="-0.14053">
        <ele>69.492</ele>
        <time>2016-06-04T12:00:18Z</time>
      </trkpt>
      <trkpt lat="46.88579" lon="-0.1407">
        <ele>68.796</ele>
        <time>2016-06-04T11:59:58Z</time>
      </trkpt>
      <trkpt lat="46.88605" lon="-0.1402">
        <ele>63.763</ele>
        <time>2016-06-04T11:59:38Z</time>
      </trkpt>
      <trkpt lat="46.88607" lon="-0.13915">
        <ele>61.218</ele>
        <time>2016-06-04T11:59:18Z</time>
      </trkpt>
      <trkpt lat="46.88709" lon="-0.13932">
        <ele>62.742</ele>
        <time>2016-06-04T11:58:58Z</time>
      </trkpt>
      <trkpt lat="46.88899" lon="-0.1398">
        <ele>61.508</ele>
        <time>2016-06-04T11:58:38Z</time>
      </trkpt>
      <trkpt lat="46.89033" lon="-0.14014">
        <ele>62.024</ele>
        <time>2016-06-04T11:58:18Z</time>
      </trkpt>
      <trkpt lat="46.89116" lon="-0.14048">
        <ele>63.904</ele>
        <time>2016-06-04T11:57:58Z</time>
      </trkpt>
      <trkpt lat="46.89116" lon="-0.14095">
        <ele>68.869</ele>
        <time>2016-06-04T11:57:38Z</time>
      </trkpt>
      <trkpt lat="46.89466" lon="-0.14098">
        <ele>68.527</ele>
        <time>2016-06-04T11:57:18Z</time>
      </trkpt>
      <trkpt lat="46.89569" lon="-0.14063">
        <ele>64.228</ele>
        <time>2016-06-04T11:56:58Z</time>
      </trkpt>
      <trkpt lat="46.89645" lon="-0.14012">
        <ele>62.462</ele>
        <time>2016-06-04T11:56:38Z</time>
      </trkpt>
      <trkpt lat="46.89717" lon="-0.1402">
        <ele>61.95</ele>
        <time>2016-06-04T11:56:18Z</time>
      </trkpt>
      <trkpt lat="46.89837" lon="-0.1401">
        <ele>62.034</ele>
        <time>2016-06-04T11:55:58Z</time>
      </trkpt>
      <trkpt lat="46.90047" lon="-0.14027">
        <ele>61.091</ele>
        <time>2016-06-04T11:55:38Z</time>
      </trkpt>
      <trkpt lat="46.90155" lon="-0.14008">
        <ele>61.336</ele>
        <time>2016-06-04T11:55:18Z</time>
      </trkpt>
      <trkpt lat="46.90312" lon="-0.14053">
        <ele>61.81</ele>
        <time>2016-06-04T11:54:58Z</time>
      </trkpt>
      <trkpt lat="46.90377" lon="-0.14106">
        <ele>60.908</ele>
        <time>2016-06-04T11:54:38Z</time>
      </trkpt>
      <trkpt lat="46.90409" lon="-0.14181">
        <ele>61.709</ele>
        <time>2016-06-04T11:54:18Z</time>
      </trkpt>
      <trkpt lat="46.90489" lon="-0.14254">
        <ele>61.081</ele>
        <time>2016-06-04T11:53:58Z</time>
      </trkpt>
      <trkpt lat="46.90882" lon="-0.14546">
        <ele>62.941</ele>
        <time>2016-06-04T11:53:38Z</time>
      </trkpt>
      <trkpt lat="46.90907" lon="-0.14587">
        <ele>66.55</ele>
        <time>2016-06-04T11:53:18Z</time>
      </trkpt>
      <trkpt lat="46.9101" lon="-0.14632">
        <ele>73.031</ele>
        <time>2016-06-04T11:52:58Z</time>
      </trkpt>
      <trkpt lat="46.91178" lon="-0.14645">
        <ele>68.285</ele>
        <time>2016-06-04T11:52:38Z</time>
      </trkpt>
      <trkpt lat="46.91236" lon="-0.14638">
        <ele>67.973</ele>
        <time>2016-06-04T11:52:18Z</time>
      </trkpt>
      <trkpt lat="46.9131" lon="-0.14595">
        <ele>69.977</ele>
        <time>2016-06-04T11:51:58Z</time>
      </trkpt>
      <trkpt lat="46.91397" lon="-0.14499">
        <ele>71.014</ele>
        <time>2016-06-04T11:51:38Z</time>
      </trkpt>
      <trkpt lat="46.91454" lon="-0.14394">
        <ele>69.879</ele>
        <time>2016-06-04T11:51:18Z</time>
      </trkpt>
      <trkpt lat="46.91562" lon="-0.1416">
        <ele>65.283</ele>
        <time>2016-06-04T11:50:58Z</time>
      </trkpt>
      <trkpt lat="46.91681" lon="-0.13971">
        <ele>60.508</ele>
        <time>2016-06-04T11:50:38Z</time>
      </trkpt>
      <trkpt lat="46.91697" lon="-0.13909">
        <ele>61.925</ele>
        <time>2016-06-04T11:50:18Z</time>
      </trkpt>
      <trkpt lat="46.91716" lon="-0.13874">
        <ele>64.505</ele>
        <time>2016-06-04T11:49:58Z</time>
      </trkpt>
      <trkpt lat="46.91819" lon="-0.13844">
        <ele>62.779</ele>
        <time>2016-06-04T11:49:38Z</time>
      </trkpt>
      <trkpt lat="46.91847" lon="-0.13829">
        <ele>61.54</ele>
        <time>2016-06-04T11:49:18Z</time>
      </trkpt>
      <trkpt lat="46.91933" lon="-0.13752">
        <ele>61.041</ele>
        <time>2016-06-04T11:48:58Z</time>
      </trkpt>
      <trkpt lat="46.91944" lon="-0.13771">
        <ele>61.025</ele>
        <time>2016-06-04T11:48:38Z</time>
      </trkpt>
      <trkpt lat="46.91939" lon="-0.13853">
        <ele>65.863</ele>
        <time>2016-06-04T11:48:18Z</time>
      </trkpt>
      <trkpt lat="46.91955" lon="-0.13917">
        <ele>68.417</ele>
        <time>2016-06-04T11:47:58Z</time>
      </trkpt>
      <trkpt lat="46.91996" lon="-0.13965">
        <ele>67.854</ele>
        <time>2016-06-04T11:47:38Z</time>
      </trkpt>
      <trkpt lat="46.91993" lon="-0.13473">
        <ele>61.039</ele>
        <time>2016-06-04T11:47:18Z</time>
      </trkpt>
      <trkpt lat="46.92089" lon="-0.13505">
        <ele>59.593</ele>
        <time>2016-06-04T11:46:58Z</time>
      </trkpt>
      <trkpt lat="46.92199" lon="-0.13499">
        <ele>63.908</ele>
        <time>2016-06-04T11:46:38Z</time>
      </trkpt>
      <trkpt lat="46.92282" lon="-0.13514">
        <ele>60.726</ele>
        <time>2016-06-04T11:46:18Z</time>
      </trkpt>
      <trkpt lat="46.92347" lon="-0.13565">
        <ele>59.133</ele>
        <time>2016-06-04T11:45:58Z</time>
      </trkpt>
      <trkpt lat="46.92398" lon="-0.13645">
        <ele>57.378</ele>
        <time>2016-06-04T11:45:38Z</time>
      </trkpt>
      <trkpt lat="46.92434" lon="-0.13688">
        <ele>59.554</ele>
        <time>2016-06-04T11:45:18Z</time>
      </trkpt>
      <trkpt lat="46.9249" lon="-0.13838">
        <ele>60.955</ele>
        <time>2016-06-04T11:44:58Z</time>
      </trkpt>
      <trkpt lat="46.92527" lon="-0.13866">
        <ele>61.979</ele>
        <time>2016-06-04T11:44:38Z</time>
      </trkpt>
      <trkpt lat="46.92593" lon="-0.14224">
        <ele>66.317</ele>
        <time>2016-06-04T11:44:18Z</time>
      </trkpt>
      <trkpt lat="46.92585" lon="-0.14492">
        <ele>65.351</ele>
        <time>2016-06-04T11:43:58Z</time>
      </trkpt>
      <trkpt lat="46.92593" lon="-0.1458">
        <ele>69.388</ele>
        <time>2016-06-04T11:43:38Z</time>
      </trkpt>
      <trkpt lat="46.92565" lon="-0.14683">
        <ele>64.343</ele>
        <time>2016-06-04T11:43:18Z</time>
      </trkpt>
      <trkpt lat="46.92565" lon="-0.14789">
        <ele>63.077</ele>
        <time>2016-06-04T11:42:58Z</time>
      </trkpt>
      <trkpt lat="46.92547" lon="-0.14892">
        <ele>61.608</ele>
        <time>2016-06-04T11:42:38Z</time>
      </trkpt>
      <trkpt lat="46.92561" lon="-0.15083">
        <ele>59.415</ele>
        <time>2016-06-04T11:42:18Z</time>
      </trkpt>
      <trkpt lat="46.92602" lon="-0.15297">
        <ele>58.687</ele>
        <time>2016-06-04T11:41:58Z</time>
      </trkpt>
      <trkpt lat="46.9266" lon="-0.15437">
        <ele>59.517</ele>
        <time>2016-06-04T11:41:38Z</time>
      </trkpt>
      <trkpt lat="46.92731" lon="-0.15548">
        <ele>58.325</ele>
        <time>2016-06-04T11:41:18Z</time>
      </trkpt>
      <trkpt lat="46.92848" lon="-0.1564">
        <ele>57.176</ele>
        <time>2016-06-04T11:40:58Z</time>
      </trkpt>
      <trkpt lat="46.92931" lon="-0.15632">
        <ele>58.76</ele>
        <time>2016-06-04T11:40:38Z</time>
      </trkpt>
      <trkpt lat="46.93098" lon="-0.15529">
        <ele>58.148</ele>
        <time>2016-06-04T11:40:18Z</time>
      </trkpt>
      <trkpt lat="46.93233" lon="-0.154">
        <ele>58.672</ele>
        <time>2016-06-04T11:39:58Z</time>
      </trkpt>
      <trkpt lat="46.93318" lon="-0.15308">
        <ele>62.939</ele>
        <time>2016-06-04T11:39:38Z</time>
      </trkpt>
      <trkpt lat="46.93383" lon="-0.1522">
        <ele>64.444</ele>
        <time>2016-06-04T11:39:18Z</time>
      </trkpt>
      <trkpt lat="46.93459" lon="-0.15143">
        <ele>62.348</ele>
        <time>2016-06-04T11:38:58Z</time>
      </trkpt>
      <trkpt lat="46.93586" lon="-0.14965">
        <ele>63.108</ele>
        <time>2016-06-04T11:38:38Z</time>
      </trkpt>
      <trkpt lat="46.93639" lon="-0.14838">
        <ele>64.011</ele>
        <time>2016-06-04T11:38:18Z</time>
      </trkpt>
      <trkpt lat="46.93664" lon="-0.14789">
        <ele>63.147</ele>
        <time>2016-06-04T11:37:58Z</time>
      </trkpt>
      <trkpt lat="46.93951" lon="-0.14683">
        <ele>63.926</ele>
        <time>2016-06-04T11:37:38Z</time>
      </trkpt>
      <trkpt lat="46.94007" lon="-0.14681">
        <ele>63.471</ele>
        <time>2016-06-04T11:37:18Z</time>
      </trkpt>
      <trkpt lat="46.94103" lon="-0.1469">
        <ele>63.912</ele>
        <time>2016-06-04T11:36:58Z</time>
      </trkpt>
      <trkpt lat="46.94079" lon="-0.1475">
        <ele>63.046</ele>
        <time>2016-06-04T11:36:38Z</time>
      </trkpt>
      <trkpt lat="46.94085" lon="-0.14836">
        <ele>57.924</ele>
        <time>2016-06-04T11:36:18Z</time>
      </trkpt>
      <trkpt lat="46.9418" lon="-0.14872">
        <ele>57.148</ele>
        <time>2016-06-04T11:35:58Z</time>
      </trkpt>
      <trkpt lat="46.94256" lon="-0.14849">
        <ele>60.065</ele>
        <time>2016-06-04T11:35:38Z</time>
      </trkpt>
      <trkpt lat="46.94373" lon="-0.14887">
        <ele>60.55</ele>
        <time>2016-06-04T11:35:18Z</time>
      </trkpt>
      <trkpt lat="46.94459" lon="-0.14892">
        <ele>65.324</ele>
        <time>2016-06-04T11:34:58Z</time>
      </trkpt>
      <trkpt lat="46.94427" lon="-0.14999">
        <ele>57.408</ele>
        <time>2016-06-04T11:34:38Z</time>
      </trkpt>
      <trkpt lat="46.94361" lon="-0.15186">
        <ele>59.026</ele>
        <time>2016-06-04T11:34:18Z</time>
      </trkpt>
      <trkpt lat="46.94232" lon="-0.15115">
        <ele>60.924</ele>
        <time>2016-06-04T11:33:58Z</time>
      </trkpt>
      <trkpt lat="46.94074" lon="-0.15102">
        <ele>57.888</ele>
        <time>2016-06-04T11:33:38Z</time>
      </trkpt>
      <trkpt lat="46.93955" lon="-0.15136">
        <ele>59.644</ele>
        <time>2016-06-04T11:33:18Z</time>
      </trkpt>
      <trkpt lat="46.93907" lon="-0.15175">
        <ele>59.865</ele>
        <time>2016-06-04T11:32:58Z</time>
      </trkpt>
      <trkpt lat="46.93866" lon="-0.15289">
        <ele>59.999</ele>
        <time>2016-06-04T11:32:38Z</time>
      </trkpt>
      <trkpt lat="46.93857" lon="-0.15346">
        <ele>62.587</ele>
        <time>2016-06-04T11:32:18Z</time>
      </trkpt>
      <trkpt lat="46.93764" lon="-0.15514">
        <ele>62.281</ele>
        <time>2016-06-04T11:31:58Z</time>
      </trkpt>
      <trkpt lat="46.93802" lon="-0.15565">
        <ele>64.248</ele>
        <time>2016-06-04T11:31:38Z</time>
      </trkpt>
      <trkpt lat="46.93797" lon="-0.15707">
        <ele>68.413</ele>
        <time>2016-06-04T11:31:18Z</time>
      </trkpt>
      <trkpt lat="46.93813" lon="-0.15778">
        <ele>70.817</ele>
        <time>2016-06-04T11:30:38Z</time>
      </trkpt>
      <trkpt lat="46.93882" lon="-0.15879">
        <ele>81.108</ele>
        <time>2016-06-04T11:30:18Z</time>
      </trkpt>
      <trkpt lat="46.93958" lon="-0.16029">
        <ele>86.015</ele>
        <time>2016-06-04T11:29:58Z</time>
      </trkpt>
      <trkpt lat="46.94008" lon="-0.16166">
        <ele>89.087</ele>
        <time>2016-06-04T11:29:38Z</time>
      </trkpt>
      <trkpt lat="46.94004" lon="-0.16331">
        <ele>90.017</ele>
        <time>2016-06-04T11:29:18Z</time>
      </trkpt>
      <trkpt lat="46.94442" lon="-0.16705">
        <ele>93.685</ele>
        <time>2016-06-04T11:28:58Z</time>
      </trkpt>
      <trkpt lat="46.94553" lon="-0.16894">
        <ele>93.286</ele>
        <time>2016-06-04T11:28:38Z</time>
      </trkpt>
      <trkpt lat="46.94623" lon="-0.1708">
        <ele>93.14</ele>
        <time>2016-06-04T11:28:18Z</time>
      </trkpt>
      <trkpt lat="46.94773" lon="-0.17134">
        <ele>87.428</ele>
        <time>2016-06-04T11:27:58Z</time>
      </trkpt>
      <trkpt lat="46.94821" lon="-0.1725">
        <ele>88.932</ele>
        <time>2016-06-04T11:27:38Z</time>
      </trkpt>
      <trkpt lat="46.94829" lon="-0.174">
        <ele>84.819</ele>
        <time>2016-06-04T11:27:18Z</time>
      </trkpt>
      <trkpt lat="46.94965" lon="-0.17359">
        <ele>72.084</ele>
        <time>2016-06-04T11:26:58Z</time>
      </trkpt>
      <trkpt lat="46.95035" lon="-0.17348">
        <ele>64.368</ele>
        <time>2016-06-04T11:26:38Z</time>
      </trkpt>
      <trkpt lat="46.95129" lon="-0.17368">
        <ele>56.708</ele>
        <time>2016-06-04T11:26:18Z</time>
      </trkpt>
      <trkpt lat="46.95201" lon="-0.17451">
        <ele>55.014</ele>
        <time>2016-06-04T11:25:38Z</time>
      </trkpt>
      <trkpt lat="46.95268" lon="-0.17681">
        <ele>56.768</ele>
        <time>2016-06-04T11:24:58Z</time>
      </trkpt>
      <trkpt lat="46.95291" lon="-0.17934">
        <ele>60.027</ele>
        <time>2016-06-04T11:24:38Z</time>
      </trkpt>
      <trkpt lat="46.95294" lon="-0.18061">
        <ele>58.115</ele>
        <time>2016-06-04T11:24:18Z</time>
      </trkpt>
      <trkpt lat="46.95272" lon="-0.18172">
        <ele>62.246</ele>
        <time>2016-06-04T11:23:58Z</time>
      </trkpt>
      <trkpt lat="46.95284" lon="-0.18237">
        <ele>60.94</ele>
        <time>2016-06-04T11:23:38Z</time>
      </trkpt>
      <trkpt lat="46.9524" lon="-0.18269">
        <ele>62.588</ele>
        <time>2016-06-04T11:23:18Z</time>
      </trkpt>
      <trkpt lat="46.9525" lon="-0.18441">
        <ele>62.882</ele>
        <time>2016-06-04T11:22:58Z</time>
      </trkpt>
      <trkpt lat="46.95252" lon="-0.18539">
        <ele>62.839</ele>
        <time>2016-06-04T11:22:38Z</time>
      </trkpt>
      <trkpt lat="46.95247" lon="-0.18638">
        <ele>61.274</ele>
        <time>2016-06-04T11:22:18Z</time>
      </trkpt>
      <trkpt lat="46.95183" lon="-0.18898">
        <ele>64.068</ele>
        <time>2016-06-04T11:21:58Z</time>
      </trkpt>
      <trkpt lat="46.95187" lon="-0.18986">
        <ele>62.508</ele>
        <time>2016-06-04T11:21:38Z</time>
      </trkpt>
      <trkpt lat="46.95177" lon="-0.19022">
        <ele>63.205</ele>
        <time>2016-06-04T11:21:18Z</time>
      </trkpt>
      <trkpt lat="46.95176" lon="-0.19063">
        <ele>64.041</ele>
        <time>2016-06-04T11:20:58Z</time>
      </trkpt>
      <trkpt lat="46.95183" lon="-0.19091">
        <ele>63.121</ele>
        <time>2016-06-04T11:20:38Z</time>
      </trkpt>
      <trkpt lat="46.95296" lon="-0.19147">
        <ele>55.641</ele>
        <time>2016-06-04T11:20:18Z</time>
      </trkpt>
      <trkpt lat="46.9529" lon="-0.19198">
        <ele>56.862</ele>
        <time>2016-06-04T11:19:58Z</time>
      </trkpt>
      <trkpt lat="46.95296" lon="-0.19286">
        <ele>55.636</ele>
        <time>2016-06-04T11:19:38Z</time>
      </trkpt>
      <trkpt lat="46.95341" lon="-0.19385">
        <ele>53.434</ele>
        <time>2016-06-04T11:19:18Z</time>
      </trkpt>
      <trkpt lat="46.95391" lon="-0.19441">
        <ele>54.038</ele>
        <time>2016-06-04T11:18:58Z</time>
      </trkpt>
      <trkpt lat="46.95429" lon="-0.19445">
        <ele>54.025</ele>
        <time>2016-06-04T11:18:38Z</time>
      </trkpt>
      <trkpt lat="46.95498" lon="-0.19413">
        <ele>55.14</ele>
        <time>2016-06-04T11:18:18Z</time>
      </trkpt>
      <trkpt lat="46.95539" lon="-0.19346">
        <ele>57.824</ele>
        <time>2016-06-04T11:17:58Z</time>
      </trkpt>
      <trkpt lat="46.95703" lon="-0.19192">
        <ele>58.508</ele>
        <time>2016-06-04T11:17:38Z</time>
      </trkpt>
      <trkpt lat="46.95848" lon="-0.19108">
        <ele>58.217</ele>
        <time>2016-06-04T11:17:18Z</time>
      </trkpt>
      <trkpt lat="46.95983" lon="-0.18945">
        <ele>66.225</ele>
        <time>2016-06-04T11:16:58Z</time>
      </trkpt>
      <trkpt lat="46.96027" lon="-0.18923">
        <ele>65.483</ele>
        <time>2016-06-04T11:16:38Z</time>
      </trkpt>
      <trkpt lat="46.96084" lon="-0.18868">
        <ele>69.371</ele>
        <time>2016-06-04T11:16:18Z</time>
      </trkpt>
      <trkpt lat="46.96104" lon="-0.18861">
        <ele>70.032</ele>
        <time>2016-06-04T11:15:58Z</time>
      </trkpt>
      <trkpt lat="46.96123" lon="-0.18861">
        <ele>69.176</ele>
        <time>2016-06-04T11:15:38Z</time>
      </trkpt>
      <trkpt lat="46.96154" lon="-0.18827">
        <ele>68.544</ele>
        <time>2016-06-04T11:15:18Z</time>
      </trkpt>
      <trkpt lat="46.96164" lon="-0.18782">
        <ele>67.518</ele>
        <time>2016-06-04T11:14:58Z</time>
      </trkpt>
      <trkpt lat="46.96188" lon="-0.18745">
        <ele>68.375</ele>
        <time>2016-06-04T11:14:38Z</time>
      </trkpt>
      <trkpt lat="46.96218" lon="-0.18818">
        <ele>63.56</ele>
        <time>2016-06-04T11:14:18Z</time>
      </trkpt>
      <trkpt lat="46.9628" lon="-0.18835">
        <ele>59.754</ele>
        <time>2016-06-04T11:13:58Z</time>
      </trkpt>
      <trkpt lat="46.96318" lon="-0.1882">
        <ele>58.508</ele>
        <time>2016-06-04T11:13:38Z</time>
      </trkpt>
      <trkpt lat="46.96372" lon="-0.1882">
        <ele>57.517</ele>
        <time>2016-06-04T11:13:18Z</time>
      </trkpt>
      <trkpt lat="46.96486" lon="-0.18765">
        <ele>57.261</ele>
        <time>2016-06-04T11:12:58Z</time>
      </trkpt>
      <trkpt lat="46.96592" lon="-0.18713">
        <ele>61.681</ele>
        <time>2016-06-04T11:12:38Z</time>
      </trkpt>
      <trkpt lat="46.96688" lon="-0.18712">
        <ele>58.791</ele>
        <time>2016-06-04T11:12:18Z</time>
      </trkpt>
      <trkpt lat="46.96793" lon="-0.18726">
        <ele>59.152</ele>
        <time>2016-06-04T11:11:58Z</time>
      </trkpt>
      <trkpt lat="46.96908" lon="-0.1875">
        <ele>64.936</ele>
        <time>2016-06-04T11:11:38Z</time>
      </trkpt>
      <trkpt lat="46.96965" lon="-0.18827">
        <ele>61.664</ele>
        <time>2016-06-04T11:11:18Z</time>
      </trkpt>
      <trkpt lat="46.97015" lon="-0.18883">
        <ele>60.778</ele>
        <time>2016-06-04T11:10:58Z</time>
      </trkpt>
      <trkpt lat="46.97037" lon="-0.18934">
        <ele>58.085</ele>
        <time>2016-06-04T11:10:38Z</time>
      </trkpt>
      <trkpt lat="46.97081" lon="-0.19011">
        <ele>56.67</ele>
        <time>2016-06-04T11:10:18Z</time>
      </trkpt>
      <trkpt lat="46.9708" lon="-0.19224">
        <ele>62.234</ele>
        <time>2016-06-04T11:09:58Z</time>
      </trkpt>
      <trkpt lat="46.97104" lon="-0.19318">
        <ele>69.908</ele>
        <time>2016-06-04T11:09:38Z</time>
      </trkpt>
      <trkpt lat="46.97097" lon="-0.19541">
        <ele>82.426</ele>
        <time>2016-06-04T11:09:18Z</time>
      </trkpt>
      <trkpt lat="46.97046" lon="-0.19664">
        <ele>84.106</ele>
        <time>2016-06-04T11:08:58Z</time>
      </trkpt>
      <trkpt lat="46.97052" lon="-0.19717">
        <ele>87.789</ele>
        <time>2016-06-04T11:08:38Z</time>
      </trkpt>
      <trkpt lat="46.97077" lon="-0.19771">
        <ele>89.544</ele>
        <time>2016-06-04T11:08:18Z</time>
      </trkpt>
      <trkpt lat="46.97096" lon="-0.19844">
        <ele>85.635</ele>
        <time>2016-06-04T11:07:58Z</time>
      </trkpt>
      <trkpt lat="46.97142" lon="-0.19956">
        <ele>78.799</ele>
        <time>2016-06-04T11:07:38Z</time>
      </trkpt>
      <trkpt lat="46.97142" lon="-0.20026">
        <ele>77.017</ele>
        <time>2016-06-04T11:07:18Z</time>
      </trkpt>
      <trkpt lat="46.97181" lon="-0.20074">
        <ele>75.781</ele>
        <time>2016-06-04T11:06:58Z</time>
      </trkpt>
      <trkpt lat="46.97232" lon="-0.20082">
        <ele>75.458</ele>
        <time>2016-06-04T11:06:38Z</time>
      </trkpt>
      <trkpt lat="46.97271" lon="-0.20134">
        <ele>73.043</ele>
        <time>2016-06-04T11:06:18Z</time>
      </trkpt>
      <trkpt lat="46.97315" lon="-0.20204">
        <ele>77.427</ele>
        <time>2016-06-04T11:05:58Z</time>
      </trkpt>
      <trkpt lat="46.9735" lon="-0.20329">
        <ele>73.008</ele>
        <time>2016-06-04T11:05:38Z</time>
      </trkpt>
      <trkpt lat="46.97424" lon="-0.20509">
        <ele>68.419</ele>
        <time>2016-06-04T11:05:18Z</time>
      </trkpt>
      <trkpt lat="46.97475" lon="-0.20758">
        <ele>69.609</ele>
        <time>2016-06-04T11:04:58Z</time>
      </trkpt>
      <trkpt lat="46.97522" lon="-0.20917">
        <ele>71.319</ele>
        <time>2016-06-04T11:04:38Z</time>
      </trkpt>
      <trkpt lat="46.9753" lon="-0.21033">
        <ele>71.599</ele>
        <time>2016-06-04T11:04:18Z</time>
      </trkpt>
      <trkpt lat="46.9761" lon="-0.21048">
        <ele>82.13</ele>
        <time>2016-06-04T11:03:58Z</time>
      </trkpt>
      <trkpt lat="46.97615" lon="-0.21101">
        <ele>84.064</ele>
        <time>2016-06-04T11:03:38Z</time>
      </trkpt>
      <trkpt lat="46.9762" lon="-0.21162">
        <ele>87.222</ele>
        <time>2016-06-04T11:03:18Z</time>
      </trkpt>
      <trkpt lat="46.97577" lon="-0.21194">
        <ele>87.016</ele>
        <time>2016-06-04T11:02:58Z</time>
      </trkpt>
      <trkpt lat="46.97497" lon="-0.21224">
        <ele>84.053</ele>
        <time>2016-06-04T11:02:38Z</time>
      </trkpt>
      <trkpt lat="46.97465" lon="-0.21277">
        <ele>86.138</ele>
        <time>2016-06-04T11:02:18Z</time>
      </trkpt>
      <trkpt lat="46.97455" lon="-0.21389">
        <ele>90.812</ele>
        <time>2016-06-04T11:01:58Z</time>
      </trkpt>
      <trkpt lat="46.97438" lon="-0.21516">
        <ele>92.108</ele>
        <time>2016-06-04T11:01:38Z</time>
      </trkpt>
      <trkpt lat="46.97481" lon="-0.21563">
        <ele>93.026</ele>
        <time>2016-06-04T11:01:18Z</time>
      </trkpt>
      <trkpt lat="46.97487" lon="-0.21584">
        <ele>92.542</ele>
        <time>2016-06-04T11:00:58Z</time>
      </trkpt>
      <trkpt lat="46.97569" lon="-0.21623">
        <ele>90.568</ele>
        <time>2016-06-04T11:00:38Z</time>
      </trkpt>
      <trkpt lat="46.97782" lon="-0.21726">
        <ele>93.369</ele>
        <time>2016-06-04T11:00:18Z</time>
      </trkpt>
      <trkpt lat="46.97803" lon="-0.21719">
        <ele>95.93</ele>
        <time>2016-06-04T10:59:58Z</time>
      </trkpt>
      <trkpt lat="46.97907" lon="-0.21773">
        <ele>99.754</ele>
        <time>2016-06-04T10:59:38Z</time>
      </trkpt>
      <trkpt lat="46.97898" lon="-0.21814">
        <ele>92.022</ele>
        <time>2016-06-04T10:59:18Z</time>
      </trkpt>
      <trkpt lat="46.97876" lon="-0.21837">
        <ele>87.876</ele>
        <time>2016-06-04T10:58:58Z</time>
      </trkpt>
      <trkpt lat="46.97891" lon="-0.21861">
        <ele>83.043</ele>
        <time>2016-06-04T10:58:38Z</time>
      </trkpt>
      <trkpt lat="46.97935" lon="-0.21874">
        <ele>81.738</ele>
        <time>2016-06-04T10:58:18Z</time>
      </trkpt>
      <trkpt lat="46.97958" lon="-0.21917">
        <ele>71.552</ele>
        <time>2016-06-04T10:57:58Z</time>
      </trkpt>
      <trkpt lat="46.98139" lon="-0.22063">
        <ele>57.908</ele>
        <time>2016-06-04T10:57:38Z</time>
      </trkpt>
      <trkpt lat="46.98188" lon="-0.22194">
        <ele>56.613</ele>
        <time>2016-06-04T10:57:18Z</time>
      </trkpt>
      <trkpt lat="46.9822" lon="-0.22342">
        <ele>58.821</ele>
        <time>2016-06-04T10:56:58Z</time>
      </trkpt>
      <trkpt lat="46.98235" lon="-0.22494">
        <ele>55.861</ele>
        <time>2016-06-04T10:56:38Z</time>
      </trkpt>
      <trkpt lat="46.98226" lon="-0.22631">
        <ele>61.498</ele>
        <time>2016-06-04T10:56:18Z</time>
      </trkpt>
      <trkpt lat="46.98211" lon="-0.227">
        <ele>57.719</ele>
        <time>2016-06-04T10:55:58Z</time>
      </trkpt>
      <trkpt lat="46.98205" lon="-0.22844">
        <ele>58.683</ele>
        <time>2016-06-04T10:55:38Z</time>
      </trkpt>
      <trkpt lat="46.98182" lon="-0.22955">
        <ele>56.631</ele>
        <time>2016-06-04T10:55:18Z</time>
      </trkpt>
      <trkpt lat="46.98163" lon="-0.23076">
        <ele>53.415</ele>
        <time>2016-06-04T10:54:58Z</time>
      </trkpt>
      <trkpt lat="46.9817" lon="-0.23232">
        <ele>50.852</ele>
        <time>2016-06-04T10:54:38Z</time>
      </trkpt>
      <trkpt lat="46.98194" lon="-0.23425">
        <ele>49.037</ele>
        <time>2016-06-04T10:54:18Z</time>
      </trkpt>
      <trkpt lat="46.98221" lon="-0.23556">
        <ele>49.981</ele>
        <time>2016-06-04T10:53:58Z</time>
      </trkpt>
      <trkpt lat="46.98242" lon="-0.23711">
        <ele>49.808</ele>
        <time>2016-06-04T10:53:38Z</time>
      </trkpt>
      <trkpt lat="46.98299" lon="-0.24">
        <ele>50.314</ele>
        <time>2016-06-04T10:53:18Z</time>
      </trkpt>
      <trkpt lat="46.98374" lon="-0.24198">
        <ele>49.359</ele>
        <time>2016-06-04T10:52:58Z</time>
      </trkpt>
      <trkpt lat="46.98407" lon="-0.24224">
        <ele>51.956</ele>
        <time>2016-06-04T10:52:38Z</time>
      </trkpt>
      <trkpt lat="46.98503" lon="-0.2438">
        <ele>50.548</ele>
        <time>2016-06-04T10:52:18Z</time>
      </trkpt>
      <trkpt lat="46.98612" lon="-0.24475">
        <ele>48.279</ele>
        <time>2016-06-04T10:51:58Z</time>
      </trkpt>
      <trkpt lat="46.98725" lon="-0.24584">
        <ele>51.183</ele>
        <time>2016-06-04T10:51:38Z</time>
      </trkpt>
      <trkpt lat="46.98792" lon="-0.24651">
        <ele>50.051</ele>
        <time>2016-06-04T10:51:18Z</time>
      </trkpt>
      <trkpt lat="46.98908" lon="-0.24754">
        <ele>48.395</ele>
        <time>2016-06-04T10:50:58Z</time>
      </trkpt>
      <trkpt lat="46.98997" lon="-0.24775">
        <ele>50.272</ele>
        <time>2016-06-04T10:50:38Z</time>
      </trkpt>
      <trkpt lat="46.99151" lon="-0.24745">
        <ele>48.927</ele>
        <time>2016-06-04T10:50:18Z</time>
      </trkpt>
      <trkpt lat="46.99186" lon="-0.24754">
        <ele>48.051</ele>
        <time>2016-06-04T10:49:58Z</time>
      </trkpt>
      <trkpt lat="46.9928" lon="-0.24728">
        <ele>48.708</ele>
        <time>2016-06-04T10:49:38Z</time>
      </trkpt>
      <trkpt lat="46.99302" lon="-0.24698">
        <ele>48.223</ele>
        <time>2016-06-04T10:49:18Z</time>
      </trkpt>
      <trkpt lat="46.99384" lon="-0.2467">
        <ele>46.103</ele>
        <time>2016-06-04T10:48:58Z</time>
      </trkpt>
      <trkpt lat="46.99428" lon="-0.24644">
        <ele>48.259</ele>
        <time>2016-06-04T10:48:38Z</time>
      </trkpt>
      <trkpt lat="46.99498" lon="-0.2462">
        <ele>49.269</ele>
        <time>2016-06-04T10:48:18Z</time>
      </trkpt>
      <trkpt lat="46.996" lon="-0.24614">
        <ele>48.81</ele>
        <time>2016-06-04T10:47:58Z</time>
      </trkpt>
      <trkpt lat="46.99678" lon="-0.24588">
        <ele>46.694</ele>
        <time>2016-06-04T10:47:38Z</time>
      </trkpt>
      <trkpt lat="46.99729" lon="-0.24597">
        <ele>47.962</ele>
        <time>2016-06-04T10:47:18Z</time>
      </trkpt>
      <trkpt lat="46.99821" lon="-0.24565">
        <ele>49.426</ele>
        <time>2016-06-04T10:46:58Z</time>
      </trkpt>
      <trkpt lat="46.99843" lon="-0.2455">
        <ele>49.233</ele>
        <time>2016-06-04T10:46:18Z</time>
      </trkpt>
      <trkpt lat="46.99853" lon="-0.24524">
        <ele>48.368</ele>
        <time>2016-06-04T10:45:58Z</time>
      </trkpt>
      <trkpt lat="47.00014" lon="-0.24543">
        <ele>44.792</ele>
        <time>2016-06-04T10:45:38Z</time>
      </trkpt>
      <trkpt lat="47.00134" lon="-0.24558">
        <ele>45.908</ele>
        <time>2016-06-04T10:45:18Z</time>
      </trkpt>
      <trkpt lat="47.00252" lon="-0.24595">
        <ele>47.014</ele>
        <time>2016-06-04T10:44:58Z</time>
      </trkpt>
      <trkpt lat="47.00363" lon="-0.24605">
        <ele>48.468</ele>
        <time>2016-06-04T10:44:38Z</time>
      </trkpt>
      <trkpt lat="47.00443" lon="-0.24599">
        <ele>51.165</ele>
        <time>2016-06-04T10:44:18Z</time>
      </trkpt>
      <trkpt lat="47.00481" lon="-0.24623">
        <ele>52.272</ele>
        <time>2016-06-04T10:43:58Z</time>
      </trkpt>
      <trkpt lat="47.00509" lon="-0.24672">
        <ele>49.053</ele>
        <time>2016-06-04T10:43:38Z</time>
      </trkpt>
      <trkpt lat="47.00623" lon="-0.24801">
        <ele>54.387</ele>
        <time>2016-06-04T10:43:18Z</time>
      </trkpt>
      <trkpt lat="47.00695" lon="-0.24919">
        <ele>45.975</ele>
        <time>2016-06-04T10:42:58Z</time>
      </trkpt>
      <trkpt lat="47.00739" lon="-0.24998">
        <ele>46.349</ele>
        <time>2016-06-04T10:42:38Z</time>
      </trkpt>
      <trkpt lat="47.00813" lon="-0.25105">
        <ele>44.456</ele>
        <time>2016-06-04T10:42:18Z</time>
      </trkpt>
      <trkpt lat="47.0093" lon="-0.25243">
        <ele>44.521</ele>
        <time>2016-06-04T10:41:58Z</time>
      </trkpt>
      <trkpt lat="47.00976" lon="-0.25324">
        <ele>43.925</ele>
        <time>2016-06-04T10:41:38Z</time>
      </trkpt>
      <trkpt lat="47.00995" lon="-0.25348">
        <ele>43.208</ele>
        <time>2016-06-04T10:41:18Z</time>
      </trkpt>
      <trkpt lat="47.01069" lon="-0.255">
        <ele>43.519</ele>
        <time>2016-06-04T10:40:58Z</time>
      </trkpt>
      <trkpt lat="47.01109" lon="-0.25528">
        <ele>44.181</ele>
        <time>2016-06-04T10:40:38Z</time>
      </trkpt>
      <trkpt lat="47.0114" lon="-0.25623">
        <ele>42.491</ele>
        <time>2016-06-04T10:40:18Z</time>
      </trkpt>
      <trkpt lat="47.01182" lon="-0.25715">
        <ele>40.817</ele>
        <time>2016-06-04T10:39:58Z</time>
      </trkpt>
      <trkpt lat="47.01235" lon="-0.25766">
        <ele>43.348</ele>
        <time>2016-06-04T10:39:38Z</time>
      </trkpt>
      <trkpt lat="47.01302" lon="-0.25781">
        <ele>44.912</ele>
        <time>2016-06-04T10:39:18Z</time>
      </trkpt>
      <trkpt lat="47.01412" lon="-0.25747">
        <ele>45.07</ele>
        <time>2016-06-04T10:38:58Z</time>
      </trkpt>
      <trkpt lat="47.015" lon="-0.25693">
        <ele>45.074</ele>
        <time>2016-06-04T10:38:38Z</time>
      </trkpt>
      <trkpt lat="47.0158" lon="-0.25625">
        <ele>44.491</ele>
        <time>2016-06-04T10:38:18Z</time>
      </trkpt>
      <trkpt lat="47.01644" lon="-0.25601">
        <ele>45.526</ele>
        <time>2016-06-04T10:37:58Z</time>
      </trkpt>
      <trkpt lat="47.01772" lon="-0.25605">
        <ele>45.82</ele>
        <time>2016-06-04T10:37:38Z</time>
      </trkpt>
      <trkpt lat="47.01798" lon="-0.25595">
        <ele>45.608</ele>
        <time>2016-06-04T10:37:18Z</time>
      </trkpt>
      <trkpt lat="47.01895" lon="-0.25554">
        <ele>43.322</ele>
        <time>2016-06-04T10:36:58Z</time>
      </trkpt>
      <trkpt lat="47.0196" lon="-0.25492">
        <ele>44.402</ele>
        <time>2016-06-04T10:36:38Z</time>
      </trkpt>
      <trkpt lat="47.02006" lon="-0.25408">
        <ele>45.349</ele>
        <time>2016-06-04T10:36:18Z</time>
      </trkpt>
      <trkpt lat="47.02053" lon="-0.25271">
        <ele>46.645</ele>
        <time>2016-06-04T10:35:58Z</time>
      </trkpt>
      <trkpt lat="47.0214" lon="-0.25095">
        <ele>43.476</ele>
        <time>2016-06-04T10:35:38Z</time>
      </trkpt>
      <trkpt lat="47.02212" lon="-0.24904">
        <ele>42.02</ele>
        <time>2016-06-04T10:35:18Z</time>
      </trkpt>
      <trkpt lat="47.02263" lon="-0.24734">
        <ele>43.548</ele>
        <time>2016-06-04T10:34:58Z</time>
      </trkpt>
      <trkpt lat="47.02304" lon="-0.2464">
        <ele>42.172</ele>
        <time>2016-06-04T10:34:38Z</time>
      </trkpt>
      <trkpt lat="47.02312" lon="-0.2453">
        <ele>44.099</ele>
        <time>2016-06-04T10:34:18Z</time>
      </trkpt>
      <trkpt lat="47.0239" lon="-0.24468">
        <ele>44.074</ele>
        <time>2016-06-04T10:33:58Z</time>
      </trkpt>
      <trkpt lat="47.02486" lon="-0.24331">
        <ele>43.028</ele>
        <time>2016-06-04T10:33:38Z</time>
      </trkpt>
      <trkpt lat="47.02547" lon="-0.24264">
        <ele>43.708</ele>
        <time>2016-06-04T10:33:18Z</time>
      </trkpt>
      <trkpt lat="47.02588" lon="-0.24157">
        <ele>43.817</ele>
        <time>2016-06-04T10:32:58Z</time>
      </trkpt>
      <trkpt lat="47.02636" lon="-0.24067">
        <ele>44.589</ele>
        <time>2016-06-04T10:32:38Z</time>
      </trkpt>
      <trkpt lat="47.02878" lon="-0.2367">
        <ele>44.628</ele>
        <time>2016-06-04T10:32:18Z</time>
      </trkpt>
      <trkpt lat="47.02949" lon="-0.23582">
        <ele>44.932</ele>
        <time>2016-06-04T10:31:58Z</time>
      </trkpt>
      <trkpt lat="47.02986" lon="-0.23543">
        <ele>43.343</ele>
        <time>2016-06-04T10:31:38Z</time>
      </trkpt>
      <trkpt lat="47.03008" lon="-0.23509">
        <ele>42.577</ele>
        <time>2016-06-04T10:31:18Z</time>
      </trkpt>
      <trkpt lat="47.03074" lon="-0.2344">
        <ele>42.455</ele>
        <time>2016-06-04T10:30:58Z</time>
      </trkpt>
      <trkpt lat="47.03113" lon="-0.23423">
        <ele>42.979</ele>
        <time>2016-06-04T10:30:38Z</time>
      </trkpt>
      <trkpt lat="47.03215" lon="-0.2343">
        <ele>41.876</ele>
        <time>2016-06-04T10:30:18Z</time>
      </trkpt>
      <trkpt lat="47.03337" lon="-0.23389">
        <ele>42.171</ele>
        <time>2016-06-04T10:29:58Z</time>
      </trkpt>
      <trkpt lat="47.03463" lon="-0.23369">
        <ele>43.165</ele>
        <time>2016-06-04T10:29:38Z</time>
      </trkpt>
      <trkpt lat="47.03572" lon="-0.23166">
        <ele>42.408</ele>
        <time>2016-06-04T10:29:18Z</time>
      </trkpt>
      <trkpt lat="47.03638" lon="-0.23097">
        <ele>43.523</ele>
        <time>2016-06-04T10:28:58Z</time>
      </trkpt>
      <trkpt lat="47.03783" lon="-0.23078">
        <ele>40.849</ele>
        <time>2016-06-04T10:28:38Z</time>
      </trkpt>
      <trkpt lat="47.03795" lon="-0.23061">
        <ele>40.495</ele>
        <time>2016-06-04T10:28:18Z</time>
      </trkpt>
      <trkpt lat="47.03783" lon="-0.22936">
        <ele>42.936</ele>
        <time>2016-06-04T10:27:58Z</time>
      </trkpt>
      <trkpt lat="47.03762" lon="-0.22831">
        <ele>43.497</ele>
        <time>2016-06-04T10:27:38Z</time>
      </trkpt>
      <trkpt lat="47.03768" lon="-0.22792">
        <ele>43.051</ele>
        <time>2016-06-04T10:27:18Z</time>
      </trkpt>
      <trkpt lat="47.03814" lon="-0.22752">
        <ele>42.019</ele>
        <time>2016-06-04T10:26:58Z</time>
      </trkpt>
      <trkpt lat="47.03814" lon="-0.22694">
        <ele>42.753</ele>
        <time>2016-06-04T10:26:38Z</time>
      </trkpt>
      <trkpt lat="47.03822" lon="-0.22661">
        <ele>43.58</ele>
        <time>2016-06-04T10:26:18Z</time>
      </trkpt>
      <trkpt lat="47.03809" lon="-0.22582">
        <ele>46.225</ele>
        <time>2016-06-04T10:25:58Z</time>
      </trkpt>
      <trkpt lat="47.03907" lon="-0.22548">
        <ele>50.549</ele>
        <time>2016-06-04T10:25:38Z</time>
      </trkpt>
      <trkpt lat="47.04004" lon="-0.22552">
        <ele>44.308</ele>
        <time>2016-06-04T10:25:18Z</time>
      </trkpt>
      <trkpt lat="47.04093" lon="-0.22533">
        <ele>47.307</ele>
        <time>2016-06-04T10:24:58Z</time>
      </trkpt>
      <trkpt lat="47.04119" lon="-0.22404">
        <ele>50.861</ele>
        <time>2016-06-04T10:24:38Z</time>
      </trkpt>
      <trkpt lat="47.04198" lon="-0.22363">
        <ele>49.731</ele>
        <time>2016-06-04T10:24:18Z</time>
      </trkpt>
      <trkpt lat="47.04227" lon="-0.22374">
        <ele>47.656</ele>
        <time>2016-06-04T10:23:58Z</time>
      </trkpt>
      <trkpt lat="47.04286" lon="-0.22447">
        <ele>41.567</ele>
        <time>2016-06-04T10:23:38Z</time>
      </trkpt>
      <trkpt lat="47.04467" lon="-0.22292">
        <ele>48.021</ele>
        <time>2016-06-04T10:23:18Z</time>
      </trkpt>
      <trkpt lat="47.04542" lon="-0.22262">
        <ele>42.869</ele>
        <time>2016-06-04T10:22:58Z</time>
      </trkpt>
      <trkpt lat="47.04564" lon="-0.22232">
        <ele>43.853</ele>
        <time>2016-06-04T10:22:38Z</time>
      </trkpt>
      <trkpt lat="47.04602" lon="-0.22217">
        <ele>43.21</ele>
        <time>2016-06-04T10:22:18Z</time>
      </trkpt>
      <trkpt lat="47.04719" lon="-0.22131">
        <ele>43.935</ele>
        <time>2016-06-04T10:21:58Z</time>
      </trkpt>
      <trkpt lat="47.0477" lon="-0.22078">
        <ele>41.569</ele>
        <time>2016-06-04T10:21:38Z</time>
      </trkpt>
      <trkpt lat="47.04752" lon="-0.22033">
        <ele>45.508</ele>
        <time>2016-06-04T10:21:18Z</time>
      </trkpt>
      <trkpt lat="47.04679" lon="-0.21938">
        <ele>53.407</ele>
        <time>2016-06-04T10:20:58Z</time>
      </trkpt>
      <trkpt lat="47.04662" lon="-0.21882">
        <ele>52.261</ele>
        <time>2016-06-04T10:20:38Z</time>
      </trkpt>
      <trkpt lat="47.04574" lon="-0.21788">
        <ele>53.031</ele>
        <time>2016-06-04T10:20:18Z</time>
      </trkpt>
      <trkpt lat="47.04553" lon="-0.21737">
        <ele>54.094</ele>
        <time>2016-06-04T10:19:58Z</time>
      </trkpt>
      <trkpt lat="47.0462" lon="-0.2171">
        <ele>51.525</ele>
        <time>2016-06-04T10:19:38Z</time>
      </trkpt>
      <trkpt lat="47.04759" lon="-0.21718">
        <ele>50.239</ele>
        <time>2016-06-04T10:19:18Z</time>
      </trkpt>
      <trkpt lat="47.04833" lon="-0.21788">
        <ele>48.647</ele>
        <time>2016-06-04T10:18:58Z</time>
      </trkpt>
      <trkpt lat="47.04874" lon="-0.21797">
        <ele>44.671</ele>
        <time>2016-06-04T10:18:38Z</time>
      </trkpt>
      <trkpt lat="47.05058" lon="-0.21756">
        <ele>42.848</ele>
        <time>2016-06-04T10:18:18Z</time>
      </trkpt>
      <trkpt lat="47.05077" lon="-0.21732">
        <ele>43.693</ele>
        <time>2016-06-04T10:17:58Z</time>
      </trkpt>
      <trkpt lat="47.05154" lon="-0.21852">
        <ele>40.957</ele>
        <time>2016-06-04T10:17:38Z</time>
      </trkpt>
      <trkpt lat="47.05396" lon="-0.22013">
        <ele>39.508</ele>
        <time>2016-06-04T10:17:18Z</time>
      </trkpt>
      <trkpt lat="47.05545" lon="-0.22069">
        <ele>37.217</ele>
        <time>2016-06-04T10:16:58Z</time>
      </trkpt>
      <trkpt lat="47.05676" lon="-0.22011">
        <ele>38.798</ele>
        <time>2016-06-04T10:16:38Z</time>
      </trkpt>
      <trkpt lat="47.05704" lon="-0.22024">
        <ele>37.718</ele>
        <time>2016-06-04T10:16:18Z</time>
      </trkpt>
      <trkpt lat="47.05934" lon="-0.22026">
        <ele>39.257</ele>
        <time>2016-06-04T10:15:58Z</time>
      </trkpt>
      <trkpt lat="47.06186" lon="-0.2196">
        <ele>38.138</ele>
        <time>2016-06-04T10:15:38Z</time>
      </trkpt>
      <trkpt lat="47.06262" lon="-0.21962">
        <ele>39.022</ele>
        <time>2016-06-04T10:15:18Z</time>
      </trkpt>
      <trkpt lat="47.06363" lon="-0.22005">
        <ele>38.06</ele>
        <time>2016-06-04T10:14:58Z</time>
      </trkpt>
      <trkpt lat="47.06435" lon="-0.21983">
        <ele>38.344</ele>
        <time>2016-06-04T10:14:38Z</time>
      </trkpt>
      <trkpt lat="47.06493" lon="-0.21981">
        <ele>38.021</ele>
        <time>2016-06-04T10:14:18Z</time>
      </trkpt>
      <trkpt lat="47.06528" lon="-0.2196">
        <ele>38.566</ele>
        <time>2016-06-04T10:13:58Z</time>
      </trkpt>
      <trkpt lat="47.06591" lon="-0.21934">
        <ele>39.81</ele>
        <time>2016-06-04T10:13:38Z</time>
      </trkpt>
      <trkpt lat="47.06602" lon="-0.2181">
        <ele>40.008</ele>
        <time>2016-06-04T10:13:18Z</time>
      </trkpt>
      <trkpt lat="47.06699" lon="-0.2176">
        <ele>36.91</ele>
        <time>2016-06-04T10:12:58Z</time>
      </trkpt>
      <trkpt lat="47.06732" lon="-0.21719">
        <ele>36.364</ele>
        <time>2016-06-04T10:12:38Z</time>
      </trkpt>
      <trkpt lat="47.06796" lon="-0.2164">
        <ele>38.043</ele>
        <time>2016-06-04T10:12:18Z</time>
      </trkpt>
      <trkpt lat="47.06846" lon="-0.21576">
        <ele>37.686</ele>
        <time>2016-06-04T10:11:58Z</time>
      </trkpt>
      <trkpt lat="47.06938" lon="-0.21531">
        <ele>37.717</ele>
        <time>2016-06-04T10:11:38Z</time>
      </trkpt>
      <trkpt lat="47.07002" lon="-0.21479">
        <ele>42.191</ele>
        <time>2016-06-04T10:11:18Z</time>
      </trkpt>
      <trkpt lat="47.07131" lon="-0.21449">
        <ele>41.069</ele>
        <time>2016-06-04T10:10:58Z</time>
      </trkpt>
      <trkpt lat="47.07332" lon="-0.21348">
        <ele>38.013</ele>
        <time>2016-06-04T10:09:58Z</time>
      </trkpt>
      <trkpt lat="47.07568" lon="-0.21065">
        <ele>36.94</ele>
        <time>2016-06-04T10:09:38Z</time>
      </trkpt>
      <trkpt lat="47.07619" lon="-0.20966">
        <ele>38.135</ele>
        <time>2016-06-04T10:09:18Z</time>
      </trkpt>
      <trkpt lat="47.07644" lon="-0.209">
        <ele>39.269</ele>
        <time>2016-06-04T10:08:58Z</time>
      </trkpt>
      <trkpt lat="47.07651" lon="-0.20848">
        <ele>40.008</ele>
        <time>2016-06-04T10:08:38Z</time>
      </trkpt>
      <trkpt lat="47.07674" lon="-0.20687">
        <ele>38.115</ele>
        <time>2016-06-04T10:08:18Z</time>
      </trkpt>
      <trkpt lat="47.07708" lon="-0.20608">
        <ele>39.423</ele>
        <time>2016-06-04T10:07:58Z</time>
      </trkpt>
      <trkpt lat="47.07796" lon="-0.20466">
        <ele>39.033</ele>
        <time>2016-06-04T10:07:38Z</time>
      </trkpt>
      <trkpt lat="47.07908" lon="-0.20314">
        <ele>38.278</ele>
        <time>2016-06-04T10:07:18Z</time>
      </trkpt>
      <trkpt lat="47.07927" lon="-0.20271">
        <ele>38.849</ele>
        <time>2016-06-04T10:06:58Z</time>
      </trkpt>
      <trkpt lat="47.08043" lon="-0.20117">
        <ele>39.573</ele>
        <time>2016-06-04T10:06:38Z</time>
      </trkpt>
      <trkpt lat="47.08151" lon="-0.20048">
        <ele>39.921</ele>
        <time>2016-06-04T10:06:18Z</time>
      </trkpt>
      <trkpt lat="47.08167" lon="-0.19919">
        <ele>37.175</ele>
        <time>2016-06-04T10:05:58Z</time>
      </trkpt>
      <trkpt lat="47.08588" lon="-0.19695">
        <ele>36.852</ele>
        <time>2016-06-04T10:05:38Z</time>
      </trkpt>
      <trkpt lat="47.08691" lon="-0.19653">
        <ele>35.997</ele>
        <time>2016-06-04T10:05:18Z</time>
      </trkpt>
      <trkpt lat="47.08715" lon="-0.19775">
        <ele>35.041</ele>
        <time>2016-06-04T10:04:58Z</time>
      </trkpt>
      <trkpt lat="47.08756" lon="-0.1982">
        <ele>35.708</ele>
        <time>2016-06-04T10:04:38Z</time>
      </trkpt>
      <trkpt lat="47.08792" lon="-0.19893">
        <ele>36.72</ele>
        <time>2016-06-04T10:04:18Z</time>
      </trkpt>
      <trkpt lat="47.08814" lon="-0.20016">
        <ele>36.3</ele>
        <time>2016-06-04T10:03:58Z</time>
      </trkpt>
      <trkpt lat="47.08834" lon="-0.20054">
        <ele>35.157</ele>
        <time>2016-06-04T10:03:38Z</time>
      </trkpt>
      <trkpt lat="47.08931" lon="-0.20127">
        <ele>39.052</ele>
        <time>2016-06-04T10:03:18Z</time>
      </trkpt>
      <trkpt lat="47.08957" lon="-0.20134">
        <ele>39.043</ele>
        <time>2016-06-04T10:02:58Z</time>
      </trkpt>
      <trkpt lat="47.09099" lon="-0.20106">
        <ele>41.147</ele>
        <time>2016-06-04T10:02:38Z</time>
      </trkpt>
      <trkpt lat="47.09178" lon="-0.20076">
        <ele>38.355</ele>
        <time>2016-06-04T10:02:18Z</time>
      </trkpt>
      <trkpt lat="47.09214" lon="-0.20067">
        <ele>38.299</ele>
        <time>2016-06-04T10:01:58Z</time>
      </trkpt>
      <trkpt lat="47.09403" lon="-0.19943">
        <ele>35.066</ele>
        <time>2016-06-04T10:01:38Z</time>
      </trkpt>
      <trkpt lat="47.0948" lon="-0.19829">
        <ele>35.171</ele>
        <time>2016-06-04T10:01:18Z</time>
      </trkpt>
      <trkpt lat="47.09523" lon="-0.1978">
        <ele>37.085</ele>
        <time>2016-06-04T10:00:58Z</time>
      </trkpt>
      <trkpt lat="47.09541" lon="-0.19737">
        <ele>35.308</ele>
        <time>2016-06-04T10:00:38Z</time>
      </trkpt>
      <trkpt lat="47.09603" lon="-0.1964">
        <ele>37.023</ele>
        <time>2016-06-04T10:00:18Z</time>
      </trkpt>
      <trkpt lat="47.09581" lon="-0.19587">
        <ele>35.949</ele>
        <time>2016-06-04T09:59:58Z</time>
      </trkpt>
      <trkpt lat="47.0972" lon="-0.19359">
        <ele>38.895</ele>
        <time>2016-06-04T09:59:38Z</time>
      </trkpt>
      <trkpt lat="47.09676" lon="-0.19314">
        <ele>36.155</ele>
        <time>2016-06-04T09:59:18Z</time>
      </trkpt>
      <trkpt lat="47.09638" lon="-0.19241">
        <ele>37.016</ele>
        <time>2016-06-04T09:58:58Z</time>
      </trkpt>
      <trkpt lat="47.09582" lon="-0.19095">
        <ele>35.58</ele>
        <time>2016-06-04T09:58:38Z</time>
      </trkpt>
      <trkpt lat="47.09634" lon="-0.19048">
        <ele>35.948</ele>
        <time>2016-06-04T09:58:18Z</time>
      </trkpt>
      <trkpt lat="47.09699" lon="-0.19014">
        <ele>35.052</ele>
        <time>2016-06-04T09:57:58Z</time>
      </trkpt>
      <trkpt lat="47.09772" lon="-0.18981">
        <ele>35.099</ele>
        <time>2016-06-04T09:56:58Z</time>
      </trkpt>
      <trkpt lat="47.09797" lon="-0.18956">
        <ele>34.134</ele>
        <time>2016-06-04T09:56:38Z</time>
      </trkpt>
      <trkpt lat="47.09984" lon="-0.18799">
        <ele>34.838</ele>
        <time>2016-06-04T09:56:18Z</time>
      </trkpt>
      <trkpt lat="47.1005" lon="-0.18702">
        <ele>39.808</ele>
        <time>2016-06-04T09:55:58Z</time>
      </trkpt>
      <trkpt lat="47.10085" lon="-0.18619">
        <ele>40.614</ele>
        <time>2016-06-04T09:55:38Z</time>
      </trkpt>
      <trkpt lat="47.10136" lon="-0.18593">
        <ele>37.204</ele>
        <time>2016-06-04T09:55:18Z</time>
      </trkpt>
      <trkpt lat="47.1018" lon="-0.18576">
        <ele>36.024</ele>
        <time>2016-06-04T09:54:58Z</time>
      </trkpt>
      <trkpt lat="47.10276" lon="-0.18574">
        <ele>37.372</ele>
        <time>2016-06-04T09:54:38Z</time>
      </trkpt>
      <trkpt lat="47.10352" lon="-0.1852">
        <ele>38.633</ele>
        <time>2016-06-04T09:54:18Z</time>
      </trkpt>
      <trkpt lat="47.10456" lon="-0.18391">
        <ele>39.997</ele>
        <time>2016-06-04T09:53:58Z</time>
      </trkpt>
      <trkpt lat="47.10538" lon="-0.18327">
        <ele>39.815</ele>
        <time>2016-06-04T09:53:38Z</time>
      </trkpt>
      <trkpt lat="47.10586" lon="-0.18303">
        <ele>42.179</ele>
        <time>2016-06-04T09:53:18Z</time>
      </trkpt>
      <trkpt lat="47.10733" lon="-0.18273">
        <ele>39.096</ele>
        <time>2016-06-04T09:52:58Z</time>
      </trkpt>
      <trkpt lat="47.10801" lon="-0.18265">
        <ele>38.661</ele>
        <time>2016-06-04T09:52:38Z</time>
      </trkpt>
      <trkpt lat="47.10928" lon="-0.18185">
        <ele>36.775</ele>
        <time>2016-06-04T09:52:18Z</time>
      </trkpt>
      <trkpt lat="47.11207" lon="-0.17894">
        <ele>35.808</ele>
        <time>2016-06-04T09:51:58Z</time>
      </trkpt>
      <trkpt lat="47.11239" lon="-0.17844">
        <ele>37.626</ele>
        <time>2016-06-04T09:51:38Z</time>
      </trkpt>
      <trkpt lat="47.11296" lon="-0.17737">
        <ele>38.415</ele>
        <time>2016-06-04T09:51:18Z</time>
      </trkpt>
      <trkpt lat="47.11426" lon="-0.17539">
        <ele>36.698</ele>
        <time>2016-06-04T09:50:58Z</time>
      </trkpt>
      <trkpt lat="47.11535" lon="-0.17398">
        <ele>34.76</ele>
        <time>2016-06-04T09:50:38Z</time>
      </trkpt>
      <trkpt lat="47.11643" lon="-0.17162">
        <ele>33.291</ele>
        <time>2016-06-04T09:50:18Z</time>
      </trkpt>
      <trkpt lat="47.11667" lon="-0.17076">
        <ele>33.055</ele>
        <time>2016-06-04T09:49:58Z</time>
      </trkpt>
      <trkpt lat="47.11712" lon="-0.16973">
        <ele>32.083</ele>
        <time>2016-06-04T09:49:38Z</time>
      </trkpt>
      <trkpt lat="47.1176" lon="-0.16851">
        <ele>34.847</ele>
        <time>2016-06-04T09:49:18Z</time>
      </trkpt>
      <trkpt lat="47.11785" lon="-0.16831">
        <ele>34.964</ele>
        <time>2016-06-04T09:48:58Z</time>
      </trkpt>
      <trkpt lat="47.12109" lon="-0.16469">
        <ele>34.169</ele>
        <time>2016-06-04T09:48:38Z</time>
      </trkpt>
      <trkpt lat="47.1217" lon="-0.16413">
        <ele>34.733</ele>
        <time>2016-06-04T09:48:18Z</time>
      </trkpt>
      <trkpt lat="47.12255" lon="-0.16424">
        <ele>32.808</ele>
        <time>2016-06-04T09:47:58Z</time>
      </trkpt>
      <trkpt lat="47.12363" lon="-0.16398">
        <ele>31.125</ele>
        <time>2016-06-04T09:47:38Z</time>
      </trkpt>
      <trkpt lat="47.12864" lon="-0.16291">
        <ele>33.305</ele>
        <time>2016-06-04T09:47:18Z</time>
      </trkpt>
      <trkpt lat="47.12875" lon="-0.16228">
        <ele>33.179</ele>
        <time>2016-06-04T09:46:58Z</time>
      </trkpt>
      <trkpt lat="47.12915" lon="-0.16188">
        <ele>33.711</ele>
        <time>2016-06-04T09:46:38Z</time>
      </trkpt>
      <trkpt lat="47.12947" lon="-0.1611">
        <ele>35.172</ele>
        <time>2016-06-04T09:46:18Z</time>
      </trkpt>
      <trkpt lat="47.13087" lon="-0.16044">
        <ele>36.456</ele>
        <time>2016-06-04T09:45:58Z</time>
      </trkpt>
      <trkpt lat="47.13128" lon="-0.15999">
        <ele>36.754</ele>
        <time>2016-06-04T09:45:38Z</time>
      </trkpt>
      <trkpt lat="47.13265" lon="-0.15789">
        <ele>34.518</ele>
        <time>2016-06-04T09:45:18Z</time>
      </trkpt>
      <trkpt lat="47.13286" lon="-0.1575">
        <ele>34.075</ele>
        <time>2016-06-04T09:44:58Z</time>
      </trkpt>
      <trkpt lat="47.13324" lon="-0.15621">
        <ele>38.68</ele>
        <time>2016-06-04T09:44:38Z</time>
      </trkpt>
      <trkpt lat="47.13341" lon="-0.15595">
        <ele>38.064</ele>
        <time>2016-06-04T09:44:18Z</time>
      </trkpt>
      <trkpt lat="47.13359" lon="-0.15595">
        <ele>35.408</ele>
        <time>2016-06-04T09:43:58Z</time>
      </trkpt>
      <trkpt lat="47.1341" lon="-0.15484">
        <ele>37.117</ele>
        <time>2016-06-04T09:43:38Z</time>
      </trkpt>
      <trkpt lat="47.13407" lon="-0.15428">
        <ele>41.507</ele>
        <time>2016-06-04T09:43:18Z</time>
      </trkpt>
      <trkpt lat="47.13426" lon="-0.15381">
        <ele>40.084</ele>
        <time>2016-06-04T09:42:58Z</time>
      </trkpt>
      <trkpt lat="47.13465" lon="-0.15365">
        <ele>37.221</ele>
        <time>2016-06-04T09:42:38Z</time>
      </trkpt>
      <trkpt lat="47.13509" lon="-0.15398">
        <ele>34.532</ele>
        <time>2016-06-04T09:42:18Z</time>
      </trkpt>
      <trkpt lat="47.13516" lon="-0.15385">
        <ele>34.476</ele>
        <time>2016-06-04T09:41:58Z</time>
      </trkpt>
      <trkpt lat="47.13484" lon="-0.15325">
        <ele>37.014</ele>
        <time>2016-06-04T09:41:38Z</time>
      </trkpt>
      <trkpt lat="47.13487" lon="-0.15278">
        <ele>37.478</ele>
        <time>2016-06-04T09:41:18Z</time>
      </trkpt>
      <trkpt lat="47.13524" lon="-0.15203">
        <ele>38.835</ele>
        <time>2016-06-04T09:40:58Z</time>
      </trkpt>
      <trkpt lat="47.13543" lon="-0.15136">
        <ele>38.97</ele>
        <time>2016-06-04T09:40:38Z</time>
      </trkpt>
      <trkpt lat="47.13534" lon="-0.15061">
        <ele>39.064</ele>
        <time>2016-06-04T09:40:18Z</time>
      </trkpt>
      <trkpt lat="47.13436" lon="-0.1498">
        <ele>49.308</ele>
        <time>2016-06-04T09:39:58Z</time>
      </trkpt>
      <trkpt lat="47.1388" lon="-0.14231">
        <ele>42.517</ele>
        <time>2016-06-04T09:39:38Z</time>
      </trkpt>
      <trkpt lat="47.13961" lon="-0.14385">
        <ele>38.007</ele>
        <time>2016-06-04T09:39:18Z</time>
      </trkpt>
      <trkpt lat="47.13986" lon="-0.14402">
        <ele>37.584</ele>
        <time>2016-06-04T09:38:58Z</time>
      </trkpt>
      <trkpt lat="47.14002" lon="-0.14437">
        <ele>36.046</ele>
        <time>2016-06-04T09:38:38Z</time>
      </trkpt>
      <trkpt lat="47.14116" lon="-0.14332">
        <ele>36.497</ele>
        <time>2016-06-04T09:38:18Z</time>
      </trkpt>
      <trkpt lat="47.14135" lon="-0.14323">
        <ele>34.581</ele>
        <time>2016-06-04T09:37:58Z</time>
      </trkpt>
      <trkpt lat="47.14313" lon="-0.14156">
        <ele>32.539</ele>
        <time>2016-06-04T09:37:38Z</time>
      </trkpt>
      <trkpt lat="47.14382" lon="-0.14072">
        <ele>30.773</ele>
        <time>2016-06-04T09:37:18Z</time>
      </trkpt>
      <trkpt lat="47.14447" lon="-0.13997">
        <ele>36.08</ele>
        <time>2016-06-04T09:36:58Z</time>
      </trkpt>
      <trkpt lat="47.14519" lon="-0.13894">
        <ele>33.125</ele>
        <time>2016-06-04T09:36:38Z</time>
      </trkpt>
      <trkpt lat="47.14595" lon="-0.13806">
        <ele>32.159</ele>
        <time>2016-06-04T09:36:18Z</time>
      </trkpt>
      <trkpt lat="47.14684" lon="-0.13694">
        <ele>31.108</ele>
        <time>2016-06-04T09:35:58Z</time>
      </trkpt>
      <trkpt lat="47.14783" lon="-0.13538">
        <ele>30.21</ele>
        <time>2016-06-04T09:35:38Z</time>
      </trkpt>
      <trkpt lat="47.14825" lon="-0.1349">
        <ele>32.055</ele>
        <time>2016-06-04T09:35:18Z</time>
      </trkpt>
      <trkpt lat="47.1502" lon="-0.13265">
        <ele>30.534</ele>
        <time>2016-06-04T09:34:38Z</time>
      </trkpt>
      <trkpt lat="47.15031" lon="-0.13231">
        <ele>29.312</ele>
        <time>2016-06-04T09:34:18Z</time>
      </trkpt>
      <trkpt lat="47.1509" lon="-0.13231">
        <ele>31.573</ele>
        <time>2016-06-04T09:33:58Z</time>
      </trkpt>
      <trkpt lat="47.15338" lon="-0.12608">
        <ele>28.097</ele>
        <time>2016-06-04T09:33:38Z</time>
      </trkpt>
      <trkpt lat="47.15231" lon="-0.12347">
        <ele>34.585</ele>
        <time>2016-06-04T09:33:18Z</time>
      </trkpt>
      <trkpt lat="47.15309" lon="-0.12119">
        <ele>39.699</ele>
        <time>2016-06-04T09:32:58Z</time>
      </trkpt>
      <trkpt lat="47.15362" lon="-0.12006">
        <ele>41.216</ele>
        <time>2016-06-04T09:32:38Z</time>
      </trkpt>
      <trkpt lat="47.15564" lon="-0.11533">
        <ele>35.461</ele>
        <time>2016-06-04T09:32:18Z</time>
      </trkpt>
      <trkpt lat="47.15647" lon="-0.11439">
        <ele>36.415</ele>
        <time>2016-06-04T09:31:58Z</time>
      </trkpt>
      <trkpt lat="47.1598" lon="-0.11272">
        <ele>33.308</ele>
        <time>2016-06-04T09:31:38Z</time>
      </trkpt>
      <trkpt lat="47.16063" lon="-0.1122">
        <ele>34.819</ele>
        <time>2016-06-04T09:31:18Z</time>
      </trkpt>
      <trkpt lat="47.16104" lon="-0.11184">
        <ele>34.681</ele>
        <time>2016-06-04T09:30:58Z</time>
      </trkpt>
      <trkpt lat="47.16145" lon="-0.11139">
        <ele>35.091</ele>
        <time>2016-06-04T09:30:38Z</time>
      </trkpt>
      <trkpt lat="47.15996" lon="-0.11036">
        <ele>36.198</ele>
        <time>2016-06-04T09:30:18Z</time>
      </trkpt>
      <trkpt lat="47.16178" lon="-0.10778">
        <ele>35.029</ele>
        <time>2016-06-04T09:29:58Z</time>
      </trkpt>
      <trkpt lat="47.16404" lon="-0.10585">
        <ele>32.463</ele>
        <time>2016-06-04T09:29:38Z</time>
      </trkpt>
      <trkpt lat="47.16512" lon="-0.10473">
        <ele>31.031</ele>
        <time>2016-06-04T09:29:18Z</time>
      </trkpt>
      <trkpt lat="47.16601" lon="-0.1039">
        <ele>31.335</ele>
        <time>2016-06-04T09:28:58Z</time>
      </trkpt>
      <trkpt lat="47.16441" lon="-0.09722">
        <ele>34.052</ele>
        <time>2016-06-04T09:28:38Z</time>
      </trkpt>
      <trkpt lat="47.16587" lon="-0.09486">
        <ele>32.977</ele>
        <time>2016-06-04T09:28:18Z</time>
      </trkpt>
      <trkpt lat="47.16527" lon="-0.09486">
        <ele>33.081</ele>
        <time>2016-06-04T09:27:58Z</time>
      </trkpt>
      <trkpt lat="47.16533" lon="-0.08886">
        <ele>33.408</ele>
        <time>2016-06-04T09:27:38Z</time>
      </trkpt>
      <trkpt lat="47.16537" lon="-0.08841">
        <ele>33.817</ele>
        <time>2016-06-04T09:27:18Z</time>
      </trkpt>
      <trkpt lat="47.16591" lon="-0.08873">
        <ele>33.307</ele>
        <time>2016-06-04T09:26:58Z</time>
      </trkpt>
      <trkpt lat="47.16689" lon="-0.08334">
        <ele>30.655</ele>
        <time>2016-06-04T09:26:38Z</time>
      </trkpt>
      <trkpt lat="47.16719" lon="-0.08214">
        <ele>29.269</ele>
        <time>2016-06-04T09:26:18Z</time>
      </trkpt>
      <trkpt lat="47.16633" lon="-0.08128">
        <ele>32.52</ele>
        <time>2016-06-04T09:25:58Z</time>
      </trkpt>
      <trkpt lat="47.16479" lon="-0.07986">
        <ele>29.464</ele>
        <time>2016-06-04T09:25:38Z</time>
      </trkpt>
      <trkpt lat="47.16356" lon="-0.07849">
        <ele>35.472</ele>
        <time>2016-06-04T09:25:18Z</time>
      </trkpt>
      <trkpt lat="47.1627" lon="-0.07783">
        <ele>36.726</ele>
        <time>2016-06-04T09:24:58Z</time>
      </trkpt>
      <trkpt lat="47.16187" lon="-0.0769">
        <ele>33.923</ele>
        <time>2016-06-04T09:24:38Z</time>
      </trkpt>
      <trkpt lat="47.16159" lon="-0.07637">
        <ele>30.748</ele>
        <time>2016-06-04T09:24:18Z</time>
      </trkpt>
      <trkpt lat="47.16089" lon="-0.07596">
        <ele>37.572</ele>
        <time>2016-06-04T09:23:58Z</time>
      </trkpt>
      <trkpt lat="47.16053" lon="-0.07557">
        <ele>36.308</ele>
        <time>2016-06-04T09:23:38Z</time>
      </trkpt>
      <trkpt lat="47.15971" lon="-0.07424">
        <ele>33.911</ele>
        <time>2016-06-04T09:23:18Z</time>
      </trkpt>
      <trkpt lat="47.15883" lon="-0.07308">
        <ele>33.783</ele>
        <time>2016-06-04T09:22:58Z</time>
      </trkpt>
      <trkpt lat="47.15997" lon="-0.07152">
        <ele>27.962</ele>
        <time>2016-06-04T09:22:38Z</time>
      </trkpt>
      <trkpt lat="47.16018" lon="-0.07141">
        <ele>26.499</ele>
        <time>2016-06-04T09:22:18Z</time>
      </trkpt>
      <trkpt lat="47.16058" lon="-0.07193">
        <ele>27.97</ele>
        <time>2016-06-04T09:21:58Z</time>
      </trkpt>
      <trkpt lat="47.16076" lon="-0.07184">
        <ele>27.534</ele>
        <time>2016-06-04T09:21:38Z</time>
      </trkpt>
      <trkpt lat="47.16388" lon="-0.06514">
        <ele>29.092</ele>
        <time>2016-06-04T09:21:18Z</time>
      </trkpt>
      <trkpt lat="47.16391" lon="-0.06474">
        <ele>28.176</ele>
        <time>2016-06-04T09:20:58Z</time>
      </trkpt>
      <trkpt lat="47.16331" lon="-0.06414">
        <ele>31.213</ele>
        <time>2016-06-04T09:20:38Z</time>
      </trkpt>
      <trkpt lat="47.16323" lon="-0.06384">
        <ele>32.078</ele>
        <time>2016-06-04T09:20:18Z</time>
      </trkpt>
      <trkpt lat="47.16372" lon="-0.06137">
        <ele>35.052</ele>
        <time>2016-06-04T09:19:58Z</time>
      </trkpt>
      <trkpt lat="47.16404" lon="-0.06075">
        <ele>36.708</ele>
        <time>2016-06-04T09:19:38Z</time>
      </trkpt>
      <trkpt lat="47.16499" lon="-0.06206">
        <ele>35.621</ele>
        <time>2016-06-04T09:19:18Z</time>
      </trkpt>
      <trkpt lat="47.16522" lon="-0.06278">
        <ele>33.829</ele>
        <time>2016-06-04T09:18:58Z</time>
      </trkpt>
      <trkpt lat="47.16587" lon="-0.06417">
        <ele>33.166</ele>
        <time>2016-06-04T09:18:38Z</time>
      </trkpt>
      <trkpt lat="47.16658" lon="-0.06478">
        <ele>34.512</ele>
        <time>2016-06-04T09:18:18Z</time>
      </trkpt>
      <trkpt lat="47.16733" lon="-0.06575">
        <ele>33.073</ele>
        <time>2016-06-04T09:17:58Z</time>
      </trkpt>
      <trkpt lat="47.16839" lon="-0.06763">
        <ele>36.547</ele>
        <time>2016-06-04T09:17:38Z</time>
      </trkpt>
      <trkpt lat="47.1702" lon="-0.07002">
        <ele>39.015</ele>
        <time>2016-06-04T09:17:18Z</time>
      </trkpt>
      <trkpt lat="47.17005" lon="-0.07027">
        <ele>38.279</ele>
        <time>2016-06-04T09:16:58Z</time>
      </trkpt>
      <trkpt lat="47.17516" lon="-0.07697">
        <ele>31.596</ele>
        <time>2016-06-04T09:16:38Z</time>
      </trkpt>
      <trkpt lat="47.17625" lon="-0.07476">
        <ele>40.431</ele>
        <time>2016-06-04T09:16:18Z</time>
      </trkpt>
      <trkpt lat="47.1778" lon="-0.07079">
        <ele>40.835</ele>
        <time>2016-06-04T09:15:58Z</time>
      </trkpt>
      <trkpt lat="47.18107" lon="-0.07201">
        <ele>37.808</ele>
        <time>2016-06-04T09:15:38Z</time>
      </trkpt>
      <trkpt lat="47.18166" lon="-0.07195">
        <ele>38.024</ele>
        <time>2016-06-04T09:15:18Z</time>
      </trkpt>
      <trkpt lat="47.1788" lon="-0.08182">
        <ele>30.031</ele>
        <time>2016-06-04T09:14:58Z</time>
      </trkpt>
      <trkpt lat="47.17967" lon="-0.08227">
        <ele>30.396</ele>
        <time>2016-06-04T09:14:38Z</time>
      </trkpt>
      <trkpt lat="47.18022" lon="-0.08274">
        <ele>32.837</ele>
        <time>2016-06-04T09:14:18Z</time>
      </trkpt>
      <trkpt lat="47.18131" lon="-0.08289">
        <ele>29.358</ele>
        <time>2016-06-04T09:13:58Z</time>
      </trkpt>
      <trkpt lat="47.18314" lon="-0.08283">
        <ele>30.152</ele>
        <time>2016-06-04T09:13:38Z</time>
      </trkpt>
      <trkpt lat="47.18314" lon="-0.08283">
        <ele>30.11</ele>
        <time>2016-06-04T09:13:18Z</time>
      </trkpt>
      <trkpt lat="47.1842" lon="-0.08253">
        <ele>31.944</ele>
        <time>2016-06-04T09:12:58Z</time>
      </trkpt>
      <trkpt lat="47.18522" lon="-0.08231">
        <ele>30.351</ele>
        <time>2016-06-04T09:12:38Z</time>
      </trkpt>
      <trkpt lat="47.18686" lon="-0.0825">
        <ele>30.066</ele>
        <time>2016-06-04T09:12:18Z</time>
      </trkpt>
      <trkpt lat="47.18772" lon="-0.08242">
        <ele>31.47</ele>
        <time>2016-06-04T09:11:38Z</time>
      </trkpt>
      <trkpt lat="47.18882" lon="-0.08259">
        <ele>27.508</ele>
        <time>2016-06-04T09:10:58Z</time>
      </trkpt>
      <trkpt lat="47.18916" lon="-0.08242">
        <ele>28.022</ele>
        <time>2016-06-04T09:10:38Z</time>
      </trkpt>
      <trkpt lat="47.1897" lon="-0.08225">
        <ele>28.802</ele>
        <time>2016-06-04T09:10:18Z</time>
      </trkpt>
      <trkpt lat="47.19057" lon="-0.0819">
        <ele>31.149</ele>
        <time>2016-06-04T09:09:58Z</time>
      </trkpt>
      <trkpt lat="47.19159" lon="-0.08096">
        <ele>31.111</ele>
        <time>2016-06-04T09:09:38Z</time>
      </trkpt>
      <trkpt lat="47.19245" lon="-0.08036">
        <ele>28.532</ele>
        <time>2016-06-04T09:09:18Z</time>
      </trkpt>
      <trkpt lat="47.1931" lon="-0.0801">
        <ele>27.616</ele>
        <time>2016-06-04T09:08:58Z</time>
      </trkpt>
      <trkpt lat="47.19308" lon="-0.07806">
        <ele>27.994</ele>
        <time>2016-06-04T09:08:38Z</time>
      </trkpt>
      <trkpt lat="47.19333" lon="-0.07778">
        <ele>29.068</ele>
        <time>2016-06-04T09:08:18Z</time>
      </trkpt>
      <trkpt lat="47.19366" lon="-0.07894">
        <ele>29.215</ele>
        <time>2016-06-04T09:07:58Z</time>
      </trkpt>
      <trkpt lat="47.19428" lon="-0.07905">
        <ele>31.06</ele>
        <time>2016-06-04T09:07:38Z</time>
      </trkpt>
      <trkpt lat="47.19432" lon="-0.07935">
        <ele>29.694</ele>
        <time>2016-06-04T09:07:18Z</time>
      </trkpt>
      <trkpt lat="47.1947" lon="-0.07982">
        <ele>29.608</ele>
        <time>2016-06-04T09:06:58Z</time>
      </trkpt>
      <trkpt lat="47.19498" lon="-0.07995">
        <ele>30.117</ele>
        <time>2016-06-04T09:06:38Z</time>
      </trkpt>
      <trkpt lat="47.196" lon="-0.08004">
        <ele>31.589</ele>
        <time>2016-06-04T09:06:18Z</time>
      </trkpt>
      <trkpt lat="47.19722" lon="-0.07993">
        <ele>38.385</ele>
        <time>2016-06-04T09:05:58Z</time>
      </trkpt>
      <trkpt lat="47.19786" lon="-0.08019">
        <ele>40.144</ele>
        <time>2016-06-04T09:05:38Z</time>
      </trkpt>
      <trkpt lat="47.19811" lon="-0.08014">
        <ele>42.455</ele>
        <time>2016-06-04T09:05:18Z</time>
      </trkpt>
      <trkpt lat="47.1981" lon="-0.07974">
        <ele>44.229</ele>
        <time>2016-06-04T09:04:58Z</time>
      </trkpt>
      <trkpt lat="47.19823" lon="-0.07941">
        <ele>46.427</ele>
        <time>2016-06-04T09:04:38Z</time>
      </trkpt>
      <trkpt lat="47.19862" lon="-0.07967">
        <ele>49.471</ele>
        <time>2016-06-04T09:04:18Z</time>
      </trkpt>
      <trkpt lat="47.19875" lon="-0.0801">
        <ele>48.278</ele>
        <time>2016-06-04T09:03:58Z</time>
      </trkpt>
      <trkpt lat="47.19909" lon="-0.08036">
        <ele>48.773</ele>
        <time>2016-06-04T09:03:38Z</time>
      </trkpt>
      <trkpt lat="47.19921" lon="-0.08098">
        <ele>39.577</ele>
        <time>2016-06-04T09:03:18Z</time>
      </trkpt>
      <trkpt lat="47.19945" lon="-0.08141">
        <ele>32.808</ele>
        <time>2016-06-04T09:02:58Z</time>
      </trkpt>
      <trkpt lat="47.19983" lon="-0.08156">
        <ele>33.719</ele>
        <time>2016-06-04T09:02:38Z</time>
      </trkpt>
      <trkpt lat="47.20046" lon="-0.08169">
        <ele>35.309</ele>
        <time>2016-06-04T09:02:18Z</time>
      </trkpt>
      <trkpt lat="47.20062" lon="-0.08205">
        <ele>30.919</ele>
        <time>2016-06-04T09:01:58Z</time>
      </trkpt>
      <trkpt lat="47.20086" lon="-0.08229">
        <ele>29.875</ele>
        <time>2016-06-04T09:01:38Z</time>
      </trkpt>
      <trkpt lat="47.20308" lon="-0.08278">
        <ele>30.076</ele>
        <time>2016-06-04T09:01:18Z</time>
      </trkpt>
      <trkpt lat="47.20526" lon="-0.0828">
        <ele>25.98</ele>
        <time>2016-06-04T09:00:58Z</time>
      </trkpt>
      <trkpt lat="47.20661" lon="-0.08214">
        <ele>27.588</ele>
        <time>2016-06-04T09:00:38Z</time>
      </trkpt>
      <trkpt lat="47.20828" lon="-0.08165">
        <ele>29.872</ele>
        <time>2016-06-04T09:00:18Z</time>
      </trkpt>
      <trkpt lat="47.20925" lon="-0.08122">
        <ele>29.079</ele>
        <time>2016-06-04T08:59:58Z</time>
      </trkpt>
      <trkpt lat="47.20961" lon="-0.08064">
        <ele>29.094</ele>
        <time>2016-06-04T08:59:38Z</time>
      </trkpt>
      <trkpt lat="47.21007" lon="-0.08032">
        <ele>29.338</ele>
        <time>2016-06-04T08:59:18Z</time>
      </trkpt>
      <trkpt lat="47.21014" lon="-0.07984">
        <ele>29.808</ele>
        <time>2016-06-04T08:58:58Z</time>
      </trkpt>
      <trkpt lat="47.21135" lon="-0.0795">
        <ele>30.814</ele>
        <time>2016-06-04T08:58:38Z</time>
      </trkpt>
      <trkpt lat="47.21253" lon="-0.07978">
        <ele>33.804</ele>
        <time>2016-06-04T08:58:18Z</time>
      </trkpt>
      <trkpt lat="47.2134" lon="-0.07944">
        <ele>33.724</ele>
        <time>2016-06-04T08:57:58Z</time>
      </trkpt>
      <trkpt lat="47.21495" lon="-0.07989">
        <ele>30.768</ele>
        <time>2016-06-04T08:57:38Z</time>
      </trkpt>
      <trkpt lat="47.21556" lon="-0.07961">
        <ele>28.869</ele>
        <time>2016-06-04T08:57:18Z</time>
      </trkpt>
      <trkpt lat="47.21673" lon="-0.07959">
        <ele>28.343</ele>
        <time>2016-06-04T08:56:58Z</time>
      </trkpt>
      <trkpt lat="47.21731" lon="-0.07974">
        <ele>27.351</ele>
        <time>2016-06-04T08:56:38Z</time>
      </trkpt>
      <trkpt lat="47.21805" lon="-0.08057">
        <ele>27.985</ele>
        <time>2016-06-04T08:56:18Z</time>
      </trkpt>
      <trkpt lat="47.21966" lon="-0.08128">
        <ele>26.432</ele>
        <time>2016-06-04T08:55:58Z</time>
      </trkpt>
      <trkpt lat="47.22044" lon="-0.08128">
        <ele>28.437</ele>
        <time>2016-06-04T08:55:38Z</time>
      </trkpt>
      <trkpt lat="47.22143" lon="-0.08145">
        <ele>28.961</ele>
        <time>2016-06-04T08:54:58Z</time>
      </trkpt>
      <trkpt lat="47.22248" lon="-0.08147">
        <ele>29.708</ele>
        <time>2016-06-04T08:54:38Z</time>
      </trkpt>
      <trkpt lat="47.22278" lon="-0.08156">
        <ele>29.008</ele>
        <time>2016-06-04T08:54:18Z</time>
      </trkpt>
      <trkpt lat="47.22484" lon="-0.08152">
        <ele>28.453</ele>
        <time>2016-06-04T08:53:58Z</time>
      </trkpt>
      <trkpt lat="47.22776" lon="-0.08032">
        <ele>30.052</ele>
        <time>2016-06-04T08:53:38Z</time>
      </trkpt>
      <trkpt lat="47.22776" lon="-0.08032">
        <ele>30.052</ele>
        <time>2016-06-04T08:53:38Z</time>
      </trkpt>
      <trkpt lat="47.2291" lon="-0.07954">
        <ele>27.869</ele>
        <time>2016-06-04T08:53:18Z</time>
      </trkpt>
      <trkpt lat="47.23041" lon="-0.07929">
        <ele>30.79</ele>
        <time>2016-06-04T08:52:58Z</time>
      </trkpt>
      <trkpt lat="47.23158" lon="-0.07892">
        <ele>29.964</ele>
        <time>2016-06-04T08:52:38Z</time>
      </trkpt>
      <trkpt lat="47.2323" lon="-0.07856">
        <ele>26.462</ele>
        <time>2016-06-04T08:52:18Z</time>
      </trkpt>
      <trkpt lat="47.23305" lon="-0.07849">
        <ele>26.076</ele>
        <time>2016-06-04T08:51:58Z</time>
      </trkpt>
      <trkpt lat="47.23532" lon="-0.07793">
        <ele>28.613</ele>
        <time>2016-06-04T08:51:38Z</time>
      </trkpt>
      <trkpt lat="47.23707" lon="-0.07776">
        <ele>30.118</ele>
        <time>2016-06-04T08:51:18Z</time>
      </trkpt>
      <trkpt lat="47.23711" lon="-0.07929">
        <ele>26.642</ele>
        <time>2016-06-04T08:50:58Z</time>
      </trkpt>
      <trkpt lat="47.23742" lon="-0.07974">
        <ele>28.708</ele>
        <time>2016-06-04T08:50:38Z</time>
      </trkpt>
      <trkpt lat="47.23784" lon="-0.08072">
        <ele>25.326</ele>
        <time>2016-06-04T08:50:18Z</time>
      </trkpt>
      <trkpt lat="47.23772" lon="-0.08115">
        <ele>24.242</ele>
        <time>2016-06-04T08:49:58Z</time>
      </trkpt>
      <trkpt lat="47.2378" lon="-0.08162">
        <ele>24.068</ele>
        <time>2016-06-04T08:49:38Z</time>
      </trkpt>
      <trkpt lat="47.23794" lon="-0.082">
        <ele>25.115</ele>
        <time>2016-06-04T08:49:18Z</time>
      </trkpt>
      <trkpt lat="47.23809" lon="-0.08476">
        <ele>26.096</ele>
        <time>2016-06-04T08:48:58Z</time>
      </trkpt>
      <trkpt lat="47.23819" lon="-0.08527">
        <ele>25.51</ele>
        <time>2016-06-04T08:48:38Z</time>
      </trkpt>
      <trkpt lat="47.23902" lon="-0.08589">
        <ele>25.818</ele>
        <time>2016-06-04T08:48:18Z</time>
      </trkpt>
      <trkpt lat="47.24006" lon="-0.08632">
        <ele>25.452</ele>
        <time>2016-06-04T08:47:58Z</time>
      </trkpt>
      <trkpt lat="47.24032" lon="-0.08658">
        <ele>26.229</ele>
        <time>2016-06-04T08:47:38Z</time>
      </trkpt>
      <trkpt lat="47.24086" lon="-0.08665">
        <ele>26.094</ele>
        <time>2016-06-04T08:47:18Z</time>
      </trkpt>
      <trkpt lat="47.24111" lon="-0.08651">
        <ele>25.638</ele>
        <time>2016-06-04T08:46:58Z</time>
      </trkpt>
      <trkpt lat="47.24123" lon="-0.08584">
        <ele>27.408</ele>
        <time>2016-06-04T08:46:38Z</time>
      </trkpt>
      <trkpt lat="47.24176" lon="-0.086">
        <ele>27.717</ele>
        <time>2016-06-04T08:46:18Z</time>
      </trkpt>
      <trkpt lat="47.24277" lon="-0.08594">
        <ele>27.089</ele>
        <time>2016-06-04T08:45:58Z</time>
      </trkpt>
      <trkpt lat="47.24387" lon="-0.08532">
        <ele>25.128</ele>
        <time>2016-06-04T08:45:38Z</time>
      </trkpt>
      <trkpt lat="47.24457" lon="-0.08463">
        <ele>25.298</ele>
        <time>2016-06-04T08:45:18Z</time>
      </trkpt>
      <trkpt lat="47.24459" lon="-0.08478">
        <ele>25.029</ele>
        <time>2016-06-04T08:44:58Z</time>
      </trkpt>
      <trkpt lat="47.24479" lon="-0.08506">
        <ele>25.293</ele>
        <time>2016-06-04T08:44:38Z</time>
      </trkpt>
      <trkpt lat="47.24543" lon="-0.08501">
        <ele>24.171</ele>
        <time>2016-06-04T08:44:18Z</time>
      </trkpt>
      <trkpt lat="47.24623" lon="-0.08456">
        <ele>27.435</ele>
        <time>2016-06-04T08:43:18Z</time>
      </trkpt>
      <trkpt lat="47.24674" lon="-0.08456">
        <ele>26.262</ele>
        <time>2016-06-04T08:42:58Z</time>
      </trkpt>
      <trkpt lat="47.24718" lon="-0.08437">
        <ele>26.487</ele>
        <time>2016-06-04T08:42:38Z</time>
      </trkpt>
      <trkpt lat="47.24814" lon="-0.08433">
        <ele>30.481</ele>
        <time>2016-06-04T08:42:18Z</time>
      </trkpt>
      <trkpt lat="47.24947" lon="-0.08332">
        <ele>27.008</ele>
        <time>2016-06-04T08:41:58Z</time>
      </trkpt>
      <trkpt lat="47.25056" lon="-0.08298">
        <ele>28.014</ele>
        <time>2016-06-04T08:41:38Z</time>
      </trkpt>
      <trkpt lat="47.25132" lon="-0.08319">
        <ele>26.959</ele>
        <time>2016-06-04T08:40:58Z</time>
      </trkpt>
      <trkpt lat="47.25223" lon="-0.08381">
        <ele>29.356</ele>
        <time>2016-06-04T08:40:38Z</time>
      </trkpt>
      <trkpt lat="47.2528" lon="-0.08454">
        <ele>29.388</ele>
        <time>2016-06-04T08:40:18Z</time>
      </trkpt>
      <trkpt lat="47.25309" lon="-0.08493">
        <ele>29.329</ele>
        <time>2016-06-04T08:39:58Z</time>
      </trkpt>
      <trkpt lat="47.25388" lon="-0.08643">
        <ele>30.073</ele>
        <time>2016-06-04T08:39:38Z</time>
      </trkpt>
      <trkpt lat="47.25384" lon="-0.08707">
        <ele>30.041</ele>
        <time>2016-06-04T08:39:18Z</time>
      </trkpt>
      <trkpt lat="47.25419" lon="-0.08774">
        <ele>28.385</ele>
        <time>2016-06-04T08:38:58Z</time>
      </trkpt>
      <trkpt lat="47.25437" lon="-0.08776">
        <ele>29.622</ele>
        <time>2016-06-04T08:38:38Z</time>
      </trkpt>
      <trkpt lat="47.25449" lon="-0.08795">
        <ele>28.887</ele>
        <time>2016-06-04T08:38:18Z</time>
      </trkpt>
      <trkpt lat="47.25496" lon="-0.08815">
        <ele>28.331</ele>
        <time>2016-06-04T08:37:58Z</time>
      </trkpt>
      <trkpt lat="47.25526" lon="-0.08804">
        <ele>29.108</ele>
        <time>2016-06-04T08:37:38Z</time>
      </trkpt>
      <trkpt lat="47.25576" lon="-0.08798">
        <ele>32.717</ele>
        <time>2016-06-04T08:37:18Z</time>
      </trkpt>
      <trkpt lat="47.25641" lon="-0.08516">
        <ele>26.752</ele>
        <time>2016-06-04T08:36:58Z</time>
      </trkpt>
      <trkpt lat="47.25472" lon="-0.08197">
        <ele>28.158</ele>
        <time>2016-06-04T08:36:38Z</time>
      </trkpt>
      <trkpt lat="47.25443" lon="-0.0818">
        <ele>29.097</ele>
        <time>2016-06-04T08:36:18Z</time>
      </trkpt>
      <trkpt lat="47.25579" lon="-0.07932">
        <ele>29.298</ele>
        <time>2016-06-04T08:35:58Z</time>
      </trkpt>
      <trkpt lat="47.2557" lon="-0.079">
        <ele>30.172</ele>
        <time>2016-06-04T08:35:38Z</time>
      </trkpt>
      <trkpt lat="47.25611" lon="-0.07874">
        <ele>31.17</ele>
        <time>2016-06-04T08:35:18Z</time>
      </trkpt>
      <trkpt lat="47.2563" lon="-0.0784">
        <ele>33.484</ele>
        <time>2016-06-04T08:34:58Z</time>
      </trkpt>
      <trkpt lat="47.25703" lon="-0.07811">
        <ele>33.771</ele>
        <time>2016-06-04T08:34:38Z</time>
      </trkpt>
      <trkpt lat="47.25673" lon="-0.07684">
        <ele>37.426</ele>
        <time>2016-06-04T08:34:18Z</time>
      </trkpt>
      <trkpt lat="47.25673" lon="-0.07635">
        <ele>41.57</ele>
        <time>2016-06-04T08:33:58Z</time>
      </trkpt>
      <trkpt lat="47.25718" lon="-0.07638">
        <ele>43.708</ele>
        <time>2016-06-04T08:33:38Z</time>
      </trkpt>
      <trkpt lat="47.25744" lon="-0.07613">
        <ele>43.921</ele>
        <time>2016-06-04T08:33:18Z</time>
      </trkpt>
      <trkpt lat="47.25783" lon="-0.07608">
        <ele>41.229</ele>
        <time>2016-06-04T08:32:58Z</time>
      </trkpt>
      <trkpt lat="47.2582" lon="-0.07563">
        <ele>43.247</ele>
        <time>2016-06-04T08:32:38Z</time>
      </trkpt>
      <trkpt lat="47.25832" lon="-0.07539">
        <ele>42.587</ele>
        <time>2016-06-04T08:32:18Z</time>
      </trkpt>
      <trkpt lat="47.25829" lon="-0.07518">
        <ele>42.398</ele>
        <time>2016-06-04T08:31:58Z</time>
      </trkpt>
      <trkpt lat="47.2584" lon="-0.07503">
        <ele>40.432</ele>
        <time>2016-06-04T08:29:58Z</time>
      </trkpt>
      <trkpt lat="47.25856" lon="-0.07508">
        <ele>38.83</ele>
        <time>2016-06-04T08:29:38Z</time>
      </trkpt>
      <trkpt lat="47.25877" lon="-0.07493">
        <ele>37.164</ele>
        <time>2016-06-04T08:26:58Z</time>
      </trkpt>
      <trkpt lat="47.25906" lon="-0.07495">
        <ele>36.791</ele>
        <time>2016-06-04T08:26:38Z</time>
      </trkpt>
      <trkpt lat="47.25982" lon="-0.07448">
        <ele>35.846</ele>
        <time>2016-06-04T08:26:18Z</time>
      </trkpt>
      <trkpt lat="47.25995" lon="-0.0742">
        <ele>32.21</ele>
        <time>2016-06-04T08:25:58Z</time>
      </trkpt>
      <trkpt lat="47.26128" lon="-0.07678">
        <ele>36.108</ele>
        <time>2016-06-04T08:25:38Z</time>
      </trkpt>
      <trkpt lat="47.26128" lon="-0.07678">
        <ele>36.11</ele>
        <time>2016-06-04T08:25:18Z</time>
      </trkpt>
      <trkpt lat="47.26722" lon="-0.06991">
        <ele>28.264</ele>
        <time>2016-06-04T08:24:58Z</time>
      </trkpt>
      <trkpt lat="47.26722" lon="-0.06991">
        <ele>28.264</ele>
        <time>2016-06-04T08:24:58Z</time>
      </trkpt>
      <trkpt lat="47.26722" lon="-0.06991">
        <ele>28.264</ele>
        <time>2016-06-04T08:24:58Z</time>
      </trkpt>
      <trkpt lat="47.26722" lon="-0.06991">
        <ele>28.264</ele>
        <time>2016-06-04T08:24:58Z</time>
      </trkpt>
      <trkpt lat="47.26553" lon="-0.06658">
        <ele>26.943</ele>
        <time>2016-06-04T08:24:38Z</time>
      </trkpt>
      <trkpt lat="47.26358" lon="-0.05648">
        <ele>29.748</ele>
        <time>2016-06-04T08:24:18Z</time>
      </trkpt>
      <trkpt lat="47.26358" lon="-0.05648">
        <ele>29.789</ele>
        <time>2016-06-04T08:23:58Z</time>
      </trkpt>
      <trkpt lat="47.26358" lon="-0.05645">
        <ele>29.683</ele>
        <time>2016-06-04T08:23:38Z</time>
      </trkpt>
      <trkpt lat="47.26441" lon="-0.05592">
        <ele>27.051</ele>
        <time>2016-06-04T08:23:18Z</time>
      </trkpt>
      <trkpt lat="47.26519" lon="-0.05564">
        <ele>27.225</ele>
        <time>2016-06-04T08:22:58Z</time>
      </trkpt>
      <trkpt lat="47.26624" lon="-0.05504">
        <ele>27.152</ele>
        <time>2016-06-04T08:22:38Z</time>
      </trkpt>
      <trkpt lat="47.2662" lon="-0.05489">
        <ele>26.787</ele>
        <time>2016-06-04T08:22:18Z</time>
      </trkpt>
      <trkpt lat="47.26562" lon="-0.05328">
        <ele>26.881</ele>
        <time>2016-06-04T08:21:58Z</time>
      </trkpt>
      <trkpt lat="47.26496" lon="-0.05173">
        <ele>26.908</ele>
        <time>2016-06-04T08:21:38Z</time>
      </trkpt>
      <trkpt lat="47.26457" lon="-0.05137">
        <ele>29.017</ele>
        <time>2016-06-04T08:21:18Z</time>
      </trkpt>
      <trkpt lat="47.26435" lon="-0.051">
        <ele>28.552</ele>
        <time>2016-06-04T08:20:58Z</time>
      </trkpt>
      <trkpt lat="47.26448" lon="-0.05034">
        <ele>27.358</ele>
        <time>2016-06-04T08:20:38Z</time>
      </trkpt>
      <trkpt lat="47.26506" lon="-0.04989">
        <ele>26.876</ele>
        <time>2016-06-04T08:20:18Z</time>
      </trkpt>
      <trkpt lat="47.26589" lon="-0.04967">
        <ele>25.067</ele>
        <time>2016-06-04T08:19:58Z</time>
      </trkpt>
      <trkpt lat="47.26677" lon="-0.04897">
        <ele>25.041</ele>
        <time>2016-06-04T08:19:38Z</time>
      </trkpt>
      <trkpt lat="47.26677" lon="-0.04897">
        <ele>25.041</ele>
        <time>2016-06-04T08:19:38Z</time>
      </trkpt>
      <trkpt lat="47.2669" lon="-0.0486">
        <ele>25.059</ele>
        <time>2016-06-04T08:19:18Z</time>
      </trkpt>
      <trkpt lat="47.26715" lon="-0.04824">
        <ele>26.043</ele>
        <time>2016-06-04T08:18:58Z</time>
      </trkpt>
      <trkpt lat="47.26761" lon="-0.04727">
        <ele>25.04</ele>
        <time>2016-06-04T08:18:38Z</time>
      </trkpt>
      <trkpt lat="47.2692" lon="-0.04512">
        <ele>25.015</ele>
        <time>2016-06-04T08:18:18Z</time>
      </trkpt>
      <trkpt lat="47.26964" lon="-0.04403">
        <ele>23.889</ele>
        <time>2016-06-04T08:17:58Z</time>
      </trkpt>
      <trkpt lat="47.26977" lon="-0.04345">
        <ele>23.008</ele>
        <time>2016-06-04T08:17:38Z</time>
      </trkpt>
      <trkpt lat="47.27048" lon="-0.04266">
        <ele>26.015</ele>
        <time>2016-06-04T08:17:18Z</time>
      </trkpt>
      <trkpt lat="47.27038" lon="-0.04212">
        <ele>26.423</ele>
        <time>2016-06-04T08:16:58Z</time>
      </trkpt>
      <trkpt lat="47.27083" lon="-0.04143">
        <ele>25.033</ele>
        <time>2016-06-04T08:16:38Z</time>
      </trkpt>
      <trkpt lat="47.27099" lon="-0.04049">
        <ele>22.372</ele>
        <time>2016-06-04T08:16:18Z</time>
      </trkpt>
      <trkpt lat="47.27162" lon="-0.04017">
        <ele>22.323</ele>
        <time>2016-06-04T08:15:58Z</time>
      </trkpt>
      <trkpt lat="47.27207" lon="-0.03957">
        <ele>23.427</ele>
        <time>2016-06-04T08:15:38Z</time>
      </trkpt>
      <trkpt lat="47.27224" lon="-0.03895">
        <ele>24.075</ele>
        <time>2016-06-04T08:15:18Z</time>
      </trkpt>
      <trkpt lat="47.27288" lon="-0.0377">
        <ele>28.169</ele>
        <time>2016-06-04T08:14:58Z</time>
      </trkpt>
      <trkpt lat="47.27348" lon="-0.03744">
        <ele>25.536</ele>
        <time>2016-06-04T08:14:38Z</time>
      </trkpt>
      <trkpt lat="47.27466" lon="-0.03725">
        <ele>27.761</ele>
        <time>2016-06-04T08:14:18Z</time>
      </trkpt>
      <trkpt lat="47.27536" lon="-0.03736">
        <ele>24.735</ele>
        <time>2016-06-04T08:13:58Z</time>
      </trkpt>
      <trkpt lat="47.27675" lon="-0.03699">
        <ele>23.508</ele>
        <time>2016-06-04T08:13:38Z</time>
      </trkpt>
      <trkpt lat="47.27836" lon="-0.03611">
        <ele>25.026</ele>
        <time>2016-06-04T08:13:18Z</time>
      </trkpt>
      <trkpt lat="47.27955" lon="-0.03562">
        <ele>21.115</ele>
        <time>2016-06-04T08:12:58Z</time>
      </trkpt>
      <trkpt lat="47.27956" lon="-0.03427">
        <ele>23.098</ele>
        <time>2016-06-04T08:12:38Z</time>
      </trkpt>
      <trkpt lat="47.27968" lon="-0.03354">
        <ele>22.968</ele>
        <time>2016-06-04T08:12:18Z</time>
      </trkpt>
      <trkpt lat="47.27948" lon="-0.03214">
        <ele>23.069</ele>
        <time>2016-06-04T08:11:58Z</time>
      </trkpt>
      <trkpt lat="47.28026" lon="-0.03152">
        <ele>22.943</ele>
        <time>2016-06-04T08:11:38Z</time>
      </trkpt>
      <trkpt lat="47.28034" lon="-0.03111">
        <ele>23.011</ele>
        <time>2016-06-04T08:11:18Z</time>
      </trkpt>
      <trkpt lat="47.28006" lon="-0.03">
        <ele>23.225</ele>
        <time>2016-06-04T08:10:58Z</time>
      </trkpt>
      <trkpt lat="47.27969" lon="-0.02925">
        <ele>26.732</ele>
        <time>2020-12-24T17:41:35Z</time>
      </trkpt>
      <trkpt lat="47.28026" lon="-0.02827">
        <ele>29.617</ele>
        <time>2020-12-24T17:41:15Z</time>
      </trkpt>
      <trkpt lat="47.28108" lon="-0.02762">
        <ele>24.081</ele>
        <time>2020-12-24T17:40:55Z</time>
      </trkpt>
      <trkpt lat="47.28245" lon="-0.02583">
        <ele>22.008</ele>
        <time>2020-12-24T17:40:35Z</time>
      </trkpt>
      <trkpt lat="47.28249" lon="-0.02535">
        <ele>22.623</ele>
        <time>2020-12-24T17:40:15Z</time>
      </trkpt>
      <trkpt lat="47.2839" lon="-0.02382">
        <ele>23.303</ele>
        <time>2020-12-24T17:39:55Z</time>
      </trkpt>
      <trkpt lat="47.28782" lon="-0.02199">
        <ele>24.959</ele>
        <time>2016-06-04T08:01:18Z</time>
      </trkpt>
      <trkpt lat="47.29041" lon="-0.02004">
        <ele>23.419</ele>
        <time>2016-06-04T08:00:58Z</time>
      </trkpt>
      <trkpt lat="47.29144" lon="-0.01948">
        <ele>22.94</ele>
        <time>2016-06-04T08:00:38Z</time>
      </trkpt>
      <trkpt lat="47.29347" lon="-0.0179">
        <ele>23.414</ele>
        <time>2016-06-04T08:00:18Z</time>
      </trkpt>
      <trkpt lat="47.29463" lon="-0.01663">
        <ele>21.392</ele>
        <time>2016-06-04T07:59:58Z</time>
      </trkpt>
      <trkpt lat="47.29563" lon="-0.01581">
        <ele>24.056</ele>
        <time>2016-06-04T07:59:38Z</time>
      </trkpt>
      <trkpt lat="47.2954" lon="-0.01472">
        <ele>22.933</ele>
        <time>2016-06-04T07:59:18Z</time>
      </trkpt>
      <trkpt lat="47.2952" lon="-0.01262">
        <ele>20.718</ele>
        <time>2016-06-04T07:58:58Z</time>
      </trkpt>
      <trkpt lat="47.29537" lon="-0.01154">
        <ele>21.852</ele>
        <time>2016-06-04T07:58:38Z</time>
      </trkpt>
      <trkpt lat="47.29533" lon="-0.0103">
        <ele>25.008</ele>
        <time>2016-06-04T07:58:18Z</time>
      </trkpt>
      <trkpt lat="47.29542" lon="-0.00925">
        <ele>22.016</ele>
        <time>2016-06-04T07:57:58Z</time>
      </trkpt>
      <trkpt lat="47.29582" lon="-0.00833">
        <ele>22.006</ele>
        <time>2016-06-04T07:57:38Z</time>
      </trkpt>
      <trkpt lat="47.29563" lon="-0.00635">
        <ele>23.964</ele>
        <time>2016-06-04T07:57:18Z</time>
      </trkpt>
      <trkpt lat="47.29751" lon="-0.00562">
        <ele>24.029</ele>
        <time>2016-06-04T07:56:58Z</time>
      </trkpt>
      <trkpt lat="47.29835" lon="-0.00584">
        <ele>26.09</ele>
        <time>2016-06-04T07:56:38Z</time>
      </trkpt>
      <trkpt lat="47.29898" lon="-0.0059">
        <ele>25.484</ele>
        <time>2016-06-04T07:56:18Z</time>
      </trkpt>
      <trkpt lat="47.29972" lon="-0.0056">
        <ele>24.292</ele>
        <time>2016-06-04T07:55:58Z</time>
      </trkpt>
      <trkpt lat="47.30097" lon="-0.00487">
        <ele>25.786</ele>
        <time>2016-06-04T07:55:38Z</time>
      </trkpt>
      <trkpt lat="47.30193" lon="-0.00461">
        <ele>28.553</ele>
        <time>2016-06-04T07:55:18Z</time>
      </trkpt>
      <trkpt lat="47.30241" lon="-0.00524">
        <ele>28.918</ele>
        <time>2016-06-04T07:54:58Z</time>
      </trkpt>
      <trkpt lat="47.30333" lon="-0.00442">
        <ele>28.962</ele>
        <time>2016-06-04T07:54:38Z</time>
      </trkpt>
      <trkpt lat="47.3032" lon="-0.00408">
        <ele>27.808</ele>
        <time>2016-06-04T07:54:18Z</time>
      </trkpt>
      <trkpt lat="47.30276" lon="-0.00382">
        <ele>27.024</ele>
        <time>2016-06-04T07:53:58Z</time>
      </trkpt>
      <trkpt lat="47.30255" lon="-0.00298">
        <ele>27.504</ele>
        <time>2016-06-04T07:53:38Z</time>
      </trkpt>
      <trkpt lat="47.30282" lon="-0.00255">
        <ele>26.069</ele>
        <time>2016-06-04T07:53:18Z</time>
      </trkpt>
      <trkpt lat="47.30256" lon="-0.00129">
        <ele>28.289</ele>
        <time>2016-06-04T07:52:58Z</time>
      </trkpt>
      <trkpt lat="47.30246" lon="-0.00034">
        <ele>28.84</ele>
        <time>2016-06-04T07:52:38Z</time>
      </trkpt>
      <trkpt lat="47.30182" lon="0.00223">
        <ele>27.154</ele>
        <time>2016-06-04T07:52:18Z</time>
      </trkpt>
      <trkpt lat="47.3016" lon="0.00421">
        <ele>27.752</ele>
        <time>2016-06-04T07:51:58Z</time>
      </trkpt>
      <trkpt lat="47.30259" lon="0.00416">
        <ele>28.346</ele>
        <time>2016-06-04T07:51:38Z</time>
      </trkpt>
      <trkpt lat="47.30352" lon="0.00479">
        <ele>29.053</ele>
        <time>2016-06-04T07:51:18Z</time>
      </trkpt>
      <trkpt lat="47.30319" lon="0.00526">
        <ele>29.048</ele>
        <time>2016-06-04T07:50:58Z</time>
      </trkpt>
      <trkpt lat="47.30236" lon="0.00577">
        <ele>27.982</ele>
        <time>2016-06-04T07:50:38Z</time>
      </trkpt>
      <trkpt lat="47.3015" lon="0.00614">
        <ele>28.108</ele>
        <time>2016-06-04T07:50:18Z</time>
      </trkpt>
      <trkpt lat="47.30148" lon="0.00642">
        <ele>29.113</ele>
        <time>2016-06-04T07:49:58Z</time>
      </trkpt>
      <trkpt lat="47.30141" lon="0.00809">
        <ele>29.821</ele>
        <time>2016-06-04T07:49:38Z</time>
      </trkpt>
      <trkpt lat="47.30112" lon="0.00914">
        <ele>28.961</ele>
        <time>2016-06-04T07:49:18Z</time>
      </trkpt>
      <trkpt lat="47.3018" lon="0.00991">
        <ele>30.295</ele>
        <time>2016-06-04T07:48:58Z</time>
      </trkpt>
      <trkpt lat="47.30135" lon="0.01114">
        <ele>35.056</ele>
        <time>2016-06-04T07:48:38Z</time>
      </trkpt>
      <trkpt lat="47.30122" lon="0.012">
        <ele>35.42</ele>
        <time>2016-06-04T07:48:18Z</time>
      </trkpt>
      <trkpt lat="47.30131" lon="0.01253">
        <ele>36.778</ele>
        <time>2016-06-04T07:47:58Z</time>
      </trkpt>
      <trkpt lat="47.3016" lon="0.01356">
        <ele>37.032</ele>
        <time>2016-06-04T07:47:38Z</time>
      </trkpt>
      <trkpt lat="47.30166" lon="0.01704">
        <ele>39.059</ele>
        <time>2016-06-04T07:47:18Z</time>
      </trkpt>
      <trkpt lat="47.30183" lon="0.01891">
        <ele>40.054</ele>
        <time>2016-06-04T07:46:58Z</time>
      </trkpt>
      <trkpt lat="47.30185" lon="0.02043">
        <ele>38.868</ele>
        <time>2016-06-04T07:46:38Z</time>
      </trkpt>
      <trkpt lat="47.3015" lon="0.02363">
        <ele>39.608</ele>
        <time>2016-06-04T07:46:18Z</time>
      </trkpt>
      <trkpt lat="47.30108" lon="0.02468">
        <ele>40.02</ele>
        <time>2016-06-04T07:45:58Z</time>
      </trkpt>
      <trkpt lat="47.30071" lon="0.0259">
        <ele>39.9</ele>
        <time>2016-06-04T07:45:38Z</time>
      </trkpt>
      <trkpt lat="47.30049" lon="0.02749">
        <ele>40.229</ele>
        <time>2016-06-04T07:45:18Z</time>
      </trkpt>
      <trkpt lat="47.30057" lon="0.02809">
        <ele>40.049</ele>
        <time>2016-06-04T07:44:58Z</time>
      </trkpt>
      <trkpt lat="47.30028" lon="0.02933">
        <ele>40.05</ele>
        <time>2016-06-04T07:44:38Z</time>
      </trkpt>
      <trkpt lat="47.30022" lon="0.03021">
        <ele>40.844</ele>
        <time>2016-06-04T07:44:18Z</time>
      </trkpt>
      <trkpt lat="47.30022" lon="0.033">
        <ele>41.632</ele>
        <time>2016-06-04T07:43:58Z</time>
      </trkpt>
      <trkpt lat="47.30007" lon="0.03356">
        <ele>42.836</ele>
        <time>2016-06-04T07:43:38Z</time>
      </trkpt>
      <trkpt lat="47.29945" lon="0.03412">
        <ele>40.063</ele>
        <time>2016-06-04T07:43:18Z</time>
      </trkpt>
      <trkpt lat="47.29866" lon="0.03607">
        <ele>41.038</ele>
        <time>2016-06-04T07:42:58Z</time>
      </trkpt>
      <trkpt lat="47.29961" lon="0.03682">
        <ele>39.892</ele>
        <time>2016-06-04T07:42:38Z</time>
      </trkpt>
      <trkpt lat="47.29981" lon="0.03678">
        <ele>40.108</ele>
        <time>2016-06-04T07:42:18Z</time>
      </trkpt>
      <trkpt lat="47.30009" lon="0.03603">
        <ele>40.018</ele>
        <time>2016-06-04T07:41:58Z</time>
      </trkpt>
      <trkpt lat="47.30028" lon="0.03603">
        <ele>40.044</ele>
        <time>2016-06-04T07:41:38Z</time>
      </trkpt>
      <trkpt lat="47.30045" lon="0.03616">
        <ele>40.763</ele>
        <time>2016-06-04T07:41:18Z</time>
      </trkpt>
      <trkpt lat="47.30122" lon="0.03661">
        <ele>43.456</ele>
        <time>2016-06-04T07:40:58Z</time>
      </trkpt>
      <trkpt lat="47.30273" lon="0.0379">
        <ele>41.567</ele>
        <time>2016-06-04T07:40:38Z</time>
      </trkpt>
      <trkpt lat="47.30305" lon="0.03848">
        <ele>42.021</ele>
        <time>2016-06-04T07:40:18Z</time>
      </trkpt>
      <trkpt lat="47.30349" lon="0.03873">
        <ele>42.639</ele>
        <time>2016-06-04T07:39:58Z</time>
      </trkpt>
      <trkpt lat="47.30423" lon="0.0386">
        <ele>44.263</ele>
        <time>2016-06-04T07:39:38Z</time>
      </trkpt>
      <trkpt lat="47.3058" lon="0.03901">
        <ele>46.32</ele>
        <time>2016-06-04T07:39:18Z</time>
      </trkpt>
      <trkpt lat="47.30621" lon="0.03933">
        <ele>50.035</ele>
        <time>2016-06-04T07:38:58Z</time>
      </trkpt>
      <trkpt lat="47.30928" lon="0.04117">
        <ele>67.329</ele>
        <time>2016-06-04T07:38:38Z</time>
      </trkpt>
      <trkpt lat="47.30977" lon="0.04108">
        <ele>70.208</ele>
        <time>2016-06-04T07:38:18Z</time>
      </trkpt>
      <trkpt lat="47.31013" lon="0.04067">
        <ele>73.821</ele>
        <time>2016-06-04T07:37:58Z</time>
      </trkpt>
      <trkpt lat="47.31047" lon="0.0407">
        <ele>76.701</ele>
        <time>2016-06-04T07:37:38Z</time>
      </trkpt>
      <trkpt lat="47.31102" lon="0.04145">
        <ele>77.839</ele>
        <time>2016-06-04T07:37:18Z</time>
      </trkpt>
      <trkpt lat="47.31179" lon="0.04329">
        <ele>84.196</ele>
        <time>2016-06-04T07:36:58Z</time>
      </trkpt>
      <trkpt lat="47.31211" lon="0.0446">
        <ele>87.957</ele>
        <time>2016-06-04T07:36:38Z</time>
      </trkpt>
      <trkpt lat="47.31249" lon="0.04529">
        <ele>87.081</ele>
        <time>2016-06-04T07:36:18Z</time>
      </trkpt>
      <trkpt lat="47.313" lon="0.04557">
        <ele>84.919</ele>
        <time>2016-06-04T07:35:58Z</time>
      </trkpt>
      <trkpt lat="47.314" lon="0.04735">
        <ele>92.263</ele>
        <time>2016-06-04T07:35:38Z</time>
      </trkpt>
      <trkpt lat="47.31477" lon="0.0479">
        <ele>96.15</ele>
        <time>2016-06-04T07:35:18Z</time>
      </trkpt>
      <trkpt lat="47.31553" lon="0.04893">
        <ele>103.575</ele>
        <time>2016-06-04T07:34:58Z</time>
      </trkpt>
    </trkseg>
  </trk>
</gpx>